<?xml version="1.0" encoding="UTF-8" standalone="no" ?>
<gpx xmlns="http://www.topografix.com/GPX/1/1" xmlns:xsi="http://www.w3.org/2001/XMLSchema-instance" xsi:schemaLocation="http://www.topografix.com/GPX/1/1 http://www.topografix.com/GPX/1/1/gpx.xsd" version="1.1" creator="VisuGPX - https://www.visugpx.com">
  <metadata>
    <name>FONTCLAIRANT BALADOU</name>
    <desc><![CDATA[Départ de Fonclairant sur un chemin roulant en pouzollanne jusqu\'à Aurières, puis Fonsalive (mise en jambe).

Montée progressive jusqu\'à Pessade (station nordique), puis plus prononcée dans l\'estive jusqu\'au col de Baladou (principal attrait de cette balade car vue imprenable sur la chaîne des Puys et montée dans une magnifique estive).

Légère descente sur le chemin qui mène au col de la Croix Saint-Morand.
Tourner à gauche sur un chemin en forêt avec forte redescente jusqu\'à Mareuge (Cette descente n\'en finit pas ! avis aux amateurs).

Rejoindre Vernine et traverser la Nationale pour rejoindre Aydat puis Fontclairant.]]></desc>
  </metadata>
  <trk>
    <name><![CDATA[FONTCLAIRANT BALADOU]]></name>
    <trkseg>
      <trkpt lat="45.66715" lon="2.96487">
        <ele>943.67</ele>
        <time>2014-07-19T06:03:55Z</time>
      </trkpt>
      <trkpt lat="45.66715" lon="2.96487">
        <ele>944.15</ele>
        <time>2014-07-19T06:04:02Z</time>
      </trkpt>
      <trkpt lat="45.66724" lon="2.96486">
        <ele>943.67</ele>
        <time>2014-07-19T06:04:09Z</time>
      </trkpt>
      <trkpt lat="45.66734" lon="2.9649">
        <ele>943.67</ele>
        <time>2014-07-19T06:04:13Z</time>
      </trkpt>
      <trkpt lat="45.66744" lon="2.96494">
        <ele>943.67</ele>
        <time>2014-07-19T06:04:17Z</time>
      </trkpt>
      <trkpt lat="45.66759" lon="2.9649">
        <ele>944.63</ele>
        <time>2014-07-19T06:04:22Z</time>
      </trkpt>
      <trkpt lat="45.6677" lon="2.96491">
        <ele>946.56</ele>
        <time>2014-07-19T06:04:26Z</time>
      </trkpt>
      <trkpt lat="45.66774" lon="2.9649">
        <ele>946.56</ele>
        <time>2014-07-19T06:04:28Z</time>
      </trkpt>
      <trkpt lat="45.66793" lon="2.96456">
        <ele>949.44</ele>
        <time>2014-07-19T06:04:41Z</time>
      </trkpt>
      <trkpt lat="45.66798" lon="2.96406">
        <ele>951.84</ele>
        <time>2014-07-19T06:04:56Z</time>
      </trkpt>
      <trkpt lat="45.66812" lon="2.96363">
        <ele>952.8</ele>
        <time>2014-07-19T06:05:09Z</time>
      </trkpt>
      <trkpt lat="45.66832" lon="2.96325">
        <ele>954.73</ele>
        <time>2014-07-19T06:05:22Z</time>
      </trkpt>
      <trkpt lat="45.6684" lon="2.96309">
        <ele>955.69</ele>
        <time>2014-07-19T06:05:29Z</time>
      </trkpt>
      <trkpt lat="45.66857" lon="2.96279">
        <ele>957.61</ele>
        <time>2014-07-19T06:05:42Z</time>
      </trkpt>
      <trkpt lat="45.66871" lon="2.96242">
        <ele>959.05</ele>
        <time>2014-07-19T06:05:54Z</time>
      </trkpt>
      <trkpt lat="45.66887" lon="2.9621">
        <ele>961.94</ele>
        <time>2014-07-19T06:06:08Z</time>
      </trkpt>
      <trkpt lat="45.669" lon="2.96177">
        <ele>963.38</ele>
        <time>2014-07-19T06:06:20Z</time>
      </trkpt>
      <trkpt lat="45.66917" lon="2.96142">
        <ele>964.82</ele>
        <time>2014-07-19T06:06:34Z</time>
      </trkpt>
      <trkpt lat="45.66938" lon="2.96108">
        <ele>966.26</ele>
        <time>2014-07-19T06:06:49Z</time>
      </trkpt>
      <trkpt lat="45.66959" lon="2.96075">
        <ele>968.67</ele>
        <time>2014-07-19T06:07:06Z</time>
      </trkpt>
      <trkpt lat="45.6698" lon="2.96038">
        <ele>970.59</ele>
        <time>2014-07-19T06:07:23Z</time>
      </trkpt>
      <trkpt lat="45.67004" lon="2.95986">
        <ele>971.07</ele>
        <time>2014-07-19T06:07:40Z</time>
      </trkpt>
      <trkpt lat="45.6703" lon="2.95934">
        <ele>972.51</ele>
        <time>2014-07-19T06:07:57Z</time>
      </trkpt>
      <trkpt lat="45.67059" lon="2.95881">
        <ele>973.95</ele>
        <time>2014-07-19T06:08:15Z</time>
      </trkpt>
      <trkpt lat="45.67081" lon="2.95833">
        <ele>974.91</ele>
        <time>2014-07-19T06:08:30Z</time>
      </trkpt>
      <trkpt lat="45.67102" lon="2.95766">
        <ele>976.36</ele>
        <time>2014-07-19T06:08:49Z</time>
      </trkpt>
      <trkpt lat="45.67112" lon="2.95721">
        <ele>977.8</ele>
        <time>2014-07-19T06:09:03Z</time>
      </trkpt>
      <trkpt lat="45.6714" lon="2.95674">
        <ele>979.72</ele>
        <time>2014-07-19T06:09:22Z</time>
      </trkpt>
      <trkpt lat="45.67163" lon="2.95634">
        <ele>982.12</ele>
        <time>2014-07-19T06:09:39Z</time>
      </trkpt>
      <trkpt lat="45.67182" lon="2.95599">
        <ele>983.09</ele>
        <time>2014-07-19T06:09:54Z</time>
      </trkpt>
      <trkpt lat="45.67209" lon="2.95551">
        <ele>984.05</ele>
        <time>2014-07-19T06:10:11Z</time>
      </trkpt>
      <trkpt lat="45.67237" lon="2.95495">
        <ele>984.05</ele>
        <time>2014-07-19T06:10:27Z</time>
      </trkpt>
      <trkpt lat="45.6726" lon="2.95438">
        <ele>984.53</ele>
        <time>2014-07-19T06:10:40Z</time>
      </trkpt>
      <trkpt lat="45.67283" lon="2.95387">
        <ele>984.53</ele>
        <time>2014-07-19T06:10:51Z</time>
      </trkpt>
      <trkpt lat="45.67285" lon="2.95382">
        <ele>984.05</ele>
        <time>2014-07-19T06:10:52Z</time>
      </trkpt>
      <trkpt lat="45.67326" lon="2.95285">
        <ele>982.6</ele>
        <time>2014-07-19T06:11:09Z</time>
      </trkpt>
      <trkpt lat="45.67336" lon="2.9526">
        <ele>982.6</ele>
        <time>2014-07-19T06:11:13Z</time>
      </trkpt>
      <trkpt lat="45.67338" lon="2.95253">
        <ele>982.6</ele>
        <time>2014-07-19T06:11:14Z</time>
      </trkpt>
      <trkpt lat="45.6734" lon="2.95246">
        <ele>982.6</ele>
        <time>2014-07-19T06:11:15Z</time>
      </trkpt>
      <trkpt lat="45.67342" lon="2.9524">
        <ele>982.6</ele>
        <time>2014-07-19T06:11:16Z</time>
      </trkpt>
      <trkpt lat="45.67345" lon="2.95234">
        <ele>982.12</ele>
        <time>2014-07-19T06:11:17Z</time>
      </trkpt>
      <trkpt lat="45.67348" lon="2.95228">
        <ele>982.12</ele>
        <time>2014-07-19T06:11:18Z</time>
      </trkpt>
      <trkpt lat="45.67362" lon="2.95207">
        <ele>982.12</ele>
        <time>2014-07-19T06:11:22Z</time>
      </trkpt>
      <trkpt lat="45.67366" lon="2.95203">
        <ele>982.12</ele>
        <time>2014-07-19T06:11:23Z</time>
      </trkpt>
      <trkpt lat="45.67369" lon="2.95197">
        <ele>982.12</ele>
        <time>2014-07-19T06:11:24Z</time>
      </trkpt>
      <trkpt lat="45.67375" lon="2.95186">
        <ele>982.12</ele>
        <time>2014-07-19T06:11:26Z</time>
      </trkpt>
      <trkpt lat="45.67377" lon="2.9518">
        <ele>982.12</ele>
        <time>2014-07-19T06:11:27Z</time>
      </trkpt>
      <trkpt lat="45.67381" lon="2.95175">
        <ele>982.12</ele>
        <time>2014-07-19T06:11:28Z</time>
      </trkpt>
      <trkpt lat="45.67384" lon="2.95169">
        <ele>982.12</ele>
        <time>2014-07-19T06:11:29Z</time>
      </trkpt>
      <trkpt lat="45.67387" lon="2.95164">
        <ele>982.6</ele>
        <time>2014-07-19T06:11:30Z</time>
      </trkpt>
      <trkpt lat="45.67393" lon="2.95153">
        <ele>982.6</ele>
        <time>2014-07-19T06:11:32Z</time>
      </trkpt>
      <trkpt lat="45.67407" lon="2.95124">
        <ele>982.12</ele>
        <time>2014-07-19T06:11:37Z</time>
      </trkpt>
      <trkpt lat="45.6741" lon="2.95118">
        <ele>982.6</ele>
        <time>2014-07-19T06:11:38Z</time>
      </trkpt>
      <trkpt lat="45.67415" lon="2.95107">
        <ele>982.12</ele>
        <time>2014-07-19T06:11:40Z</time>
      </trkpt>
      <trkpt lat="45.67417" lon="2.95101">
        <ele>982.12</ele>
        <time>2014-07-19T06:11:41Z</time>
      </trkpt>
      <trkpt lat="45.67437" lon="2.95066">
        <ele>982.6</ele>
        <time>2014-07-19T06:11:48Z</time>
      </trkpt>
      <trkpt lat="45.67441" lon="2.95055">
        <ele>982.6</ele>
        <time>2014-07-19T06:11:50Z</time>
      </trkpt>
      <trkpt lat="45.67445" lon="2.95043">
        <ele>982.6</ele>
        <time>2014-07-19T06:11:52Z</time>
      </trkpt>
      <trkpt lat="45.67446" lon="2.95037">
        <ele>982.6</ele>
        <time>2014-07-19T06:11:53Z</time>
      </trkpt>
      <trkpt lat="45.67447" lon="2.9503">
        <ele>982.6</ele>
        <time>2014-07-19T06:11:54Z</time>
      </trkpt>
      <trkpt lat="45.67449" lon="2.95017">
        <ele>982.12</ele>
        <time>2014-07-19T06:11:56Z</time>
      </trkpt>
      <trkpt lat="45.67456" lon="2.94986">
        <ele>982.6</ele>
        <time>2014-07-19T06:12:01Z</time>
      </trkpt>
      <trkpt lat="45.67458" lon="2.9498">
        <ele>982.6</ele>
        <time>2014-07-19T06:12:02Z</time>
      </trkpt>
      <trkpt lat="45.67464" lon="2.94954">
        <ele>982.6</ele>
        <time>2014-07-19T06:12:06Z</time>
      </trkpt>
      <trkpt lat="45.67465" lon="2.94948">
        <ele>982.6</ele>
        <time>2014-07-19T06:12:07Z</time>
      </trkpt>
      <trkpt lat="45.67497" lon="2.94861">
        <ele>983.57</ele>
        <time>2014-07-19T06:12:24Z</time>
      </trkpt>
      <trkpt lat="45.67523" lon="2.94802">
        <ele>984.05</ele>
        <time>2014-07-19T06:12:38Z</time>
      </trkpt>
      <trkpt lat="45.67554" lon="2.94739">
        <ele>985.49</ele>
        <time>2014-07-19T06:12:54Z</time>
      </trkpt>
      <trkpt lat="45.67585" lon="2.94681">
        <ele>986.45</ele>
        <time>2014-07-19T06:13:09Z</time>
      </trkpt>
      <trkpt lat="45.67611" lon="2.9463">
        <ele>988.37</ele>
        <time>2014-07-19T06:13:22Z</time>
      </trkpt>
      <trkpt lat="45.67641" lon="2.94578">
        <ele>989.81</ele>
        <time>2014-07-19T06:13:36Z</time>
      </trkpt>
      <trkpt lat="45.67662" lon="2.94538">
        <ele>990.3</ele>
        <time>2014-07-19T06:13:45Z</time>
      </trkpt>
      <trkpt lat="45.67664" lon="2.94533">
        <ele>990.3</ele>
        <time>2014-07-19T06:13:46Z</time>
      </trkpt>
      <trkpt lat="45.67666" lon="2.94527">
        <ele>990.3</ele>
        <time>2014-07-19T06:13:47Z</time>
      </trkpt>
      <trkpt lat="45.67701" lon="2.94417">
        <ele>988.37</ele>
        <time>2014-07-19T06:14:04Z</time>
      </trkpt>
      <trkpt lat="45.67717" lon="2.94356">
        <ele>986.93</ele>
        <time>2014-07-19T06:14:12Z</time>
      </trkpt>
      <trkpt lat="45.6774" lon="2.94299">
        <ele>989.33</ele>
        <time>2014-07-19T06:14:23Z</time>
      </trkpt>
      <trkpt lat="45.67759" lon="2.94245">
        <ele>991.26</ele>
        <time>2014-07-19T06:14:37Z</time>
      </trkpt>
      <trkpt lat="45.67773" lon="2.94187">
        <ele>992.22</ele>
        <time>2014-07-19T06:14:51Z</time>
      </trkpt>
      <trkpt lat="45.67789" lon="2.94111">
        <ele>993.18</ele>
        <time>2014-07-19T06:15:08Z</time>
      </trkpt>
      <trkpt lat="45.67803" lon="2.9402">
        <ele>994.62</ele>
        <time>2014-07-19T06:15:27Z</time>
      </trkpt>
      <trkpt lat="45.67821" lon="2.9394">
        <ele>997.02</ele>
        <time>2014-07-19T06:15:46Z</time>
      </trkpt>
      <trkpt lat="45.67837" lon="2.93878">
        <ele>997.99</ele>
        <time>2014-07-19T06:16:01Z</time>
      </trkpt>
      <trkpt lat="45.67851" lon="2.93823">
        <ele>998.47</ele>
        <time>2014-07-19T06:16:13Z</time>
      </trkpt>
      <trkpt lat="45.67862" lon="2.93773">
        <ele>998.47</ele>
        <time>2014-07-19T06:16:23Z</time>
      </trkpt>
      <trkpt lat="45.67894" lon="2.93701">
        <ele>998.47</ele>
        <time>2014-07-19T06:16:39Z</time>
      </trkpt>
      <trkpt lat="45.67918" lon="2.93647">
        <ele>997.99</ele>
        <time>2014-07-19T06:16:49Z</time>
      </trkpt>
      <trkpt lat="45.6792" lon="2.93641">
        <ele>997.99</ele>
        <time>2014-07-19T06:16:50Z</time>
      </trkpt>
      <trkpt lat="45.67932" lon="2.93602">
        <ele>997.02</ele>
        <time>2014-07-19T06:16:56Z</time>
      </trkpt>
      <trkpt lat="45.67937" lon="2.93591">
        <ele>996.54</ele>
        <time>2014-07-19T06:16:58Z</time>
      </trkpt>
      <trkpt lat="45.67942" lon="2.93573">
        <ele>996.06</ele>
        <time>2014-07-19T06:17:02Z</time>
      </trkpt>
      <trkpt lat="45.67943" lon="2.9357">
        <ele>996.06</ele>
        <time>2014-07-19T06:17:03Z</time>
      </trkpt>
      <trkpt lat="45.67946" lon="2.93509">
        <ele>997.02</ele>
        <time>2014-07-19T06:17:16Z</time>
      </trkpt>
      <trkpt lat="45.67948" lon="2.93443">
        <ele>997.02</ele>
        <time>2014-07-19T06:17:29Z</time>
      </trkpt>
      <trkpt lat="45.67949" lon="2.93413">
        <ele>996.54</ele>
        <time>2014-07-19T06:17:34Z</time>
      </trkpt>
      <trkpt lat="45.67949" lon="2.93406">
        <ele>996.06</ele>
        <time>2014-07-19T06:17:35Z</time>
      </trkpt>
      <trkpt lat="45.67952" lon="2.93312">
        <ele>993.66</ele>
        <time>2014-07-19T06:17:47Z</time>
      </trkpt>
      <trkpt lat="45.67956" lon="2.93199">
        <ele>990.3</ele>
        <time>2014-07-19T06:17:59Z</time>
      </trkpt>
      <trkpt lat="45.67958" lon="2.93147">
        <ele>989.81</ele>
        <time>2014-07-19T06:18:05Z</time>
      </trkpt>
      <trkpt lat="45.67959" lon="2.93139">
        <ele>990.3</ele>
        <time>2014-07-19T06:18:06Z</time>
      </trkpt>
      <trkpt lat="45.67964" lon="2.93014">
        <ele>989.81</ele>
        <time>2014-07-19T06:18:22Z</time>
      </trkpt>
      <trkpt lat="45.67966" lon="2.92954">
        <ele>988.85</ele>
        <time>2014-07-19T06:18:29Z</time>
      </trkpt>
      <trkpt lat="45.6797" lon="2.92824">
        <ele>986.93</ele>
        <time>2014-07-19T06:18:44Z</time>
      </trkpt>
      <trkpt lat="45.67972" lon="2.92774">
        <ele>985.01</ele>
        <time>2014-07-19T06:18:49Z</time>
      </trkpt>
      <trkpt lat="45.67975" lon="2.92666">
        <ele>985.97</ele>
        <time>2014-07-19T06:19:01Z</time>
      </trkpt>
      <trkpt lat="45.67975" lon="2.92652">
        <ele>987.41</ele>
        <time>2014-07-19T06:19:04Z</time>
      </trkpt>
      <trkpt lat="45.67972" lon="2.92581">
        <ele>986.93</ele>
        <time>2014-07-19T06:19:17Z</time>
      </trkpt>
      <trkpt lat="45.67965" lon="2.92525">
        <ele>983.57</ele>
        <time>2014-07-19T06:19:23Z</time>
      </trkpt>
      <trkpt lat="45.67966" lon="2.92515">
        <ele>983.09</ele>
        <time>2014-07-19T06:19:24Z</time>
      </trkpt>
      <trkpt lat="45.67968" lon="2.92505">
        <ele>982.6</ele>
        <time>2014-07-19T06:19:25Z</time>
      </trkpt>
      <trkpt lat="45.67972" lon="2.92496">
        <ele>982.6</ele>
        <time>2014-07-19T06:19:26Z</time>
      </trkpt>
      <trkpt lat="45.67977" lon="2.92488">
        <ele>982.6</ele>
        <time>2014-07-19T06:19:27Z</time>
      </trkpt>
      <trkpt lat="45.67982" lon="2.92481">
        <ele>982.6</ele>
        <time>2014-07-19T06:19:28Z</time>
      </trkpt>
      <trkpt lat="45.68" lon="2.92454">
        <ele>985.97</ele>
        <time>2014-07-19T06:19:33Z</time>
      </trkpt>
      <trkpt lat="45.68013" lon="2.92438">
        <ele>988.85</ele>
        <time>2014-07-19T06:19:39Z</time>
      </trkpt>
      <trkpt lat="45.6803" lon="2.92407">
        <ele>992.7</ele>
        <time>2014-07-19T06:19:50Z</time>
      </trkpt>
      <trkpt lat="45.68035" lon="2.92398">
        <ele>992.7</ele>
        <time>2014-07-19T06:19:53Z</time>
      </trkpt>
      <trkpt lat="45.68066" lon="2.92349">
        <ele>994.14</ele>
        <time>2014-07-19T06:20:08Z</time>
      </trkpt>
      <trkpt lat="45.68098" lon="2.92287">
        <ele>995.1</ele>
        <time>2014-07-19T06:20:25Z</time>
      </trkpt>
      <trkpt lat="45.6812" lon="2.92212">
        <ele>996.54</ele>
        <time>2014-07-19T06:20:42Z</time>
      </trkpt>
      <trkpt lat="45.68146" lon="2.92127">
        <ele>997.99</ele>
        <time>2014-07-19T06:21:01Z</time>
      </trkpt>
      <trkpt lat="45.68162" lon="2.92067">
        <ele>998.47</ele>
        <time>2014-07-19T06:21:14Z</time>
      </trkpt>
      <trkpt lat="45.68184" lon="2.91994">
        <ele>998.47</ele>
        <time>2014-07-19T06:21:28Z</time>
      </trkpt>
      <trkpt lat="45.68201" lon="2.91879">
        <ele>996.54</ele>
        <time>2014-07-19T06:21:45Z</time>
      </trkpt>
      <trkpt lat="45.68212" lon="2.9179">
        <ele>995.58</ele>
        <time>2014-07-19T06:21:57Z</time>
      </trkpt>
      <trkpt lat="45.68217" lon="2.91691">
        <ele>996.06</ele>
        <time>2014-07-19T06:22:11Z</time>
      </trkpt>
      <trkpt lat="45.68218" lon="2.91683">
        <ele>996.06</ele>
        <time>2014-07-19T06:22:12Z</time>
      </trkpt>
      <trkpt lat="45.68218" lon="2.91676">
        <ele>996.06</ele>
        <time>2014-07-19T06:22:13Z</time>
      </trkpt>
      <trkpt lat="45.68219" lon="2.91669">
        <ele>996.06</ele>
        <time>2014-07-19T06:22:14Z</time>
      </trkpt>
      <trkpt lat="45.68221" lon="2.9156">
        <ele>995.58</ele>
        <time>2014-07-19T06:22:29Z</time>
      </trkpt>
      <trkpt lat="45.68221" lon="2.91553">
        <ele>996.06</ele>
        <time>2014-07-19T06:22:30Z</time>
      </trkpt>
      <trkpt lat="45.68223" lon="2.91481">
        <ele>994.62</ele>
        <time>2014-07-19T06:22:39Z</time>
      </trkpt>
      <trkpt lat="45.68223" lon="2.91473">
        <ele>994.62</ele>
        <time>2014-07-19T06:22:40Z</time>
      </trkpt>
      <trkpt lat="45.6823" lon="2.91321">
        <ele>992.7</ele>
        <time>2014-07-19T06:22:58Z</time>
      </trkpt>
      <trkpt lat="45.68234" lon="2.91201">
        <ele>991.26</ele>
        <time>2014-07-19T06:23:12Z</time>
      </trkpt>
      <trkpt lat="45.68249" lon="2.91043">
        <ele>989.33</ele>
        <time>2014-07-19T06:23:29Z</time>
      </trkpt>
      <trkpt lat="45.68247" lon="2.91017">
        <ele>988.85</ele>
        <time>2014-07-19T06:23:32Z</time>
      </trkpt>
      <trkpt lat="45.68248" lon="2.91008">
        <ele>989.33</ele>
        <time>2014-07-19T06:23:33Z</time>
      </trkpt>
      <trkpt lat="45.6825" lon="2.91">
        <ele>988.85</ele>
        <time>2014-07-19T06:23:34Z</time>
      </trkpt>
      <trkpt lat="45.68254" lon="2.90993">
        <ele>988.85</ele>
        <time>2014-07-19T06:23:35Z</time>
      </trkpt>
      <trkpt lat="45.68258" lon="2.90986">
        <ele>988.85</ele>
        <time>2014-07-19T06:23:36Z</time>
      </trkpt>
      <trkpt lat="45.68262" lon="2.9098">
        <ele>988.85</ele>
        <time>2014-07-19T06:23:37Z</time>
      </trkpt>
      <trkpt lat="45.68284" lon="2.90946">
        <ele>987.41</ele>
        <time>2014-07-19T06:23:42Z</time>
      </trkpt>
      <trkpt lat="45.68287" lon="2.90937">
        <ele>986.93</ele>
        <time>2014-07-19T06:23:43Z</time>
      </trkpt>
      <trkpt lat="45.68289" lon="2.90927">
        <ele>986.45</ele>
        <time>2014-07-19T06:23:44Z</time>
      </trkpt>
      <trkpt lat="45.68288" lon="2.90916">
        <ele>985.97</ele>
        <time>2014-07-19T06:23:45Z</time>
      </trkpt>
      <trkpt lat="45.68286" lon="2.90906">
        <ele>985.97</ele>
        <time>2014-07-19T06:23:46Z</time>
      </trkpt>
      <trkpt lat="45.68284" lon="2.90897">
        <ele>985.97</ele>
        <time>2014-07-19T06:23:47Z</time>
      </trkpt>
      <trkpt lat="45.68262" lon="2.90791">
        <ele>987.41</ele>
        <time>2014-07-19T06:24:00Z</time>
      </trkpt>
      <trkpt lat="45.6826" lon="2.90785">
        <ele>987.89</ele>
        <time>2014-07-19T06:24:01Z</time>
      </trkpt>
      <trkpt lat="45.68258" lon="2.9078">
        <ele>988.37</ele>
        <time>2014-07-19T06:24:02Z</time>
      </trkpt>
      <trkpt lat="45.68257" lon="2.90775">
        <ele>988.85</ele>
        <time>2014-07-19T06:24:03Z</time>
      </trkpt>
      <trkpt lat="45.68256" lon="2.9077">
        <ele>988.85</ele>
        <time>2014-07-19T06:24:04Z</time>
      </trkpt>
      <trkpt lat="45.68248" lon="2.90722">
        <ele>991.74</ele>
        <time>2014-07-19T06:24:17Z</time>
      </trkpt>
      <trkpt lat="45.68263" lon="2.90688">
        <ele>994.62</ele>
        <time>2014-07-19T06:24:28Z</time>
      </trkpt>
      <trkpt lat="45.68289" lon="2.90673">
        <ele>996.54</ele>
        <time>2014-07-19T06:24:39Z</time>
      </trkpt>
      <trkpt lat="45.68328" lon="2.90666">
        <ele>997.02</ele>
        <time>2014-07-19T06:24:51Z</time>
      </trkpt>
      <trkpt lat="45.6837" lon="2.90671">
        <ele>996.54</ele>
        <time>2014-07-19T06:25:03Z</time>
      </trkpt>
      <trkpt lat="45.68396" lon="2.90652">
        <ele>997.02</ele>
        <time>2014-07-19T06:25:12Z</time>
      </trkpt>
      <trkpt lat="45.68397" lon="2.90649">
        <ele>997.02</ele>
        <time>2014-07-19T06:25:23Z</time>
      </trkpt>
      <trkpt lat="45.68396" lon="2.9065">
        <ele>997.02</ele>
        <time>2014-07-19T06:25:52Z</time>
      </trkpt>
      <trkpt lat="45.68397" lon="2.90649">
        <ele>997.02</ele>
        <time>2014-07-19T06:26:25Z</time>
      </trkpt>
      <trkpt lat="45.68397" lon="2.90649">
        <ele>997.51</ele>
        <time>2014-07-19T06:26:38Z</time>
      </trkpt>
      <trkpt lat="45.68396" lon="2.90646">
        <ele>997.51</ele>
        <time>2014-07-19T06:26:40Z</time>
      </trkpt>
      <trkpt lat="45.68395" lon="2.90644">
        <ele>997.99</ele>
        <time>2014-07-19T06:26:41Z</time>
      </trkpt>
      <trkpt lat="45.68395" lon="2.90642">
        <ele>997.99</ele>
        <time>2014-07-19T06:26:42Z</time>
      </trkpt>
      <trkpt lat="45.68395" lon="2.90639">
        <ele>997.99</ele>
        <time>2014-07-19T06:26:43Z</time>
      </trkpt>
      <trkpt lat="45.68396" lon="2.90636">
        <ele>997.99</ele>
        <time>2014-07-19T06:26:44Z</time>
      </trkpt>
      <trkpt lat="45.68397" lon="2.90633">
        <ele>997.99</ele>
        <time>2014-07-19T06:26:45Z</time>
      </trkpt>
      <trkpt lat="45.68412" lon="2.90589">
        <ele>998.47</ele>
        <time>2014-07-19T06:26:56Z</time>
      </trkpt>
      <trkpt lat="45.68403" lon="2.90542">
        <ele>998.95</ele>
        <time>2014-07-19T06:27:06Z</time>
      </trkpt>
      <trkpt lat="45.6837" lon="2.90518">
        <ele>1000.39</ele>
        <time>2014-07-19T06:27:17Z</time>
      </trkpt>
      <trkpt lat="45.68342" lon="2.90486">
        <ele>1002.31</ele>
        <time>2014-07-19T06:27:29Z</time>
      </trkpt>
      <trkpt lat="45.68312" lon="2.90468">
        <ele>1003.27</ele>
        <time>2014-07-19T06:27:40Z</time>
      </trkpt>
      <trkpt lat="45.68268" lon="2.90452">
        <ele>1003.27</ele>
        <time>2014-07-19T06:27:53Z</time>
      </trkpt>
      <trkpt lat="45.68202" lon="2.90426">
        <ele>1003.75</ele>
        <time>2014-07-19T06:28:09Z</time>
      </trkpt>
      <trkpt lat="45.68178" lon="2.90418">
        <ele>1003.75</ele>
        <time>2014-07-19T06:28:15Z</time>
      </trkpt>
      <trkpt lat="45.68123" lon="2.90391">
        <ele>1006.16</ele>
        <time>2014-07-19T06:28:30Z</time>
      </trkpt>
      <trkpt lat="45.68073" lon="2.90349">
        <ele>1007.6</ele>
        <time>2014-07-19T06:28:45Z</time>
      </trkpt>
      <trkpt lat="45.68023" lon="2.90294">
        <ele>1009.52</ele>
        <time>2014-07-19T06:29:02Z</time>
      </trkpt>
      <trkpt lat="45.67985" lon="2.90252">
        <ele>1010.96</ele>
        <time>2014-07-19T06:29:16Z</time>
      </trkpt>
      <trkpt lat="45.67947" lon="2.90231">
        <ele>1011.93</ele>
        <time>2014-07-19T06:29:28Z</time>
      </trkpt>
      <trkpt lat="45.67897" lon="2.90223">
        <ele>1012.89</ele>
        <time>2014-07-19T06:29:43Z</time>
      </trkpt>
      <trkpt lat="45.67846" lon="2.90226">
        <ele>1013.85</ele>
        <time>2014-07-19T06:29:58Z</time>
      </trkpt>
      <trkpt lat="45.67795" lon="2.90228">
        <ele>1014.81</ele>
        <time>2014-07-19T06:30:13Z</time>
      </trkpt>
      <trkpt lat="45.67741" lon="2.9023">
        <ele>1016.25</ele>
        <time>2014-07-19T06:30:29Z</time>
      </trkpt>
      <trkpt lat="45.67688" lon="2.90232">
        <ele>1017.69</ele>
        <time>2014-07-19T06:30:45Z</time>
      </trkpt>
      <trkpt lat="45.67637" lon="2.90234">
        <ele>1020.1</ele>
        <time>2014-07-19T06:31:02Z</time>
      </trkpt>
      <trkpt lat="45.67575" lon="2.90237">
        <ele>1018.65</ele>
        <time>2014-07-19T06:31:18Z</time>
      </trkpt>
      <trkpt lat="45.67535" lon="2.90238">
        <ele>1018.65</ele>
        <time>2014-07-19T06:31:26Z</time>
      </trkpt>
      <trkpt lat="45.67531" lon="2.90238">
        <ele>1018.65</ele>
        <time>2014-07-19T06:31:27Z</time>
      </trkpt>
      <trkpt lat="45.67517" lon="2.90237">
        <ele>1018.65</ele>
        <time>2014-07-19T06:31:30Z</time>
      </trkpt>
      <trkpt lat="45.67454" lon="2.90238">
        <ele>1019.62</ele>
        <time>2014-07-19T06:31:45Z</time>
      </trkpt>
      <trkpt lat="45.67413" lon="2.9024">
        <ele>1020.58</ele>
        <time>2014-07-19T06:31:56Z</time>
      </trkpt>
      <trkpt lat="45.67409" lon="2.90239">
        <ele>1020.58</ele>
        <time>2014-07-19T06:31:57Z</time>
      </trkpt>
      <trkpt lat="45.674" lon="2.9024">
        <ele>1020.58</ele>
        <time>2014-07-19T06:31:59Z</time>
      </trkpt>
      <trkpt lat="45.67396" lon="2.90241">
        <ele>1020.58</ele>
        <time>2014-07-19T06:32:00Z</time>
      </trkpt>
      <trkpt lat="45.67359" lon="2.90244">
        <ele>1019.62</ele>
        <time>2014-07-19T06:32:08Z</time>
      </trkpt>
      <trkpt lat="45.67277" lon="2.90247">
        <ele>1018.17</ele>
        <time>2014-07-19T06:32:25Z</time>
      </trkpt>
      <trkpt lat="45.67221" lon="2.90251">
        <ele>1016.73</ele>
        <time>2014-07-19T06:32:36Z</time>
      </trkpt>
      <trkpt lat="45.67216" lon="2.90252">
        <ele>1016.73</ele>
        <time>2014-07-19T06:32:37Z</time>
      </trkpt>
      <trkpt lat="45.67185" lon="2.90263">
        <ele>1017.21</ele>
        <time>2014-07-19T06:32:44Z</time>
      </trkpt>
      <trkpt lat="45.67138" lon="2.9028">
        <ele>1019.62</ele>
        <time>2014-07-19T06:32:59Z</time>
      </trkpt>
      <trkpt lat="45.67097" lon="2.90295">
        <ele>1022.02</ele>
        <time>2014-07-19T06:33:16Z</time>
      </trkpt>
      <trkpt lat="45.67052" lon="2.90309">
        <ele>1024.42</ele>
        <time>2014-07-19T06:33:33Z</time>
      </trkpt>
      <trkpt lat="45.6701" lon="2.90304">
        <ele>1026.83</ele>
        <time>2014-07-19T06:33:48Z</time>
      </trkpt>
      <trkpt lat="45.6697" lon="2.90299">
        <ele>1028.75</ele>
        <time>2014-07-19T06:34:03Z</time>
      </trkpt>
      <trkpt lat="45.66936" lon="2.90303">
        <ele>1030.19</ele>
        <time>2014-07-19T06:34:16Z</time>
      </trkpt>
      <trkpt lat="45.66901" lon="2.90317">
        <ele>1032.59</ele>
        <time>2014-07-19T06:34:31Z</time>
      </trkpt>
      <trkpt lat="45.6687" lon="2.9033">
        <ele>1033.55</ele>
        <time>2014-07-19T06:34:46Z</time>
      </trkpt>
      <trkpt lat="45.66844" lon="2.90341">
        <ele>1035.96</ele>
        <time>2014-07-19T06:35:01Z</time>
      </trkpt>
      <trkpt lat="45.66812" lon="2.90355">
        <ele>1037.4</ele>
        <time>2014-07-19T06:35:18Z</time>
      </trkpt>
      <trkpt lat="45.6678" lon="2.90368">
        <ele>1038.84</ele>
        <time>2014-07-19T06:35:36Z</time>
      </trkpt>
      <trkpt lat="45.66752" lon="2.90381">
        <ele>1041.25</ele>
        <time>2014-07-19T06:35:52Z</time>
      </trkpt>
      <trkpt lat="45.66721" lon="2.90396">
        <ele>1043.17</ele>
        <time>2014-07-19T06:36:10Z</time>
      </trkpt>
      <trkpt lat="45.66715" lon="2.904">
        <ele>1043.65</ele>
        <time>2014-07-19T06:36:13Z</time>
      </trkpt>
      <trkpt lat="45.66714" lon="2.90401">
        <ele>1043.65</ele>
        <time>2014-07-19T06:36:14Z</time>
      </trkpt>
      <trkpt lat="45.66712" lon="2.90402">
        <ele>1043.65</ele>
        <time>2014-07-19T06:36:15Z</time>
      </trkpt>
      <trkpt lat="45.6671" lon="2.90404">
        <ele>1044.13</ele>
        <time>2014-07-19T06:36:16Z</time>
      </trkpt>
      <trkpt lat="45.66708" lon="2.90405">
        <ele>1044.13</ele>
        <time>2014-07-19T06:36:17Z</time>
      </trkpt>
      <trkpt lat="45.66707" lon="2.90407">
        <ele>1044.13</ele>
        <time>2014-07-19T06:36:18Z</time>
      </trkpt>
      <trkpt lat="45.66705" lon="2.90408">
        <ele>1044.13</ele>
        <time>2014-07-19T06:36:19Z</time>
      </trkpt>
      <trkpt lat="45.66676" lon="2.90428">
        <ele>1045.57</ele>
        <time>2014-07-19T06:36:34Z</time>
      </trkpt>
      <trkpt lat="45.66641" lon="2.90451">
        <ele>1046.53</ele>
        <time>2014-07-19T06:36:49Z</time>
      </trkpt>
      <trkpt lat="45.66621" lon="2.90467">
        <ele>1046.53</ele>
        <time>2014-07-19T06:36:57Z</time>
      </trkpt>
      <trkpt lat="45.66618" lon="2.90466">
        <ele>1046.53</ele>
        <time>2014-07-19T06:36:58Z</time>
      </trkpt>
      <trkpt lat="45.66616" lon="2.90464">
        <ele>1046.53</ele>
        <time>2014-07-19T06:36:59Z</time>
      </trkpt>
      <trkpt lat="45.66614" lon="2.90461">
        <ele>1046.53</ele>
        <time>2014-07-19T06:37:00Z</time>
      </trkpt>
      <trkpt lat="45.66613" lon="2.90457">
        <ele>1047.01</ele>
        <time>2014-07-19T06:37:01Z</time>
      </trkpt>
      <trkpt lat="45.66612" lon="2.90453">
        <ele>1047.01</ele>
        <time>2014-07-19T06:37:02Z</time>
      </trkpt>
      <trkpt lat="45.66582" lon="2.90376">
        <ele>1045.09</ele>
        <time>2014-07-19T06:37:19Z</time>
      </trkpt>
      <trkpt lat="45.66552" lon="2.90296">
        <ele>1041.73</ele>
        <time>2014-07-19T06:37:32Z</time>
      </trkpt>
      <trkpt lat="45.66521" lon="2.90214">
        <ele>1040.76</ele>
        <time>2014-07-19T06:37:44Z</time>
      </trkpt>
      <trkpt lat="45.66506" lon="2.90171">
        <ele>1039.8</ele>
        <time>2014-07-19T06:37:51Z</time>
      </trkpt>
      <trkpt lat="45.66498" lon="2.90153">
        <ele>1039.32</ele>
        <time>2014-07-19T06:37:54Z</time>
      </trkpt>
      <trkpt lat="45.66463" lon="2.90086">
        <ele>1039.32</ele>
        <time>2014-07-19T06:38:06Z</time>
      </trkpt>
      <trkpt lat="45.66422" lon="2.90042">
        <ele>1040.28</ele>
        <time>2014-07-19T06:38:20Z</time>
      </trkpt>
      <trkpt lat="45.66373" lon="2.9003">
        <ele>1040.76</ele>
        <time>2014-07-19T06:38:34Z</time>
      </trkpt>
      <trkpt lat="45.66369" lon="2.9003">
        <ele>1040.76</ele>
        <time>2014-07-19T06:38:35Z</time>
      </trkpt>
      <trkpt lat="45.66346" lon="2.90034">
        <ele>1040.28</ele>
        <time>2014-07-19T06:38:40Z</time>
      </trkpt>
      <trkpt lat="45.66341" lon="2.90033">
        <ele>1040.28</ele>
        <time>2014-07-19T06:38:41Z</time>
      </trkpt>
      <trkpt lat="45.66337" lon="2.9003">
        <ele>1040.28</ele>
        <time>2014-07-19T06:38:42Z</time>
      </trkpt>
      <trkpt lat="45.66334" lon="2.90026">
        <ele>1039.8</ele>
        <time>2014-07-19T06:38:43Z</time>
      </trkpt>
      <trkpt lat="45.66332" lon="2.9002">
        <ele>1040.28</ele>
        <time>2014-07-19T06:38:44Z</time>
      </trkpt>
      <trkpt lat="45.66331" lon="2.90015">
        <ele>1040.28</ele>
        <time>2014-07-19T06:38:45Z</time>
      </trkpt>
      <trkpt lat="45.6633" lon="2.9001">
        <ele>1040.76</ele>
        <time>2014-07-19T06:38:46Z</time>
      </trkpt>
      <trkpt lat="45.66327" lon="2.89982">
        <ele>1043.65</ele>
        <time>2014-07-19T06:38:57Z</time>
      </trkpt>
      <trkpt lat="45.66327" lon="2.8998">
        <ele>1043.65</ele>
        <time>2014-07-19T06:38:58Z</time>
      </trkpt>
      <trkpt lat="45.66327" lon="2.89978">
        <ele>1044.13</ele>
        <time>2014-07-19T06:38:59Z</time>
      </trkpt>
      <trkpt lat="45.66326" lon="2.89969">
        <ele>1045.09</ele>
        <time>2014-07-19T06:39:03Z</time>
      </trkpt>
      <trkpt lat="45.66327" lon="2.89967">
        <ele>1045.09</ele>
        <time>2014-07-19T06:39:04Z</time>
      </trkpt>
      <trkpt lat="45.66327" lon="2.89964">
        <ele>1045.09</ele>
        <time>2014-07-19T06:39:05Z</time>
      </trkpt>
      <trkpt lat="45.66328" lon="2.89961">
        <ele>1045.57</ele>
        <time>2014-07-19T06:39:06Z</time>
      </trkpt>
      <trkpt lat="45.66328" lon="2.89959">
        <ele>1045.57</ele>
        <time>2014-07-19T06:39:07Z</time>
      </trkpt>
      <trkpt lat="45.66328" lon="2.89956">
        <ele>1045.57</ele>
        <time>2014-07-19T06:39:08Z</time>
      </trkpt>
      <trkpt lat="45.66328" lon="2.89953">
        <ele>1045.57</ele>
        <time>2014-07-19T06:39:09Z</time>
      </trkpt>
      <trkpt lat="45.66328" lon="2.8995">
        <ele>1045.57</ele>
        <time>2014-07-19T06:39:10Z</time>
      </trkpt>
      <trkpt lat="45.66328" lon="2.89947">
        <ele>1045.57</ele>
        <time>2014-07-19T06:39:11Z</time>
      </trkpt>
      <trkpt lat="45.66328" lon="2.89944">
        <ele>1045.57</ele>
        <time>2014-07-19T06:39:12Z</time>
      </trkpt>
      <trkpt lat="45.6633" lon="2.89901">
        <ele>1047.97</ele>
        <time>2014-07-19T06:39:27Z</time>
      </trkpt>
      <trkpt lat="45.6633" lon="2.89849">
        <ele>1048.94</ele>
        <time>2014-07-19T06:39:42Z</time>
      </trkpt>
      <trkpt lat="45.6632" lon="2.89817">
        <ele>1051.34</ele>
        <time>2014-07-19T06:39:54Z</time>
      </trkpt>
      <trkpt lat="45.66316" lon="2.89803">
        <ele>1052.3</ele>
        <time>2014-07-19T06:40:00Z</time>
      </trkpt>
      <trkpt lat="45.66317" lon="2.89801">
        <ele>1052.3</ele>
        <time>2014-07-19T06:40:01Z</time>
      </trkpt>
      <trkpt lat="45.66318" lon="2.89799">
        <ele>1052.3</ele>
        <time>2014-07-19T06:40:02Z</time>
      </trkpt>
      <trkpt lat="45.6632" lon="2.89797">
        <ele>1052.3</ele>
        <time>2014-07-19T06:40:03Z</time>
      </trkpt>
      <trkpt lat="45.66322" lon="2.89794">
        <ele>1052.3</ele>
        <time>2014-07-19T06:40:04Z</time>
      </trkpt>
      <trkpt lat="45.66323" lon="2.89791">
        <ele>1052.3</ele>
        <time>2014-07-19T06:40:05Z</time>
      </trkpt>
      <trkpt lat="45.66324" lon="2.89789">
        <ele>1052.3</ele>
        <time>2014-07-19T06:40:06Z</time>
      </trkpt>
      <trkpt lat="45.66326" lon="2.89786">
        <ele>1052.3</ele>
        <time>2014-07-19T06:40:07Z</time>
      </trkpt>
      <trkpt lat="45.66327" lon="2.89783">
        <ele>1052.3</ele>
        <time>2014-07-19T06:40:08Z</time>
      </trkpt>
      <trkpt lat="45.6634" lon="2.89735">
        <ele>1054.7</ele>
        <time>2014-07-19T06:40:23Z</time>
      </trkpt>
      <trkpt lat="45.66349" lon="2.89697">
        <ele>1057.59</ele>
        <time>2014-07-19T06:40:36Z</time>
      </trkpt>
      <trkpt lat="45.66359" lon="2.89655">
        <ele>1059.51</ele>
        <time>2014-07-19T06:40:50Z</time>
      </trkpt>
      <trkpt lat="45.66343" lon="2.89627">
        <ele>1059.99</ele>
        <time>2014-07-19T06:41:02Z</time>
      </trkpt>
      <trkpt lat="45.66312" lon="2.8961">
        <ele>1061.43</ele>
        <time>2014-07-19T06:41:17Z</time>
      </trkpt>
      <trkpt lat="45.66277" lon="2.8959">
        <ele>1062.39</ele>
        <time>2014-07-19T06:41:31Z</time>
      </trkpt>
      <trkpt lat="45.66246" lon="2.89571">
        <ele>1063.84</ele>
        <time>2014-07-19T06:41:45Z</time>
      </trkpt>
      <trkpt lat="45.66205" lon="2.89548">
        <ele>1065.76</ele>
        <time>2014-07-19T06:42:03Z</time>
      </trkpt>
      <trkpt lat="45.6616" lon="2.89535">
        <ele>1066.72</ele>
        <time>2014-07-19T06:42:19Z</time>
      </trkpt>
      <trkpt lat="45.66117" lon="2.89539">
        <ele>1067.2</ele>
        <time>2014-07-19T06:42:34Z</time>
      </trkpt>
      <trkpt lat="45.66065" lon="2.89541">
        <ele>1068.16</ele>
        <time>2014-07-19T06:42:51Z</time>
      </trkpt>
      <trkpt lat="45.66022" lon="2.89545">
        <ele>1068.16</ele>
        <time>2014-07-19T06:43:04Z</time>
      </trkpt>
      <trkpt lat="45.6597" lon="2.8955">
        <ele>1069.12</ele>
        <time>2014-07-19T06:43:20Z</time>
      </trkpt>
      <trkpt lat="45.65926" lon="2.89553">
        <ele>1070.08</ele>
        <time>2014-07-19T06:43:35Z</time>
      </trkpt>
      <trkpt lat="45.65897" lon="2.89555">
        <ele>1071.05</ele>
        <time>2014-07-19T06:43:47Z</time>
      </trkpt>
      <trkpt lat="45.65856" lon="2.8956">
        <ele>1072.01</ele>
        <time>2014-07-19T06:44:02Z</time>
      </trkpt>
      <trkpt lat="45.65823" lon="2.89562">
        <ele>1072.97</ele>
        <time>2014-07-19T06:44:14Z</time>
      </trkpt>
      <trkpt lat="45.65794" lon="2.89566">
        <ele>1073.93</ele>
        <time>2014-07-19T06:44:26Z</time>
      </trkpt>
      <trkpt lat="45.65757" lon="2.89568">
        <ele>1074.89</ele>
        <time>2014-07-19T06:44:41Z</time>
      </trkpt>
      <trkpt lat="45.65715" lon="2.89571">
        <ele>1075.85</ele>
        <time>2014-07-19T06:44:56Z</time>
      </trkpt>
      <trkpt lat="45.65687" lon="2.89573">
        <ele>1076.81</ele>
        <time>2014-07-19T06:45:08Z</time>
      </trkpt>
      <trkpt lat="45.65666" lon="2.89575">
        <ele>1077.29</ele>
        <time>2014-07-19T06:45:19Z</time>
      </trkpt>
      <trkpt lat="45.65641" lon="2.89577">
        <ele>1079.22</ele>
        <time>2014-07-19T06:45:32Z</time>
      </trkpt>
      <trkpt lat="45.65609" lon="2.89578">
        <ele>1080.66</ele>
        <time>2014-07-19T06:45:49Z</time>
      </trkpt>
      <trkpt lat="45.65577" lon="2.89581">
        <ele>1082.58</ele>
        <time>2014-07-19T06:46:05Z</time>
      </trkpt>
      <trkpt lat="45.65546" lon="2.89584">
        <ele>1084.5</ele>
        <time>2014-07-19T06:46:21Z</time>
      </trkpt>
      <trkpt lat="45.65517" lon="2.89587">
        <ele>1085.95</ele>
        <time>2014-07-19T06:46:35Z</time>
      </trkpt>
      <trkpt lat="45.65502" lon="2.89589">
        <ele>1086.91</ele>
        <time>2014-07-19T06:46:42Z</time>
      </trkpt>
      <trkpt lat="45.65496" lon="2.89595">
        <ele>1087.39</ele>
        <time>2014-07-19T06:46:46Z</time>
      </trkpt>
      <trkpt lat="45.65496" lon="2.89641">
        <ele>1087.39</ele>
        <time>2014-07-19T06:46:57Z</time>
      </trkpt>
      <trkpt lat="45.655" lon="2.897">
        <ele>1086.43</ele>
        <time>2014-07-19T06:47:06Z</time>
      </trkpt>
      <trkpt lat="45.65501" lon="2.89707">
        <ele>1085.95</ele>
        <time>2014-07-19T06:47:07Z</time>
      </trkpt>
      <trkpt lat="45.65504" lon="2.89766">
        <ele>1085.47</ele>
        <time>2014-07-19T06:47:15Z</time>
      </trkpt>
      <trkpt lat="45.65509" lon="2.89839">
        <ele>1084.02</ele>
        <time>2014-07-19T06:47:24Z</time>
      </trkpt>
      <trkpt lat="45.65511" lon="2.89856">
        <ele>1083.54</ele>
        <time>2014-07-19T06:47:26Z</time>
      </trkpt>
      <trkpt lat="45.65508" lon="2.89985">
        <ele>1081.14</ele>
        <time>2014-07-19T06:47:40Z</time>
      </trkpt>
      <trkpt lat="45.65505" lon="2.90001">
        <ele>1081.14</ele>
        <time>2014-07-19T06:47:42Z</time>
      </trkpt>
      <trkpt lat="45.65501" lon="2.90006">
        <ele>1080.66</ele>
        <time>2014-07-19T06:47:43Z</time>
      </trkpt>
      <trkpt lat="45.65497" lon="2.9001">
        <ele>1080.66</ele>
        <time>2014-07-19T06:47:44Z</time>
      </trkpt>
      <trkpt lat="45.65492" lon="2.90012">
        <ele>1080.66</ele>
        <time>2014-07-19T06:47:45Z</time>
      </trkpt>
      <trkpt lat="45.65488" lon="2.90012">
        <ele>1081.14</ele>
        <time>2014-07-19T06:47:46Z</time>
      </trkpt>
      <trkpt lat="45.65485" lon="2.90011">
        <ele>1081.14</ele>
        <time>2014-07-19T06:47:47Z</time>
      </trkpt>
      <trkpt lat="45.65482" lon="2.9001">
        <ele>1081.14</ele>
        <time>2014-07-19T06:47:48Z</time>
      </trkpt>
      <trkpt lat="45.65479" lon="2.9001">
        <ele>1081.62</ele>
        <time>2014-07-19T06:47:49Z</time>
      </trkpt>
      <trkpt lat="45.65477" lon="2.9001">
        <ele>1082.1</ele>
        <time>2014-07-19T06:47:50Z</time>
      </trkpt>
      <trkpt lat="45.6547" lon="2.9001">
        <ele>1083.06</ele>
        <time>2014-07-19T06:47:54Z</time>
      </trkpt>
      <trkpt lat="45.65468" lon="2.9001">
        <ele>1082.58</ele>
        <time>2014-07-19T06:48:09Z</time>
      </trkpt>
      <trkpt lat="45.65468" lon="2.90011">
        <ele>1083.06</ele>
        <time>2014-07-19T06:48:43Z</time>
      </trkpt>
      <trkpt lat="45.65462" lon="2.9001">
        <ele>1083.06</ele>
        <time>2014-07-19T06:49:13Z</time>
      </trkpt>
      <trkpt lat="45.65456" lon="2.9001">
        <ele>1084.02</ele>
        <time>2014-07-19T06:49:21Z</time>
      </trkpt>
      <trkpt lat="45.65457" lon="2.9001">
        <ele>1084.02</ele>
        <time>2014-07-19T06:50:01Z</time>
      </trkpt>
      <trkpt lat="45.65449" lon="2.90008">
        <ele>1084.5</ele>
        <time>2014-07-19T06:50:24Z</time>
      </trkpt>
      <trkpt lat="45.65421" lon="2.90006">
        <ele>1084.5</ele>
        <time>2014-07-19T06:50:37Z</time>
      </trkpt>
      <trkpt lat="45.65401" lon="2.90005">
        <ele>1084.99</ele>
        <time>2014-07-19T06:50:48Z</time>
      </trkpt>
      <trkpt lat="45.65397" lon="2.90004">
        <ele>1084.5</ele>
        <time>2014-07-19T06:51:03Z</time>
      </trkpt>
      <trkpt lat="45.65369" lon="2.90003">
        <ele>1084.99</ele>
        <time>2014-07-19T06:51:16Z</time>
      </trkpt>
      <trkpt lat="45.65334" lon="2.90001">
        <ele>1086.43</ele>
        <time>2014-07-19T06:51:30Z</time>
      </trkpt>
      <trkpt lat="45.65331" lon="2.89999">
        <ele>1086.43</ele>
        <time>2014-07-19T06:51:32Z</time>
      </trkpt>
      <trkpt lat="45.65329" lon="2.89997">
        <ele>1086.91</ele>
        <time>2014-07-19T06:51:33Z</time>
      </trkpt>
      <trkpt lat="45.65328" lon="2.89995">
        <ele>1086.91</ele>
        <time>2014-07-19T06:51:34Z</time>
      </trkpt>
      <trkpt lat="45.65326" lon="2.89992">
        <ele>1087.39</ele>
        <time>2014-07-19T06:51:35Z</time>
      </trkpt>
      <trkpt lat="45.65326" lon="2.89989">
        <ele>1087.39</ele>
        <time>2014-07-19T06:51:36Z</time>
      </trkpt>
      <trkpt lat="45.65325" lon="2.89987">
        <ele>1087.39</ele>
        <time>2014-07-19T06:51:37Z</time>
      </trkpt>
      <trkpt lat="45.65322" lon="2.89927">
        <ele>1088.83</ele>
        <time>2014-07-19T06:51:55Z</time>
      </trkpt>
      <trkpt lat="45.65313" lon="2.89885">
        <ele>1090.75</ele>
        <time>2014-07-19T06:52:11Z</time>
      </trkpt>
      <trkpt lat="45.65311" lon="2.89874">
        <ele>1091.71</ele>
        <time>2014-07-19T06:52:16Z</time>
      </trkpt>
      <trkpt lat="45.6531" lon="2.89872">
        <ele>1091.71</ele>
        <time>2014-07-19T06:52:17Z</time>
      </trkpt>
      <trkpt lat="45.653" lon="2.89834">
        <ele>1094.12</ele>
        <time>2014-07-19T06:52:34Z</time>
      </trkpt>
      <trkpt lat="45.65298" lon="2.89827">
        <ele>1094.12</ele>
        <time>2014-07-19T06:52:37Z</time>
      </trkpt>
      <trkpt lat="45.65297" lon="2.89825">
        <ele>1094.12</ele>
        <time>2014-07-19T06:52:38Z</time>
      </trkpt>
      <trkpt lat="45.65285" lon="2.89787">
        <ele>1097</ele>
        <time>2014-07-19T06:52:54Z</time>
      </trkpt>
      <trkpt lat="45.65273" lon="2.89747">
        <ele>1098.44</ele>
        <time>2014-07-19T06:53:10Z</time>
      </trkpt>
      <trkpt lat="45.65264" lon="2.89717">
        <ele>1099.89</ele>
        <time>2014-07-19T06:53:22Z</time>
      </trkpt>
      <trkpt lat="45.65259" lon="2.89708">
        <ele>1100.37</ele>
        <time>2014-07-19T06:53:26Z</time>
      </trkpt>
      <trkpt lat="45.65257" lon="2.89707">
        <ele>1100.37</ele>
        <time>2014-07-19T06:53:27Z</time>
      </trkpt>
      <trkpt lat="45.65256" lon="2.89706">
        <ele>1100.37</ele>
        <time>2014-07-19T06:53:28Z</time>
      </trkpt>
      <trkpt lat="45.65222" lon="2.89703">
        <ele>1103.25</ele>
        <time>2014-07-19T06:53:46Z</time>
      </trkpt>
      <trkpt lat="45.65198" lon="2.897">
        <ele>1104.69</ele>
        <time>2014-07-19T06:53:59Z</time>
      </trkpt>
      <trkpt lat="45.65172" lon="2.89684">
        <ele>1107.1</ele>
        <time>2014-07-19T06:54:14Z</time>
      </trkpt>
      <trkpt lat="45.65169" lon="2.89679">
        <ele>1107.1</ele>
        <time>2014-07-19T06:54:16Z</time>
      </trkpt>
      <trkpt lat="45.65168" lon="2.89676">
        <ele>1107.1</ele>
        <time>2014-07-19T06:54:17Z</time>
      </trkpt>
      <trkpt lat="45.65166" lon="2.89673">
        <ele>1107.1</ele>
        <time>2014-07-19T06:54:18Z</time>
      </trkpt>
      <trkpt lat="45.65136" lon="2.89619">
        <ele>1106.13</ele>
        <time>2014-07-19T06:54:33Z</time>
      </trkpt>
      <trkpt lat="45.65106" lon="2.89618">
        <ele>1105.65</ele>
        <time>2014-07-19T06:54:43Z</time>
      </trkpt>
      <trkpt lat="45.6509" lon="2.89633">
        <ele>1104.69</ele>
        <time>2014-07-19T06:54:48Z</time>
      </trkpt>
      <trkpt lat="45.65085" lon="2.89634">
        <ele>1104.69</ele>
        <time>2014-07-19T06:54:49Z</time>
      </trkpt>
      <trkpt lat="45.65014" lon="2.8966">
        <ele>1102.77</ele>
        <time>2014-07-19T06:55:03Z</time>
      </trkpt>
      <trkpt lat="45.64994" lon="2.89666">
        <ele>1103.25</ele>
        <time>2014-07-19T06:55:07Z</time>
      </trkpt>
      <trkpt lat="45.64989" lon="2.89668">
        <ele>1103.25</ele>
        <time>2014-07-19T06:55:08Z</time>
      </trkpt>
      <trkpt lat="45.64985" lon="2.89669">
        <ele>1103.25</ele>
        <time>2014-07-19T06:55:09Z</time>
      </trkpt>
      <trkpt lat="45.64927" lon="2.89691">
        <ele>1104.69</ele>
        <time>2014-07-19T06:55:25Z</time>
      </trkpt>
      <trkpt lat="45.64876" lon="2.89709">
        <ele>1105.17</ele>
        <time>2014-07-19T06:55:40Z</time>
      </trkpt>
      <trkpt lat="45.64854" lon="2.89688">
        <ele>1105.17</ele>
        <time>2014-07-19T06:55:48Z</time>
      </trkpt>
      <trkpt lat="45.64814" lon="2.89614">
        <ele>1103.73</ele>
        <time>2014-07-19T06:56:05Z</time>
      </trkpt>
      <trkpt lat="45.64768" lon="2.89529">
        <ele>1102.29</ele>
        <time>2014-07-19T06:56:20Z</time>
      </trkpt>
      <trkpt lat="45.64765" lon="2.89524">
        <ele>1101.81</ele>
        <time>2014-07-19T06:56:21Z</time>
      </trkpt>
      <trkpt lat="45.64761" lon="2.89518">
        <ele>1101.81</ele>
        <time>2014-07-19T06:56:22Z</time>
      </trkpt>
      <trkpt lat="45.64709" lon="2.89419">
        <ele>1101.33</ele>
        <time>2014-07-19T06:56:40Z</time>
      </trkpt>
      <trkpt lat="45.64666" lon="2.89337">
        <ele>1101.81</ele>
        <time>2014-07-19T06:56:58Z</time>
      </trkpt>
      <trkpt lat="45.64624" lon="2.8926">
        <ele>1102.29</ele>
        <time>2014-07-19T06:57:16Z</time>
      </trkpt>
      <trkpt lat="45.64613" lon="2.89243">
        <ele>1102.77</ele>
        <time>2014-07-19T06:57:21Z</time>
      </trkpt>
      <trkpt lat="45.64613" lon="2.8924">
        <ele>1102.77</ele>
        <time>2014-07-19T06:57:22Z</time>
      </trkpt>
      <trkpt lat="45.64614" lon="2.89237">
        <ele>1102.77</ele>
        <time>2014-07-19T06:57:23Z</time>
      </trkpt>
      <trkpt lat="45.64616" lon="2.89233">
        <ele>1102.77</ele>
        <time>2014-07-19T06:57:24Z</time>
      </trkpt>
      <trkpt lat="45.64618" lon="2.8923">
        <ele>1102.77</ele>
        <time>2014-07-19T06:57:25Z</time>
      </trkpt>
      <trkpt lat="45.6462" lon="2.89226">
        <ele>1103.25</ele>
        <time>2014-07-19T06:57:26Z</time>
      </trkpt>
      <trkpt lat="45.64621" lon="2.89222">
        <ele>1103.25</ele>
        <time>2014-07-19T06:57:27Z</time>
      </trkpt>
      <trkpt lat="45.64622" lon="2.89217">
        <ele>1103.25</ele>
        <time>2014-07-19T06:57:28Z</time>
      </trkpt>
      <trkpt lat="45.64617" lon="2.89151">
        <ele>1103.73</ele>
        <time>2014-07-19T06:57:42Z</time>
      </trkpt>
      <trkpt lat="45.64599" lon="2.89049">
        <ele>1105.17</ele>
        <time>2014-07-19T06:58:03Z</time>
      </trkpt>
      <trkpt lat="45.64601" lon="2.89001">
        <ele>1105.17</ele>
        <time>2014-07-19T06:58:12Z</time>
      </trkpt>
      <trkpt lat="45.64602" lon="2.88995">
        <ele>1105.17</ele>
        <time>2014-07-19T06:58:13Z</time>
      </trkpt>
      <trkpt lat="45.64604" lon="2.8899">
        <ele>1105.17</ele>
        <time>2014-07-19T06:58:14Z</time>
      </trkpt>
      <trkpt lat="45.64611" lon="2.88976">
        <ele>1105.17</ele>
        <time>2014-07-19T06:58:17Z</time>
      </trkpt>
      <trkpt lat="45.64644" lon="2.88923">
        <ele>1102.77</ele>
        <time>2014-07-19T06:58:27Z</time>
      </trkpt>
      <trkpt lat="45.64647" lon="2.88917">
        <ele>1102.77</ele>
        <time>2014-07-19T06:58:28Z</time>
      </trkpt>
      <trkpt lat="45.64647" lon="2.88912">
        <ele>1102.77</ele>
        <time>2014-07-19T06:58:29Z</time>
      </trkpt>
      <trkpt lat="45.64646" lon="2.88907">
        <ele>1102.77</ele>
        <time>2014-07-19T06:58:30Z</time>
      </trkpt>
      <trkpt lat="45.64643" lon="2.88904">
        <ele>1102.29</ele>
        <time>2014-07-19T06:58:31Z</time>
      </trkpt>
      <trkpt lat="45.64639" lon="2.88903">
        <ele>1102.29</ele>
        <time>2014-07-19T06:58:32Z</time>
      </trkpt>
      <trkpt lat="45.64636" lon="2.88903">
        <ele>1101.81</ele>
        <time>2014-07-19T06:58:33Z</time>
      </trkpt>
      <trkpt lat="45.64632" lon="2.88904">
        <ele>1102.29</ele>
        <time>2014-07-19T06:58:34Z</time>
      </trkpt>
      <trkpt lat="45.64583" lon="2.88916">
        <ele>1103.25</ele>
        <time>2014-07-19T06:58:47Z</time>
      </trkpt>
      <trkpt lat="45.64579" lon="2.88917">
        <ele>1103.25</ele>
        <time>2014-07-19T06:58:48Z</time>
      </trkpt>
      <trkpt lat="45.64513" lon="2.88932">
        <ele>1101.33</ele>
        <time>2014-07-19T06:59:03Z</time>
      </trkpt>
      <trkpt lat="45.64485" lon="2.88938">
        <ele>1101.33</ele>
        <time>2014-07-19T06:59:08Z</time>
      </trkpt>
      <trkpt lat="45.6448" lon="2.8894">
        <ele>1100.85</ele>
        <time>2014-07-19T06:59:09Z</time>
      </trkpt>
      <trkpt lat="45.64464" lon="2.88943">
        <ele>1100.85</ele>
        <time>2014-07-19T06:59:12Z</time>
      </trkpt>
      <trkpt lat="45.64459" lon="2.88944">
        <ele>1100.37</ele>
        <time>2014-07-19T06:59:13Z</time>
      </trkpt>
      <trkpt lat="45.64428" lon="2.88951">
        <ele>1100.37</ele>
        <time>2014-07-19T06:59:19Z</time>
      </trkpt>
      <trkpt lat="45.64423" lon="2.88953">
        <ele>1100.37</ele>
        <time>2014-07-19T06:59:20Z</time>
      </trkpt>
      <trkpt lat="45.64362" lon="2.88968">
        <ele>1102.77</ele>
        <time>2014-07-19T06:59:36Z</time>
      </trkpt>
      <trkpt lat="45.64326" lon="2.88978">
        <ele>1104.21</ele>
        <time>2014-07-19T06:59:51Z</time>
      </trkpt>
      <trkpt lat="45.64292" lon="2.88987">
        <ele>1106.13</ele>
        <time>2014-07-19T07:00:07Z</time>
      </trkpt>
      <trkpt lat="45.6429" lon="2.88987">
        <ele>1106.61</ele>
        <time>2014-07-19T07:00:08Z</time>
      </trkpt>
      <trkpt lat="45.64289" lon="2.88987">
        <ele>1106.61</ele>
        <time>2014-07-19T07:00:09Z</time>
      </trkpt>
      <trkpt lat="45.64288" lon="2.88987">
        <ele>1106.61</ele>
        <time>2014-07-19T07:00:10Z</time>
      </trkpt>
      <trkpt lat="45.64262" lon="2.88991">
        <ele>1108.06</ele>
        <time>2014-07-19T07:00:23Z</time>
      </trkpt>
      <trkpt lat="45.64231" lon="2.88999">
        <ele>1109.98</ele>
        <time>2014-07-19T07:00:38Z</time>
      </trkpt>
      <trkpt lat="45.64201" lon="2.89007">
        <ele>1111.9</ele>
        <time>2014-07-19T07:00:52Z</time>
      </trkpt>
      <trkpt lat="45.64177" lon="2.89014">
        <ele>1112.86</ele>
        <time>2014-07-19T07:01:04Z</time>
      </trkpt>
      <trkpt lat="45.64146" lon="2.89022">
        <ele>1113.82</ele>
        <time>2014-07-19T07:01:18Z</time>
      </trkpt>
      <trkpt lat="45.64105" lon="2.89031">
        <ele>1115.27</ele>
        <time>2014-07-19T07:01:34Z</time>
      </trkpt>
      <trkpt lat="45.64065" lon="2.89042">
        <ele>1118.15</ele>
        <time>2014-07-19T07:01:52Z</time>
      </trkpt>
      <trkpt lat="45.6405" lon="2.89043">
        <ele>1119.11</ele>
        <time>2014-07-19T07:01:59Z</time>
      </trkpt>
      <trkpt lat="45.64025" lon="2.89057">
        <ele>1120.07</ele>
        <time>2014-07-19T07:02:12Z</time>
      </trkpt>
      <trkpt lat="45.64003" lon="2.89075">
        <ele>1122</ele>
        <time>2014-07-19T07:02:27Z</time>
      </trkpt>
      <trkpt lat="45.63984" lon="2.89091">
        <ele>1124.88</ele>
        <time>2014-07-19T07:02:41Z</time>
      </trkpt>
      <trkpt lat="45.63964" lon="2.89108">
        <ele>1127.76</ele>
        <time>2014-07-19T07:02:55Z</time>
      </trkpt>
      <trkpt lat="45.63938" lon="2.89131">
        <ele>1129.21</ele>
        <time>2014-07-19T07:03:12Z</time>
      </trkpt>
      <trkpt lat="45.63912" lon="2.89153">
        <ele>1130.65</ele>
        <time>2014-07-19T07:03:28Z</time>
      </trkpt>
      <trkpt lat="45.63884" lon="2.89176">
        <ele>1132.57</ele>
        <time>2014-07-19T07:03:45Z</time>
      </trkpt>
      <trkpt lat="45.63862" lon="2.89194">
        <ele>1134.01</ele>
        <time>2014-07-19T07:03:58Z</time>
      </trkpt>
      <trkpt lat="45.63835" lon="2.89217">
        <ele>1136.9</ele>
        <time>2014-07-19T07:04:15Z</time>
      </trkpt>
      <trkpt lat="45.63811" lon="2.89236">
        <ele>1138.34</ele>
        <time>2014-07-19T07:04:29Z</time>
      </trkpt>
      <trkpt lat="45.63798" lon="2.89243">
        <ele>1139.78</ele>
        <time>2014-07-19T07:04:37Z</time>
      </trkpt>
      <trkpt lat="45.63796" lon="2.89242">
        <ele>1139.78</ele>
        <time>2014-07-19T07:04:38Z</time>
      </trkpt>
      <trkpt lat="45.63795" lon="2.89241">
        <ele>1139.78</ele>
        <time>2014-07-19T07:04:39Z</time>
      </trkpt>
      <trkpt lat="45.63794" lon="2.89239">
        <ele>1139.78</ele>
        <time>2014-07-19T07:04:40Z</time>
      </trkpt>
      <trkpt lat="45.63793" lon="2.89238">
        <ele>1140.26</ele>
        <time>2014-07-19T07:04:41Z</time>
      </trkpt>
      <trkpt lat="45.63792" lon="2.89236">
        <ele>1140.26</ele>
        <time>2014-07-19T07:04:42Z</time>
      </trkpt>
      <trkpt lat="45.63792" lon="2.89234">
        <ele>1140.74</ele>
        <time>2014-07-19T07:04:43Z</time>
      </trkpt>
      <trkpt lat="45.63791" lon="2.89231">
        <ele>1140.74</ele>
        <time>2014-07-19T07:04:44Z</time>
      </trkpt>
      <trkpt lat="45.6379" lon="2.89229">
        <ele>1140.74</ele>
        <time>2014-07-19T07:04:45Z</time>
      </trkpt>
      <trkpt lat="45.63789" lon="2.89228">
        <ele>1140.74</ele>
        <time>2014-07-19T07:04:46Z</time>
      </trkpt>
      <trkpt lat="45.63775" lon="2.89194">
        <ele>1143.14</ele>
        <time>2014-07-19T07:05:03Z</time>
      </trkpt>
      <trkpt lat="45.63759" lon="2.89157">
        <ele>1146.03</ele>
        <time>2014-07-19T07:05:22Z</time>
      </trkpt>
      <trkpt lat="45.63746" lon="2.89124">
        <ele>1148.91</ele>
        <time>2014-07-19T07:05:39Z</time>
      </trkpt>
      <trkpt lat="45.63733" lon="2.8909">
        <ele>1151.32</ele>
        <time>2014-07-19T07:05:56Z</time>
      </trkpt>
      <trkpt lat="45.63719" lon="2.89057">
        <ele>1153.72</ele>
        <time>2014-07-19T07:06:13Z</time>
      </trkpt>
      <trkpt lat="45.63706" lon="2.8903">
        <ele>1156.6</ele>
        <time>2014-07-19T07:06:28Z</time>
      </trkpt>
      <trkpt lat="45.63687" lon="2.89011">
        <ele>1159.01</ele>
        <time>2014-07-19T07:06:43Z</time>
      </trkpt>
      <trkpt lat="45.63673" lon="2.89">
        <ele>1160.93</ele>
        <time>2014-07-19T07:06:54Z</time>
      </trkpt>
      <trkpt lat="45.63657" lon="2.88988">
        <ele>1162.85</ele>
        <time>2014-07-19T07:07:06Z</time>
      </trkpt>
      <trkpt lat="45.63656" lon="2.88986">
        <ele>1162.85</ele>
        <time>2014-07-19T07:07:07Z</time>
      </trkpt>
      <trkpt lat="45.63636" lon="2.88969">
        <ele>1164.77</ele>
        <time>2014-07-19T07:07:21Z</time>
      </trkpt>
      <trkpt lat="45.63626" lon="2.88959">
        <ele>1165.74</ele>
        <time>2014-07-19T07:07:28Z</time>
      </trkpt>
      <trkpt lat="45.63624" lon="2.88958">
        <ele>1165.74</ele>
        <time>2014-07-19T07:07:29Z</time>
      </trkpt>
      <trkpt lat="45.6362" lon="2.88951">
        <ele>1166.22</ele>
        <time>2014-07-19T07:07:33Z</time>
      </trkpt>
      <trkpt lat="45.63619" lon="2.88949">
        <ele>1166.22</ele>
        <time>2014-07-19T07:07:34Z</time>
      </trkpt>
      <trkpt lat="45.63618" lon="2.88948">
        <ele>1166.7</ele>
        <time>2014-07-19T07:07:35Z</time>
      </trkpt>
      <trkpt lat="45.63616" lon="2.88946">
        <ele>1166.7</ele>
        <time>2014-07-19T07:07:36Z</time>
      </trkpt>
      <trkpt lat="45.63615" lon="2.88944">
        <ele>1166.7</ele>
        <time>2014-07-19T07:07:37Z</time>
      </trkpt>
      <trkpt lat="45.63596" lon="2.88916">
        <ele>1168.62</ele>
        <time>2014-07-19T07:07:52Z</time>
      </trkpt>
      <trkpt lat="45.63571" lon="2.88892">
        <ele>1171.02</ele>
        <time>2014-07-19T07:08:09Z</time>
      </trkpt>
      <trkpt lat="45.6354" lon="2.88865">
        <ele>1173.43</ele>
        <time>2014-07-19T07:08:28Z</time>
      </trkpt>
      <trkpt lat="45.63515" lon="2.88871">
        <ele>1174.39</ele>
        <time>2014-07-19T07:08:41Z</time>
      </trkpt>
      <trkpt lat="45.63499" lon="2.8888">
        <ele>1174.39</ele>
        <time>2014-07-19T07:08:48Z</time>
      </trkpt>
      <trkpt lat="45.63497" lon="2.88879">
        <ele>1174.39</ele>
        <time>2014-07-19T07:08:49Z</time>
      </trkpt>
      <trkpt lat="45.63495" lon="2.88878">
        <ele>1174.39</ele>
        <time>2014-07-19T07:08:50Z</time>
      </trkpt>
      <trkpt lat="45.63493" lon="2.88876">
        <ele>1174.39</ele>
        <time>2014-07-19T07:08:51Z</time>
      </trkpt>
      <trkpt lat="45.63492" lon="2.88873">
        <ele>1174.39</ele>
        <time>2014-07-19T07:08:52Z</time>
      </trkpt>
      <trkpt lat="45.63491" lon="2.88871">
        <ele>1174.39</ele>
        <time>2014-07-19T07:08:53Z</time>
      </trkpt>
      <trkpt lat="45.63489" lon="2.88868">
        <ele>1175.35</ele>
        <time>2014-07-19T07:08:55Z</time>
      </trkpt>
      <trkpt lat="45.63488" lon="2.88866">
        <ele>1174.87</ele>
        <time>2014-07-19T07:08:56Z</time>
      </trkpt>
      <trkpt lat="45.63488" lon="2.88864">
        <ele>1174.87</ele>
        <time>2014-07-19T07:09:07Z</time>
      </trkpt>
      <trkpt lat="45.63487" lon="2.88861">
        <ele>1175.35</ele>
        <time>2014-07-19T07:09:24Z</time>
      </trkpt>
      <trkpt lat="45.63487" lon="2.88859">
        <ele>1175.35</ele>
        <time>2014-07-19T07:09:38Z</time>
      </trkpt>
      <trkpt lat="45.63486" lon="2.88858">
        <ele>1175.35</ele>
        <time>2014-07-19T07:10:14Z</time>
      </trkpt>
      <trkpt lat="45.63482" lon="2.88856">
        <ele>1175.35</ele>
        <time>2014-07-19T07:10:45Z</time>
      </trkpt>
      <trkpt lat="45.63482" lon="2.88857">
        <ele>1175.83</ele>
        <time>2014-07-19T07:11:11Z</time>
      </trkpt>
      <trkpt lat="45.63483" lon="2.88857">
        <ele>1175.83</ele>
        <time>2014-07-19T07:11:35Z</time>
      </trkpt>
      <trkpt lat="45.63484" lon="2.88858">
        <ele>1176.31</ele>
        <time>2014-07-19T07:12:03Z</time>
      </trkpt>
      <trkpt lat="45.63484" lon="2.88857">
        <ele>1176.79</ele>
        <time>2014-07-19T07:12:38Z</time>
      </trkpt>
      <trkpt lat="45.63483" lon="2.88855">
        <ele>1176.79</ele>
        <time>2014-07-19T07:12:58Z</time>
      </trkpt>
      <trkpt lat="45.63482" lon="2.88853">
        <ele>1176.79</ele>
        <time>2014-07-19T07:12:59Z</time>
      </trkpt>
      <trkpt lat="45.63482" lon="2.88851">
        <ele>1176.79</ele>
        <time>2014-07-19T07:13:00Z</time>
      </trkpt>
      <trkpt lat="45.63482" lon="2.88841">
        <ele>1177.27</ele>
        <time>2014-07-19T07:13:04Z</time>
      </trkpt>
      <trkpt lat="45.63483" lon="2.8884">
        <ele>1177.27</ele>
        <time>2014-07-19T07:13:05Z</time>
      </trkpt>
      <trkpt lat="45.63485" lon="2.88839">
        <ele>1177.27</ele>
        <time>2014-07-19T07:13:06Z</time>
      </trkpt>
      <trkpt lat="45.63486" lon="2.88838">
        <ele>1177.27</ele>
        <time>2014-07-19T07:13:07Z</time>
      </trkpt>
      <trkpt lat="45.63487" lon="2.88837">
        <ele>1177.27</ele>
        <time>2014-07-19T07:13:08Z</time>
      </trkpt>
      <trkpt lat="45.63487" lon="2.88834">
        <ele>1177.75</ele>
        <time>2014-07-19T07:13:09Z</time>
      </trkpt>
      <trkpt lat="45.63487" lon="2.88832">
        <ele>1177.75</ele>
        <time>2014-07-19T07:13:10Z</time>
      </trkpt>
      <trkpt lat="45.63485" lon="2.88829">
        <ele>1177.75</ele>
        <time>2014-07-19T07:13:11Z</time>
      </trkpt>
      <trkpt lat="45.63479" lon="2.88822">
        <ele>1179.19</ele>
        <time>2014-07-19T07:13:20Z</time>
      </trkpt>
      <trkpt lat="45.63478" lon="2.88824">
        <ele>1179.67</ele>
        <time>2014-07-19T07:13:22Z</time>
      </trkpt>
      <trkpt lat="45.6347" lon="2.88825">
        <ele>1181.12</ele>
        <time>2014-07-19T07:13:27Z</time>
      </trkpt>
      <trkpt lat="45.63468" lon="2.88825">
        <ele>1181.12</ele>
        <time>2014-07-19T07:13:28Z</time>
      </trkpt>
      <trkpt lat="45.63464" lon="2.88826">
        <ele>1181.6</ele>
        <time>2014-07-19T07:13:30Z</time>
      </trkpt>
      <trkpt lat="45.63432" lon="2.88819">
        <ele>1182.56</ele>
        <time>2014-07-19T07:13:43Z</time>
      </trkpt>
      <trkpt lat="45.63428" lon="2.88819">
        <ele>1183.04</ele>
        <time>2014-07-19T07:13:45Z</time>
      </trkpt>
      <trkpt lat="45.63393" lon="2.8881">
        <ele>1184</ele>
        <time>2014-07-19T07:14:00Z</time>
      </trkpt>
      <trkpt lat="45.63384" lon="2.88804">
        <ele>1184.48</ele>
        <time>2014-07-19T07:14:05Z</time>
      </trkpt>
      <trkpt lat="45.63371" lon="2.88797">
        <ele>1184.48</ele>
        <time>2014-07-19T07:14:11Z</time>
      </trkpt>
      <trkpt lat="45.63369" lon="2.88793">
        <ele>1184.48</ele>
        <time>2014-07-19T07:14:14Z</time>
      </trkpt>
      <trkpt lat="45.6336" lon="2.88787">
        <ele>1184.96</ele>
        <time>2014-07-19T07:14:19Z</time>
      </trkpt>
      <trkpt lat="45.63355" lon="2.88784">
        <ele>1185.44</ele>
        <time>2014-07-19T07:14:30Z</time>
      </trkpt>
      <trkpt lat="45.63355" lon="2.88782">
        <ele>1184.96</ele>
        <time>2014-07-19T07:14:35Z</time>
      </trkpt>
      <trkpt lat="45.63345" lon="2.88762">
        <ele>1185.44</ele>
        <time>2014-07-19T07:14:44Z</time>
      </trkpt>
      <trkpt lat="45.63328" lon="2.88716">
        <ele>1187.37</ele>
        <time>2014-07-19T07:15:02Z</time>
      </trkpt>
      <trkpt lat="45.63318" lon="2.88677">
        <ele>1188.33</ele>
        <time>2014-07-19T07:15:16Z</time>
      </trkpt>
      <trkpt lat="45.63308" lon="2.88638">
        <ele>1189.77</ele>
        <time>2014-07-19T07:15:30Z</time>
      </trkpt>
      <trkpt lat="45.63298" lon="2.88597">
        <ele>1190.73</ele>
        <time>2014-07-19T07:15:44Z</time>
      </trkpt>
      <trkpt lat="45.63276" lon="2.88571">
        <ele>1192.17</ele>
        <time>2014-07-19T07:15:57Z</time>
      </trkpt>
      <trkpt lat="45.63246" lon="2.88561">
        <ele>1193.13</ele>
        <time>2014-07-19T07:16:11Z</time>
      </trkpt>
      <trkpt lat="45.63216" lon="2.88552">
        <ele>1194.09</ele>
        <time>2014-07-19T07:16:25Z</time>
      </trkpt>
      <trkpt lat="45.632" lon="2.88548">
        <ele>1195.06</ele>
        <time>2014-07-19T07:16:34Z</time>
      </trkpt>
      <trkpt lat="45.63193" lon="2.88546">
        <ele>1195.54</ele>
        <time>2014-07-19T07:16:38Z</time>
      </trkpt>
      <trkpt lat="45.63171" lon="2.8854">
        <ele>1197.46</ele>
        <time>2014-07-19T07:16:53Z</time>
      </trkpt>
      <trkpt lat="45.63149" lon="2.8854">
        <ele>1199.86</ele>
        <time>2014-07-19T07:17:08Z</time>
      </trkpt>
      <trkpt lat="45.63125" lon="2.88547">
        <ele>1201.79</ele>
        <time>2014-07-19T07:17:23Z</time>
      </trkpt>
      <trkpt lat="45.63099" lon="2.88529">
        <ele>1203.23</ele>
        <time>2014-07-19T07:17:40Z</time>
      </trkpt>
      <trkpt lat="45.63082" lon="2.88503">
        <ele>1204.67</ele>
        <time>2014-07-19T07:17:54Z</time>
      </trkpt>
      <trkpt lat="45.63068" lon="2.88479">
        <ele>1205.63</ele>
        <time>2014-07-19T07:18:07Z</time>
      </trkpt>
      <trkpt lat="45.63049" lon="2.88446">
        <ele>1206.59</ele>
        <time>2014-07-19T07:18:22Z</time>
      </trkpt>
      <trkpt lat="45.63033" lon="2.88416">
        <ele>1208.03</ele>
        <time>2014-07-19T07:18:36Z</time>
      </trkpt>
      <trkpt lat="45.6302" lon="2.88388">
        <ele>1209.48</ele>
        <time>2014-07-19T07:18:49Z</time>
      </trkpt>
      <trkpt lat="45.63003" lon="2.88345">
        <ele>1210.44</ele>
        <time>2014-07-19T07:19:05Z</time>
      </trkpt>
      <trkpt lat="45.62983" lon="2.88303">
        <ele>1211.88</ele>
        <time>2014-07-19T07:19:21Z</time>
      </trkpt>
      <trkpt lat="45.62967" lon="2.8826">
        <ele>1212.84</ele>
        <time>2014-07-19T07:19:36Z</time>
      </trkpt>
      <trkpt lat="45.62946" lon="2.88211">
        <ele>1214.28</ele>
        <time>2014-07-19T07:19:53Z</time>
      </trkpt>
      <trkpt lat="45.62928" lon="2.88164">
        <ele>1215.24</ele>
        <time>2014-07-19T07:20:09Z</time>
      </trkpt>
      <trkpt lat="45.62908" lon="2.88118">
        <ele>1216.21</ele>
        <time>2014-07-19T07:20:23Z</time>
      </trkpt>
      <trkpt lat="45.62891" lon="2.88071">
        <ele>1217.65</ele>
        <time>2014-07-19T07:20:38Z</time>
      </trkpt>
      <trkpt lat="45.62873" lon="2.88017">
        <ele>1218.13</ele>
        <time>2014-07-19T07:20:53Z</time>
      </trkpt>
      <trkpt lat="45.62851" lon="2.87984">
        <ele>1218.13</ele>
        <time>2014-07-19T07:21:04Z</time>
      </trkpt>
      <trkpt lat="45.6284" lon="2.87975">
        <ele>1218.13</ele>
        <time>2014-07-19T07:21:11Z</time>
      </trkpt>
      <trkpt lat="45.62812" lon="2.8797">
        <ele>1220.05</ele>
        <time>2014-07-19T07:21:29Z</time>
      </trkpt>
      <trkpt lat="45.62801" lon="2.87971">
        <ele>1220.53</ele>
        <time>2014-07-19T07:21:36Z</time>
      </trkpt>
      <trkpt lat="45.62787" lon="2.8797">
        <ele>1221.97</ele>
        <time>2014-07-19T07:21:46Z</time>
      </trkpt>
      <trkpt lat="45.62775" lon="2.8796">
        <ele>1223.9</ele>
        <time>2014-07-19T07:21:57Z</time>
      </trkpt>
      <trkpt lat="45.62774" lon="2.87933">
        <ele>1225.82</ele>
        <time>2014-07-19T07:22:13Z</time>
      </trkpt>
      <trkpt lat="45.62778" lon="2.87905">
        <ele>1227.74</ele>
        <time>2014-07-19T07:22:29Z</time>
      </trkpt>
      <trkpt lat="45.62779" lon="2.87903">
        <ele>1227.74</ele>
        <time>2014-07-19T07:22:30Z</time>
      </trkpt>
      <trkpt lat="45.62783" lon="2.87885">
        <ele>1229.66</ele>
        <time>2014-07-19T07:22:42Z</time>
      </trkpt>
      <trkpt lat="45.62786" lon="2.87876">
        <ele>1231.11</ele>
        <time>2014-07-19T07:22:48Z</time>
      </trkpt>
      <trkpt lat="45.62788" lon="2.8787">
        <ele>1231.11</ele>
        <time>2014-07-19T07:22:52Z</time>
      </trkpt>
      <trkpt lat="45.62789" lon="2.87861">
        <ele>1231.59</ele>
        <time>2014-07-19T07:22:57Z</time>
      </trkpt>
      <trkpt lat="45.62789" lon="2.87854">
        <ele>1232.55</ele>
        <time>2014-07-19T07:23:01Z</time>
      </trkpt>
      <trkpt lat="45.6279" lon="2.8784">
        <ele>1233.51</ele>
        <time>2014-07-19T07:23:10Z</time>
      </trkpt>
      <trkpt lat="45.62789" lon="2.87829">
        <ele>1234.47</ele>
        <time>2014-07-19T07:23:18Z</time>
      </trkpt>
      <trkpt lat="45.62792" lon="2.87824">
        <ele>1235.43</ele>
        <time>2014-07-19T07:23:31Z</time>
      </trkpt>
      <trkpt lat="45.62792" lon="2.87818">
        <ele>1235.91</ele>
        <time>2014-07-19T07:23:45Z</time>
      </trkpt>
      <trkpt lat="45.62791" lon="2.87817">
        <ele>1237.35</ele>
        <time>2014-07-19T07:23:59Z</time>
      </trkpt>
      <trkpt lat="45.6279" lon="2.87815">
        <ele>1237.83</ele>
        <time>2014-07-19T07:24:01Z</time>
      </trkpt>
      <trkpt lat="45.62788" lon="2.87808">
        <ele>1237.83</ele>
        <time>2014-07-19T07:24:05Z</time>
      </trkpt>
      <trkpt lat="45.62781" lon="2.87777">
        <ele>1239.76</ele>
        <time>2014-07-19T07:24:22Z</time>
      </trkpt>
      <trkpt lat="45.62776" lon="2.87755">
        <ele>1241.2</ele>
        <time>2014-07-19T07:24:34Z</time>
      </trkpt>
      <trkpt lat="45.62776" lon="2.87743">
        <ele>1241.2</ele>
        <time>2014-07-19T07:24:40Z</time>
      </trkpt>
      <trkpt lat="45.62772" lon="2.87728">
        <ele>1241.2</ele>
        <time>2014-07-19T07:24:48Z</time>
      </trkpt>
      <trkpt lat="45.62768" lon="2.87718">
        <ele>1241.68</ele>
        <time>2014-07-19T07:24:54Z</time>
      </trkpt>
      <trkpt lat="45.62768" lon="2.87714">
        <ele>1242.16</ele>
        <time>2014-07-19T07:24:56Z</time>
      </trkpt>
      <trkpt lat="45.62766" lon="2.87702">
        <ele>1242.64</ele>
        <time>2014-07-19T07:25:03Z</time>
      </trkpt>
      <trkpt lat="45.62764" lon="2.87694">
        <ele>1243.12</ele>
        <time>2014-07-19T07:25:08Z</time>
      </trkpt>
      <trkpt lat="45.62763" lon="2.87688">
        <ele>1243.12</ele>
        <time>2014-07-19T07:25:12Z</time>
      </trkpt>
      <trkpt lat="45.6276" lon="2.87676">
        <ele>1244.08</ele>
        <time>2014-07-19T07:25:20Z</time>
      </trkpt>
      <trkpt lat="45.62758" lon="2.87667">
        <ele>1244.56</ele>
        <time>2014-07-19T07:25:29Z</time>
      </trkpt>
      <trkpt lat="45.62752" lon="2.87632">
        <ele>1246.49</ele>
        <time>2014-07-19T07:25:46Z</time>
      </trkpt>
      <trkpt lat="45.62743" lon="2.87612">
        <ele>1247.45</ele>
        <time>2014-07-19T07:25:58Z</time>
      </trkpt>
      <trkpt lat="45.62742" lon="2.87604">
        <ele>1247.93</ele>
        <time>2014-07-19T07:26:02Z</time>
      </trkpt>
      <trkpt lat="45.6274" lon="2.87599">
        <ele>1248.41</ele>
        <time>2014-07-19T07:26:05Z</time>
      </trkpt>
      <trkpt lat="45.62738" lon="2.87592">
        <ele>1248.89</ele>
        <time>2014-07-19T07:26:09Z</time>
      </trkpt>
      <trkpt lat="45.62735" lon="2.87583">
        <ele>1249.37</ele>
        <time>2014-07-19T07:26:15Z</time>
      </trkpt>
      <trkpt lat="45.62726" lon="2.87554">
        <ele>1251.29</ele>
        <time>2014-07-19T07:26:31Z</time>
      </trkpt>
      <trkpt lat="45.62722" lon="2.87545">
        <ele>1251.77</ele>
        <time>2014-07-19T07:26:37Z</time>
      </trkpt>
      <trkpt lat="45.6272" lon="2.87538">
        <ele>1252.74</ele>
        <time>2014-07-19T07:26:41Z</time>
      </trkpt>
      <trkpt lat="45.62716" lon="2.87528">
        <ele>1253.22</ele>
        <time>2014-07-19T07:26:47Z</time>
      </trkpt>
      <trkpt lat="45.62706" lon="2.87499">
        <ele>1254.66</ele>
        <time>2014-07-19T07:27:03Z</time>
      </trkpt>
      <trkpt lat="45.62699" lon="2.87483">
        <ele>1255.62</ele>
        <time>2014-07-19T07:27:12Z</time>
      </trkpt>
      <trkpt lat="45.62687" lon="2.8746">
        <ele>1257.54</ele>
        <time>2014-07-19T07:27:27Z</time>
      </trkpt>
      <trkpt lat="45.62674" lon="2.87442">
        <ele>1259.46</ele>
        <time>2014-07-19T07:27:41Z</time>
      </trkpt>
      <trkpt lat="45.62659" lon="2.87424">
        <ele>1261.39</ele>
        <time>2014-07-19T07:27:55Z</time>
      </trkpt>
      <trkpt lat="45.6264" lon="2.87412">
        <ele>1263.31</ele>
        <time>2014-07-19T07:28:11Z</time>
      </trkpt>
      <trkpt lat="45.62621" lon="2.87406">
        <ele>1265.23</ele>
        <time>2014-07-19T07:28:26Z</time>
      </trkpt>
      <trkpt lat="45.62616" lon="2.87409">
        <ele>1265.71</ele>
        <time>2014-07-19T07:28:30Z</time>
      </trkpt>
      <trkpt lat="45.62612" lon="2.87419">
        <ele>1266.19</ele>
        <time>2014-07-19T07:28:36Z</time>
      </trkpt>
      <trkpt lat="45.62618" lon="2.87445">
        <ele>1268.12</ele>
        <time>2014-07-19T07:28:52Z</time>
      </trkpt>
      <trkpt lat="45.62621" lon="2.87458">
        <ele>1269.08</ele>
        <time>2014-07-19T07:28:59Z</time>
      </trkpt>
      <trkpt lat="45.62625" lon="2.87472">
        <ele>1269.56</ele>
        <time>2014-07-19T07:29:07Z</time>
      </trkpt>
      <trkpt lat="45.62626" lon="2.87475">
        <ele>1270.04</ele>
        <time>2014-07-19T07:29:09Z</time>
      </trkpt>
      <trkpt lat="45.62627" lon="2.87483">
        <ele>1270.52</ele>
        <time>2014-07-19T07:29:13Z</time>
      </trkpt>
      <trkpt lat="45.62629" lon="2.87491">
        <ele>1271</ele>
        <time>2014-07-19T07:29:17Z</time>
      </trkpt>
      <trkpt lat="45.62632" lon="2.87505">
        <ele>1271.48</ele>
        <time>2014-07-19T07:29:24Z</time>
      </trkpt>
      <trkpt lat="45.62642" lon="2.87539">
        <ele>1272.44</ele>
        <time>2014-07-19T07:29:39Z</time>
      </trkpt>
      <trkpt lat="45.62647" lon="2.8756">
        <ele>1273.88</ele>
        <time>2014-07-19T07:29:48Z</time>
      </trkpt>
      <trkpt lat="45.62654" lon="2.87599">
        <ele>1274.85</ele>
        <time>2014-07-19T07:30:04Z</time>
      </trkpt>
      <trkpt lat="45.62655" lon="2.87619">
        <ele>1275.81</ele>
        <time>2014-07-19T07:30:12Z</time>
      </trkpt>
      <trkpt lat="45.62655" lon="2.87659">
        <ele>1277.25</ele>
        <time>2014-07-19T07:30:28Z</time>
      </trkpt>
      <trkpt lat="45.62652" lon="2.87705">
        <ele>1279.17</ele>
        <time>2014-07-19T07:30:44Z</time>
      </trkpt>
      <trkpt lat="45.62646" lon="2.87738">
        <ele>1280.13</ele>
        <time>2014-07-19T07:30:56Z</time>
      </trkpt>
      <trkpt lat="45.62639" lon="2.87766">
        <ele>1282.06</ele>
        <time>2014-07-19T07:31:10Z</time>
      </trkpt>
      <trkpt lat="45.62629" lon="2.87801">
        <ele>1283.5</ele>
        <time>2014-07-19T07:31:27Z</time>
      </trkpt>
      <trkpt lat="45.6262" lon="2.87829">
        <ele>1285.42</ele>
        <time>2014-07-19T07:31:41Z</time>
      </trkpt>
      <trkpt lat="45.6261" lon="2.87865">
        <ele>1286.86</ele>
        <time>2014-07-19T07:31:57Z</time>
      </trkpt>
      <trkpt lat="45.62599" lon="2.87895">
        <ele>1288.78</ele>
        <time>2014-07-19T07:32:11Z</time>
      </trkpt>
      <trkpt lat="45.62586" lon="2.87923">
        <ele>1290.71</ele>
        <time>2014-07-19T07:32:25Z</time>
      </trkpt>
      <trkpt lat="45.62572" lon="2.87951">
        <ele>1291.67</ele>
        <time>2014-07-19T07:32:39Z</time>
      </trkpt>
      <trkpt lat="45.62568" lon="2.87956">
        <ele>1291.67</ele>
        <time>2014-07-19T07:32:54Z</time>
      </trkpt>
      <trkpt lat="45.62568" lon="2.87955">
        <ele>1295.51</ele>
        <time>2014-07-19T07:33:11Z</time>
      </trkpt>
      <trkpt lat="45.62568" lon="2.87955">
        <ele>1291.67</ele>
        <time>2014-07-19T07:33:12Z</time>
      </trkpt>
      <trkpt lat="45.62568" lon="2.87955">
        <ele>1292.15</ele>
        <time>2014-07-19T07:33:43Z</time>
      </trkpt>
      <trkpt lat="45.62559" lon="2.87965">
        <ele>1292.15</ele>
        <time>2014-07-19T07:33:50Z</time>
      </trkpt>
      <trkpt lat="45.62535" lon="2.8798">
        <ele>1294.07</ele>
        <time>2014-07-19T07:34:06Z</time>
      </trkpt>
      <trkpt lat="45.62528" lon="2.87983">
        <ele>1294.55</ele>
        <time>2014-07-19T07:34:10Z</time>
      </trkpt>
      <trkpt lat="45.62503" lon="2.87977">
        <ele>1296.48</ele>
        <time>2014-07-19T07:34:26Z</time>
      </trkpt>
      <trkpt lat="45.62483" lon="2.87968">
        <ele>1298.4</ele>
        <time>2014-07-19T07:34:40Z</time>
      </trkpt>
      <trkpt lat="45.62457" lon="2.87951">
        <ele>1301.28</ele>
        <time>2014-07-19T07:34:59Z</time>
      </trkpt>
      <trkpt lat="45.62454" lon="2.87949">
        <ele>1301.28</ele>
        <time>2014-07-19T07:35:01Z</time>
      </trkpt>
      <trkpt lat="45.62448" lon="2.87934">
        <ele>1302.72</ele>
        <time>2014-07-19T07:35:11Z</time>
      </trkpt>
      <trkpt lat="45.62464" lon="2.87914">
        <ele>1305.13</ele>
        <time>2014-07-19T07:35:27Z</time>
      </trkpt>
      <trkpt lat="45.62475" lon="2.87899">
        <ele>1306.09</ele>
        <time>2014-07-19T07:35:38Z</time>
      </trkpt>
      <trkpt lat="45.62491" lon="2.87869">
        <ele>1307.53</ele>
        <time>2014-07-19T07:35:54Z</time>
      </trkpt>
      <trkpt lat="45.62512" lon="2.87824">
        <ele>1309.45</ele>
        <time>2014-07-19T07:36:14Z</time>
      </trkpt>
      <trkpt lat="45.62523" lon="2.87797">
        <ele>1310.41</ele>
        <time>2014-07-19T07:36:27Z</time>
      </trkpt>
      <trkpt lat="45.62533" lon="2.87757">
        <ele>1311.86</ele>
        <time>2014-07-19T07:36:44Z</time>
      </trkpt>
      <trkpt lat="45.62538" lon="2.87725">
        <ele>1312.82</ele>
        <time>2014-07-19T07:36:58Z</time>
      </trkpt>
      <trkpt lat="45.62539" lon="2.87698">
        <ele>1314.26</ele>
        <time>2014-07-19T07:37:11Z</time>
      </trkpt>
      <trkpt lat="45.62538" lon="2.87694">
        <ele>1314.26</ele>
        <time>2014-07-19T07:37:13Z</time>
      </trkpt>
      <trkpt lat="45.62536" lon="2.87673">
        <ele>1315.22</ele>
        <time>2014-07-19T07:37:24Z</time>
      </trkpt>
      <trkpt lat="45.62532" lon="2.87654">
        <ele>1316.18</ele>
        <time>2014-07-19T07:37:36Z</time>
      </trkpt>
      <trkpt lat="45.62527" lon="2.87629">
        <ele>1317.62</ele>
        <time>2014-07-19T07:37:50Z</time>
      </trkpt>
      <trkpt lat="45.62526" lon="2.87614">
        <ele>1318.59</ele>
        <time>2014-07-19T07:37:57Z</time>
      </trkpt>
      <trkpt lat="45.62518" lon="2.87578">
        <ele>1320.99</ele>
        <time>2014-07-19T07:38:15Z</time>
      </trkpt>
      <trkpt lat="45.62509" lon="2.87562">
        <ele>1322.43</ele>
        <time>2014-07-19T07:38:24Z</time>
      </trkpt>
      <trkpt lat="45.62489" lon="2.87532">
        <ele>1324.35</ele>
        <time>2014-07-19T07:38:41Z</time>
      </trkpt>
      <trkpt lat="45.6247" lon="2.87509">
        <ele>1326.28</ele>
        <time>2014-07-19T07:38:55Z</time>
      </trkpt>
      <trkpt lat="45.62446" lon="2.87481">
        <ele>1328.2</ele>
        <time>2014-07-19T07:39:12Z</time>
      </trkpt>
      <trkpt lat="45.62421" lon="2.87452">
        <ele>1330.12</ele>
        <time>2014-07-19T07:39:29Z</time>
      </trkpt>
      <trkpt lat="45.62393" lon="2.87421">
        <ele>1331.56</ele>
        <time>2014-07-19T07:39:46Z</time>
      </trkpt>
      <trkpt lat="45.62374" lon="2.87397">
        <ele>1332.52</ele>
        <time>2014-07-19T07:39:59Z</time>
      </trkpt>
      <trkpt lat="45.62346" lon="2.87365">
        <ele>1333.97</ele>
        <time>2014-07-19T07:40:17Z</time>
      </trkpt>
      <trkpt lat="45.62319" lon="2.87333">
        <ele>1335.41</ele>
        <time>2014-07-19T07:40:33Z</time>
      </trkpt>
      <trkpt lat="45.623" lon="2.8731">
        <ele>1337.33</ele>
        <time>2014-07-19T07:40:45Z</time>
      </trkpt>
      <trkpt lat="45.62291" lon="2.87299">
        <ele>1338.29</ele>
        <time>2014-07-19T07:40:51Z</time>
      </trkpt>
      <trkpt lat="45.62265" lon="2.87267">
        <ele>1339.73</ele>
        <time>2014-07-19T07:41:07Z</time>
      </trkpt>
      <trkpt lat="45.62226" lon="2.87219">
        <ele>1341.18</ele>
        <time>2014-07-19T07:41:26Z</time>
      </trkpt>
      <trkpt lat="45.62194" lon="2.87176">
        <ele>1342.14</ele>
        <time>2014-07-19T07:41:41Z</time>
      </trkpt>
      <trkpt lat="45.6218" lon="2.87158">
        <ele>1343.1</ele>
        <time>2014-07-19T07:41:48Z</time>
      </trkpt>
      <trkpt lat="45.62156" lon="2.87129">
        <ele>1345.02</ele>
        <time>2014-07-19T07:42:03Z</time>
      </trkpt>
      <trkpt lat="45.62139" lon="2.87109">
        <ele>1346.46</ele>
        <time>2014-07-19T07:42:14Z</time>
      </trkpt>
      <trkpt lat="45.62121" lon="2.87085">
        <ele>1348.87</ele>
        <time>2014-07-19T07:42:29Z</time>
      </trkpt>
      <trkpt lat="45.62105" lon="2.87064">
        <ele>1350.31</ele>
        <time>2014-07-19T07:42:44Z</time>
      </trkpt>
      <trkpt lat="45.62086" lon="2.87043">
        <ele>1352.71</ele>
        <time>2014-07-19T07:42:59Z</time>
      </trkpt>
      <trkpt lat="45.62067" lon="2.87023">
        <ele>1354.15</ele>
        <time>2014-07-19T07:43:14Z</time>
      </trkpt>
      <trkpt lat="45.62051" lon="2.87004">
        <ele>1357.04</ele>
        <time>2014-07-19T07:43:28Z</time>
      </trkpt>
      <trkpt lat="45.62038" lon="2.8698">
        <ele>1358.48</ele>
        <time>2014-07-19T07:43:43Z</time>
      </trkpt>
      <trkpt lat="45.62032" lon="2.86945">
        <ele>1360.88</ele>
        <time>2014-07-19T07:44:00Z</time>
      </trkpt>
      <trkpt lat="45.62031" lon="2.86933">
        <ele>1361.84</ele>
        <time>2014-07-19T07:44:13Z</time>
      </trkpt>
      <trkpt lat="45.62029" lon="2.86929">
        <ele>1362.33</ele>
        <time>2014-07-19T07:44:22Z</time>
      </trkpt>
      <trkpt lat="45.62028" lon="2.8693">
        <ele>1362.33</ele>
        <time>2014-07-19T07:44:37Z</time>
      </trkpt>
      <trkpt lat="45.62028" lon="2.86931">
        <ele>1362.33</ele>
        <time>2014-07-19T07:44:51Z</time>
      </trkpt>
      <trkpt lat="45.62019" lon="2.8691">
        <ele>1363.77</ele>
        <time>2014-07-19T07:45:04Z</time>
      </trkpt>
      <trkpt lat="45.62011" lon="2.86894">
        <ele>1365.21</ele>
        <time>2014-07-19T07:45:14Z</time>
      </trkpt>
      <trkpt lat="45.62001" lon="2.86891">
        <ele>1366.17</ele>
        <time>2014-07-19T07:45:21Z</time>
      </trkpt>
      <trkpt lat="45.61992" lon="2.8689">
        <ele>1367.13</ele>
        <time>2014-07-19T07:45:27Z</time>
      </trkpt>
      <trkpt lat="45.61972" lon="2.86892">
        <ele>1368.09</ele>
        <time>2014-07-19T07:45:41Z</time>
      </trkpt>
      <trkpt lat="45.61965" lon="2.86891">
        <ele>1368.57</ele>
        <time>2014-07-19T07:45:46Z</time>
      </trkpt>
      <trkpt lat="45.61943" lon="2.86892">
        <ele>1370.02</ele>
        <time>2014-07-19T07:46:00Z</time>
      </trkpt>
      <trkpt lat="45.61919" lon="2.86891">
        <ele>1372.42</ele>
        <time>2014-07-19T07:46:15Z</time>
      </trkpt>
      <trkpt lat="45.61916" lon="2.8689">
        <ele>1372.9</ele>
        <time>2014-07-19T07:46:17Z</time>
      </trkpt>
      <trkpt lat="45.61913" lon="2.86883">
        <ele>1373.38</ele>
        <time>2014-07-19T07:46:21Z</time>
      </trkpt>
      <trkpt lat="45.61911" lon="2.86848">
        <ele>1375.78</ele>
        <time>2014-07-19T07:46:39Z</time>
      </trkpt>
      <trkpt lat="45.61909" lon="2.86824">
        <ele>1377.71</ele>
        <time>2014-07-19T07:46:51Z</time>
      </trkpt>
      <trkpt lat="45.61905" lon="2.86801">
        <ele>1379.15</ele>
        <time>2014-07-19T07:47:03Z</time>
      </trkpt>
      <trkpt lat="45.61906" lon="2.86783">
        <ele>1380.11</ele>
        <time>2014-07-19T07:47:13Z</time>
      </trkpt>
      <trkpt lat="45.61904" lon="2.86772">
        <ele>1380.59</ele>
        <time>2014-07-19T07:47:18Z</time>
      </trkpt>
      <trkpt lat="45.61902" lon="2.86764">
        <ele>1380.59</ele>
        <time>2014-07-19T07:47:22Z</time>
      </trkpt>
      <trkpt lat="45.61897" lon="2.86744">
        <ele>1382.99</ele>
        <time>2014-07-19T07:47:34Z</time>
      </trkpt>
      <trkpt lat="45.61895" lon="2.86719">
        <ele>1384.44</ele>
        <time>2014-07-19T07:47:47Z</time>
      </trkpt>
      <trkpt lat="45.61891" lon="2.86698">
        <ele>1385.88</ele>
        <time>2014-07-19T07:47:59Z</time>
      </trkpt>
      <trkpt lat="45.61889" lon="2.86685">
        <ele>1386.36</ele>
        <time>2014-07-19T07:48:03Z</time>
      </trkpt>
      <trkpt lat="45.61887" lon="2.86667">
        <ele>1387.32</ele>
        <time>2014-07-19T07:48:11Z</time>
      </trkpt>
      <trkpt lat="45.61884" lon="2.86647">
        <ele>1388.76</ele>
        <time>2014-07-19T07:48:24Z</time>
      </trkpt>
      <trkpt lat="45.61878" lon="2.86628">
        <ele>1389.24</ele>
        <time>2014-07-19T07:48:31Z</time>
      </trkpt>
      <trkpt lat="45.61873" lon="2.86607">
        <ele>1390.68</ele>
        <time>2014-07-19T07:48:40Z</time>
      </trkpt>
      <trkpt lat="45.61865" lon="2.86593">
        <ele>1391.65</ele>
        <time>2014-07-19T07:48:47Z</time>
      </trkpt>
      <trkpt lat="45.61849" lon="2.86569">
        <ele>1393.57</ele>
        <time>2014-07-19T07:49:03Z</time>
      </trkpt>
      <trkpt lat="45.6184" lon="2.8656">
        <ele>1395.01</ele>
        <time>2014-07-19T07:49:11Z</time>
      </trkpt>
      <trkpt lat="45.61828" lon="2.86546">
        <ele>1395.97</ele>
        <time>2014-07-19T07:49:23Z</time>
      </trkpt>
      <trkpt lat="45.6181" lon="2.86531">
        <ele>1398.37</ele>
        <time>2014-07-19T07:49:36Z</time>
      </trkpt>
      <trkpt lat="45.61797" lon="2.86516">
        <ele>1398.37</ele>
        <time>2014-07-19T07:49:47Z</time>
      </trkpt>
      <trkpt lat="45.61788" lon="2.86504">
        <ele>1399.34</ele>
        <time>2014-07-19T07:49:59Z</time>
      </trkpt>
      <trkpt lat="45.61788" lon="2.86503">
        <ele>1399.34</ele>
        <time>2014-07-19T07:50:00Z</time>
      </trkpt>
      <trkpt lat="45.61782" lon="2.86488">
        <ele>1400.3</ele>
        <time>2014-07-19T07:50:09Z</time>
      </trkpt>
      <trkpt lat="45.61779" lon="2.86478">
        <ele>1400.78</ele>
        <time>2014-07-19T07:50:14Z</time>
      </trkpt>
      <trkpt lat="45.61775" lon="2.86469">
        <ele>1401.74</ele>
        <time>2014-07-19T07:50:19Z</time>
      </trkpt>
      <trkpt lat="45.61768" lon="2.86456">
        <ele>1402.7</ele>
        <time>2014-07-19T07:50:28Z</time>
      </trkpt>
      <trkpt lat="45.6176" lon="2.86434">
        <ele>1403.66</ele>
        <time>2014-07-19T07:50:40Z</time>
      </trkpt>
      <trkpt lat="45.61749" lon="2.86406">
        <ele>1405.58</ele>
        <time>2014-07-19T07:50:55Z</time>
      </trkpt>
      <trkpt lat="45.61738" lon="2.86381">
        <ele>1407.51</ele>
        <time>2014-07-19T07:51:11Z</time>
      </trkpt>
      <trkpt lat="45.61735" lon="2.86374">
        <ele>1407.51</ele>
        <time>2014-07-19T07:51:15Z</time>
      </trkpt>
      <trkpt lat="45.61724" lon="2.86354">
        <ele>1409.43</ele>
        <time>2014-07-19T07:51:29Z</time>
      </trkpt>
      <trkpt lat="45.61709" lon="2.8633">
        <ele>1411.35</ele>
        <time>2014-07-19T07:51:45Z</time>
      </trkpt>
      <trkpt lat="45.61688" lon="2.8631">
        <ele>1413.28</ele>
        <time>2014-07-19T07:52:02Z</time>
      </trkpt>
      <trkpt lat="45.61674" lon="2.863">
        <ele>1414.72</ele>
        <time>2014-07-19T07:52:13Z</time>
      </trkpt>
      <trkpt lat="45.61669" lon="2.86297">
        <ele>1414.72</ele>
        <time>2014-07-19T07:52:17Z</time>
      </trkpt>
      <trkpt lat="45.61646" lon="2.86283">
        <ele>1416.64</ele>
        <time>2014-07-19T07:52:34Z</time>
      </trkpt>
      <trkpt lat="45.61625" lon="2.86266">
        <ele>1418.56</ele>
        <time>2014-07-19T07:52:51Z</time>
      </trkpt>
      <trkpt lat="45.61604" lon="2.86251">
        <ele>1419.04</ele>
        <time>2014-07-19T07:53:05Z</time>
      </trkpt>
      <trkpt lat="45.61576" lon="2.86228">
        <ele>1420</ele>
        <time>2014-07-19T07:53:24Z</time>
      </trkpt>
      <trkpt lat="45.6156" lon="2.86209">
        <ele>1421.93</ele>
        <time>2014-07-19T07:53:37Z</time>
      </trkpt>
      <trkpt lat="45.61537" lon="2.86192">
        <ele>1423.37</ele>
        <time>2014-07-19T07:53:53Z</time>
      </trkpt>
      <trkpt lat="45.61521" lon="2.8617">
        <ele>1424.81</ele>
        <time>2014-07-19T07:54:07Z</time>
      </trkpt>
      <trkpt lat="45.61503" lon="2.86149">
        <ele>1426.25</ele>
        <time>2014-07-19T07:54:20Z</time>
      </trkpt>
      <trkpt lat="45.61499" lon="2.86142">
        <ele>1426.73</ele>
        <time>2014-07-19T07:54:25Z</time>
      </trkpt>
      <trkpt lat="45.61495" lon="2.86136">
        <ele>1427.21</ele>
        <time>2014-07-19T07:54:29Z</time>
      </trkpt>
      <trkpt lat="45.61485" lon="2.86123">
        <ele>1427.7</ele>
        <time>2014-07-19T07:54:37Z</time>
      </trkpt>
      <trkpt lat="45.61482" lon="2.86118">
        <ele>1427.21</ele>
        <time>2014-07-19T07:54:48Z</time>
      </trkpt>
      <trkpt lat="45.61482" lon="2.86118">
        <ele>1427.7</ele>
        <time>2014-07-19T07:55:06Z</time>
      </trkpt>
      <trkpt lat="45.61482" lon="2.86117">
        <ele>1427.21</ele>
        <time>2014-07-19T07:55:25Z</time>
      </trkpt>
      <trkpt lat="45.61482" lon="2.86118">
        <ele>1426.73</ele>
        <time>2014-07-19T07:55:55Z</time>
      </trkpt>
      <trkpt lat="45.61481" lon="2.86118">
        <ele>1426.73</ele>
        <time>2014-07-19T07:56:12Z</time>
      </trkpt>
      <trkpt lat="45.61481" lon="2.86118">
        <ele>1427.21</ele>
        <time>2014-07-19T07:56:38Z</time>
      </trkpt>
      <trkpt lat="45.61481" lon="2.86118">
        <ele>1427.7</ele>
        <time>2014-07-19T07:57:02Z</time>
      </trkpt>
      <trkpt lat="45.61481" lon="2.86118">
        <ele>1427.7</ele>
        <time>2014-07-19T07:57:33Z</time>
      </trkpt>
      <trkpt lat="45.61481" lon="2.86118">
        <ele>1427.7</ele>
        <time>2014-07-19T07:57:55Z</time>
      </trkpt>
      <trkpt lat="45.61482" lon="2.86118">
        <ele>1428.66</ele>
        <time>2014-07-19T07:58:17Z</time>
      </trkpt>
      <trkpt lat="45.61481" lon="2.86118">
        <ele>1428.66</ele>
        <time>2014-07-19T07:58:37Z</time>
      </trkpt>
      <trkpt lat="45.61476" lon="2.86113">
        <ele>1428.66</ele>
        <time>2014-07-19T07:58:48Z</time>
      </trkpt>
      <trkpt lat="45.61468" lon="2.86102">
        <ele>1428.66</ele>
        <time>2014-07-19T07:58:52Z</time>
      </trkpt>
      <trkpt lat="45.61458" lon="2.86088">
        <ele>1428.18</ele>
        <time>2014-07-19T07:58:56Z</time>
      </trkpt>
      <trkpt lat="45.61456" lon="2.86083">
        <ele>1427.7</ele>
        <time>2014-07-19T07:58:57Z</time>
      </trkpt>
      <trkpt lat="45.61454" lon="2.86079">
        <ele>1427.7</ele>
        <time>2014-07-19T07:58:58Z</time>
      </trkpt>
      <trkpt lat="45.6145" lon="2.86075">
        <ele>1427.7</ele>
        <time>2014-07-19T07:58:59Z</time>
      </trkpt>
      <trkpt lat="45.61447" lon="2.8607">
        <ele>1427.21</ele>
        <time>2014-07-19T07:59:00Z</time>
      </trkpt>
      <trkpt lat="45.61382" lon="2.85988">
        <ele>1425.29</ele>
        <time>2014-07-19T07:59:17Z</time>
      </trkpt>
      <trkpt lat="45.61378" lon="2.85982">
        <ele>1425.29</ele>
        <time>2014-07-19T07:59:18Z</time>
      </trkpt>
      <trkpt lat="45.61356" lon="2.85953">
        <ele>1422.89</ele>
        <time>2014-07-19T07:59:23Z</time>
      </trkpt>
      <trkpt lat="45.61351" lon="2.85947">
        <ele>1421.93</ele>
        <time>2014-07-19T07:59:24Z</time>
      </trkpt>
      <trkpt lat="45.61324" lon="2.85901">
        <ele>1419.04</ele>
        <time>2014-07-19T07:59:30Z</time>
      </trkpt>
      <trkpt lat="45.61306" lon="2.8587">
        <ele>1417.12</ele>
        <time>2014-07-19T07:59:34Z</time>
      </trkpt>
      <trkpt lat="45.61301" lon="2.85863">
        <ele>1417.12</ele>
        <time>2014-07-19T07:59:35Z</time>
      </trkpt>
      <trkpt lat="45.6128" lon="2.85836">
        <ele>1415.2</ele>
        <time>2014-07-19T07:59:39Z</time>
      </trkpt>
      <trkpt lat="45.61243" lon="2.85787">
        <ele>1414.72</ele>
        <time>2014-07-19T07:59:47Z</time>
      </trkpt>
      <trkpt lat="45.61237" lon="2.85775">
        <ele>1414.72</ele>
        <time>2014-07-19T07:59:49Z</time>
      </trkpt>
      <trkpt lat="45.61233" lon="2.85771">
        <ele>1415.2</ele>
        <time>2014-07-19T07:59:50Z</time>
      </trkpt>
      <trkpt lat="45.61229" lon="2.85767">
        <ele>1414.72</ele>
        <time>2014-07-19T07:59:51Z</time>
      </trkpt>
      <trkpt lat="45.61225" lon="2.85764">
        <ele>1414.72</ele>
        <time>2014-07-19T07:59:52Z</time>
      </trkpt>
      <trkpt lat="45.61221" lon="2.85759">
        <ele>1414.72</ele>
        <time>2014-07-19T07:59:53Z</time>
      </trkpt>
      <trkpt lat="45.61205" lon="2.85736">
        <ele>1415.2</ele>
        <time>2014-07-19T07:59:58Z</time>
      </trkpt>
      <trkpt lat="45.61194" lon="2.85722">
        <ele>1414.24</ele>
        <time>2014-07-19T08:00:01Z</time>
      </trkpt>
      <trkpt lat="45.61189" lon="2.85717">
        <ele>1413.76</ele>
        <time>2014-07-19T08:00:02Z</time>
      </trkpt>
      <trkpt lat="45.61175" lon="2.85704">
        <ele>1413.28</ele>
        <time>2014-07-19T08:00:05Z</time>
      </trkpt>
      <trkpt lat="45.61171" lon="2.85699">
        <ele>1413.28</ele>
        <time>2014-07-19T08:00:06Z</time>
      </trkpt>
      <trkpt lat="45.61166" lon="2.85695">
        <ele>1413.76</ele>
        <time>2014-07-19T08:00:07Z</time>
      </trkpt>
      <trkpt lat="45.61161" lon="2.85692">
        <ele>1413.76</ele>
        <time>2014-07-19T08:00:08Z</time>
      </trkpt>
      <trkpt lat="45.61157" lon="2.8569">
        <ele>1413.28</ele>
        <time>2014-07-19T08:00:09Z</time>
      </trkpt>
      <trkpt lat="45.61152" lon="2.85687">
        <ele>1413.76</ele>
        <time>2014-07-19T08:00:10Z</time>
      </trkpt>
      <trkpt lat="45.61148" lon="2.85684">
        <ele>1413.28</ele>
        <time>2014-07-19T08:00:11Z</time>
      </trkpt>
      <trkpt lat="45.61144" lon="2.85681">
        <ele>1413.28</ele>
        <time>2014-07-19T08:00:12Z</time>
      </trkpt>
      <trkpt lat="45.6114" lon="2.85677">
        <ele>1413.28</ele>
        <time>2014-07-19T08:00:13Z</time>
      </trkpt>
      <trkpt lat="45.61133" lon="2.85671">
        <ele>1413.28</ele>
        <time>2014-07-19T08:00:15Z</time>
      </trkpt>
      <trkpt lat="45.61121" lon="2.85665">
        <ele>1412.79</ele>
        <time>2014-07-19T08:00:18Z</time>
      </trkpt>
      <trkpt lat="45.61119" lon="2.85666">
        <ele>1413.28</ele>
        <time>2014-07-19T08:00:19Z</time>
      </trkpt>
      <trkpt lat="45.61119" lon="2.85669">
        <ele>1412.79</ele>
        <time>2014-07-19T08:00:20Z</time>
      </trkpt>
      <trkpt lat="45.6112" lon="2.85673">
        <ele>1412.79</ele>
        <time>2014-07-19T08:00:21Z</time>
      </trkpt>
      <trkpt lat="45.61121" lon="2.85676">
        <ele>1412.79</ele>
        <time>2014-07-19T08:00:22Z</time>
      </trkpt>
      <trkpt lat="45.61123" lon="2.85678">
        <ele>1412.79</ele>
        <time>2014-07-19T08:00:23Z</time>
      </trkpt>
      <trkpt lat="45.61126" lon="2.85681">
        <ele>1412.79</ele>
        <time>2014-07-19T08:00:24Z</time>
      </trkpt>
      <trkpt lat="45.61128" lon="2.85683">
        <ele>1412.79</ele>
        <time>2014-07-19T08:00:25Z</time>
      </trkpt>
      <trkpt lat="45.6113" lon="2.85687">
        <ele>1412.79</ele>
        <time>2014-07-19T08:00:26Z</time>
      </trkpt>
      <trkpt lat="45.61131" lon="2.85691">
        <ele>1412.31</ele>
        <time>2014-07-19T08:00:27Z</time>
      </trkpt>
      <trkpt lat="45.61144" lon="2.85726">
        <ele>1411.83</ele>
        <time>2014-07-19T08:00:37Z</time>
      </trkpt>
      <trkpt lat="45.61144" lon="2.85729">
        <ele>1411.35</ele>
        <time>2014-07-19T08:00:38Z</time>
      </trkpt>
      <trkpt lat="45.61145" lon="2.85732">
        <ele>1411.35</ele>
        <time>2014-07-19T08:00:39Z</time>
      </trkpt>
      <trkpt lat="45.61146" lon="2.85735">
        <ele>1411.35</ele>
        <time>2014-07-19T08:00:40Z</time>
      </trkpt>
      <trkpt lat="45.61148" lon="2.85737">
        <ele>1411.35</ele>
        <time>2014-07-19T08:00:41Z</time>
      </trkpt>
      <trkpt lat="45.61169" lon="2.8578">
        <ele>1408.47</ele>
        <time>2014-07-19T08:00:52Z</time>
      </trkpt>
      <trkpt lat="45.61171" lon="2.85785">
        <ele>1408.47</ele>
        <time>2014-07-19T08:00:53Z</time>
      </trkpt>
      <trkpt lat="45.61174" lon="2.8579">
        <ele>1408.47</ele>
        <time>2014-07-19T08:00:54Z</time>
      </trkpt>
      <trkpt lat="45.61176" lon="2.85796">
        <ele>1407.99</ele>
        <time>2014-07-19T08:00:55Z</time>
      </trkpt>
      <trkpt lat="45.61179" lon="2.85801">
        <ele>1407.99</ele>
        <time>2014-07-19T08:00:56Z</time>
      </trkpt>
      <trkpt lat="45.61181" lon="2.85806">
        <ele>1407.51</ele>
        <time>2014-07-19T08:00:57Z</time>
      </trkpt>
      <trkpt lat="45.61189" lon="2.85825">
        <ele>1406.07</ele>
        <time>2014-07-19T08:01:00Z</time>
      </trkpt>
      <trkpt lat="45.61191" lon="2.85831">
        <ele>1406.07</ele>
        <time>2014-07-19T08:01:01Z</time>
      </trkpt>
      <trkpt lat="45.61193" lon="2.85837">
        <ele>1405.58</ele>
        <time>2014-07-19T08:01:02Z</time>
      </trkpt>
      <trkpt lat="45.61206" lon="2.85873">
        <ele>1403.18</ele>
        <time>2014-07-19T08:01:07Z</time>
      </trkpt>
      <trkpt lat="45.61222" lon="2.85908">
        <ele>1402.7</ele>
        <time>2014-07-19T08:01:13Z</time>
      </trkpt>
      <trkpt lat="45.61233" lon="2.85925">
        <ele>1401.74</ele>
        <time>2014-07-19T08:01:17Z</time>
      </trkpt>
      <trkpt lat="45.61245" lon="2.85948">
        <ele>1400.78</ele>
        <time>2014-07-19T08:01:21Z</time>
      </trkpt>
      <trkpt lat="45.61248" lon="2.85954">
        <ele>1400.3</ele>
        <time>2014-07-19T08:01:22Z</time>
      </trkpt>
      <trkpt lat="45.61258" lon="2.85982">
        <ele>1399.34</ele>
        <time>2014-07-19T08:01:26Z</time>
      </trkpt>
      <trkpt lat="45.61267" lon="2.86004">
        <ele>1398.37</ele>
        <time>2014-07-19T08:01:29Z</time>
      </trkpt>
      <trkpt lat="45.61279" lon="2.86035">
        <ele>1396.93</ele>
        <time>2014-07-19T08:01:33Z</time>
      </trkpt>
      <trkpt lat="45.61288" lon="2.86068">
        <ele>1394.53</ele>
        <time>2014-07-19T08:01:37Z</time>
      </trkpt>
      <trkpt lat="45.61289" lon="2.86076">
        <ele>1395.01</ele>
        <time>2014-07-19T08:01:38Z</time>
      </trkpt>
      <trkpt lat="45.61289" lon="2.86084">
        <ele>1394.05</ele>
        <time>2014-07-19T08:01:39Z</time>
      </trkpt>
      <trkpt lat="45.61289" lon="2.86092">
        <ele>1393.57</ele>
        <time>2014-07-19T08:01:40Z</time>
      </trkpt>
      <trkpt lat="45.61289" lon="2.86098">
        <ele>1393.57</ele>
        <time>2014-07-19T08:01:41Z</time>
      </trkpt>
      <trkpt lat="45.61288" lon="2.86102">
        <ele>1393.09</ele>
        <time>2014-07-19T08:01:42Z</time>
      </trkpt>
      <trkpt lat="45.61287" lon="2.86105">
        <ele>1392.61</ele>
        <time>2014-07-19T08:01:43Z</time>
      </trkpt>
      <trkpt lat="45.61286" lon="2.86109">
        <ele>1392.13</ele>
        <time>2014-07-19T08:01:44Z</time>
      </trkpt>
      <trkpt lat="45.61285" lon="2.86113">
        <ele>1391.65</ele>
        <time>2014-07-19T08:01:45Z</time>
      </trkpt>
      <trkpt lat="45.61284" lon="2.86117">
        <ele>1391.65</ele>
        <time>2014-07-19T08:01:46Z</time>
      </trkpt>
      <trkpt lat="45.61282" lon="2.8612">
        <ele>1391.17</ele>
        <time>2014-07-19T08:01:47Z</time>
      </trkpt>
      <trkpt lat="45.6128" lon="2.86124">
        <ele>1390.68</ele>
        <time>2014-07-19T08:01:48Z</time>
      </trkpt>
      <trkpt lat="45.61271" lon="2.86131">
        <ele>1388.28</ele>
        <time>2014-07-19T08:01:52Z</time>
      </trkpt>
      <trkpt lat="45.61268" lon="2.8613">
        <ele>1387.8</ele>
        <time>2014-07-19T08:01:53Z</time>
      </trkpt>
      <trkpt lat="45.61266" lon="2.86127">
        <ele>1387.32</ele>
        <time>2014-07-19T08:01:54Z</time>
      </trkpt>
      <trkpt lat="45.61263" lon="2.86124">
        <ele>1386.84</ele>
        <time>2014-07-19T08:01:55Z</time>
      </trkpt>
      <trkpt lat="45.6126" lon="2.86121">
        <ele>1386.36</ele>
        <time>2014-07-19T08:01:56Z</time>
      </trkpt>
      <trkpt lat="45.61257" lon="2.86116">
        <ele>1385.88</ele>
        <time>2014-07-19T08:01:57Z</time>
      </trkpt>
      <trkpt lat="45.61254" lon="2.86111">
        <ele>1385.4</ele>
        <time>2014-07-19T08:01:58Z</time>
      </trkpt>
      <trkpt lat="45.61251" lon="2.86106">
        <ele>1384.92</ele>
        <time>2014-07-19T08:01:59Z</time>
      </trkpt>
      <trkpt lat="45.6124" lon="2.86091">
        <ele>1383.47</ele>
        <time>2014-07-19T08:02:02Z</time>
      </trkpt>
      <trkpt lat="45.61236" lon="2.86086">
        <ele>1382.99</ele>
        <time>2014-07-19T08:02:03Z</time>
      </trkpt>
      <trkpt lat="45.61232" lon="2.8608">
        <ele>1382.51</ele>
        <time>2014-07-19T08:02:04Z</time>
      </trkpt>
      <trkpt lat="45.61227" lon="2.86074">
        <ele>1382.03</ele>
        <time>2014-07-19T08:02:05Z</time>
      </trkpt>
      <trkpt lat="45.61223" lon="2.86069">
        <ele>1381.55</ele>
        <time>2014-07-19T08:02:06Z</time>
      </trkpt>
      <trkpt lat="45.6122" lon="2.86065">
        <ele>1381.55</ele>
        <time>2014-07-19T08:02:07Z</time>
      </trkpt>
      <trkpt lat="45.61217" lon="2.86061">
        <ele>1381.07</ele>
        <time>2014-07-19T08:02:08Z</time>
      </trkpt>
      <trkpt lat="45.61214" lon="2.86058">
        <ele>1380.59</ele>
        <time>2014-07-19T08:02:09Z</time>
      </trkpt>
      <trkpt lat="45.61211" lon="2.86056">
        <ele>1380.59</ele>
        <time>2014-07-19T08:02:10Z</time>
      </trkpt>
      <trkpt lat="45.61209" lon="2.86056">
        <ele>1380.11</ele>
        <time>2014-07-19T08:02:11Z</time>
      </trkpt>
      <trkpt lat="45.61207" lon="2.86056">
        <ele>1379.15</ele>
        <time>2014-07-19T08:02:12Z</time>
      </trkpt>
      <trkpt lat="45.61205" lon="2.86057">
        <ele>1378.67</ele>
        <time>2014-07-19T08:02:13Z</time>
      </trkpt>
      <trkpt lat="45.61204" lon="2.86057">
        <ele>1377.71</ele>
        <time>2014-07-19T08:02:14Z</time>
      </trkpt>
      <trkpt lat="45.61202" lon="2.86062">
        <ele>1376.75</ele>
        <time>2014-07-19T08:02:16Z</time>
      </trkpt>
      <trkpt lat="45.61203" lon="2.86068">
        <ele>1376.26</ele>
        <time>2014-07-19T08:02:17Z</time>
      </trkpt>
      <trkpt lat="45.61203" lon="2.86074">
        <ele>1376.26</ele>
        <time>2014-07-19T08:02:18Z</time>
      </trkpt>
      <trkpt lat="45.61205" lon="2.8608">
        <ele>1375.78</ele>
        <time>2014-07-19T08:02:19Z</time>
      </trkpt>
      <trkpt lat="45.61208" lon="2.86088">
        <ele>1375.3</ele>
        <time>2014-07-19T08:02:20Z</time>
      </trkpt>
      <trkpt lat="45.6121" lon="2.86096">
        <ele>1375.3</ele>
        <time>2014-07-19T08:02:21Z</time>
      </trkpt>
      <trkpt lat="45.61213" lon="2.86102">
        <ele>1374.82</ele>
        <time>2014-07-19T08:02:22Z</time>
      </trkpt>
      <trkpt lat="45.61215" lon="2.8611">
        <ele>1374.34</ele>
        <time>2014-07-19T08:02:23Z</time>
      </trkpt>
      <trkpt lat="45.61217" lon="2.86118">
        <ele>1373.86</ele>
        <time>2014-07-19T08:02:24Z</time>
      </trkpt>
      <trkpt lat="45.61218" lon="2.86125">
        <ele>1372.9</ele>
        <time>2014-07-19T08:02:25Z</time>
      </trkpt>
      <trkpt lat="45.61218" lon="2.8613">
        <ele>1372.42</ele>
        <time>2014-07-19T08:02:26Z</time>
      </trkpt>
      <trkpt lat="45.61216" lon="2.86135">
        <ele>1371.94</ele>
        <time>2014-07-19T08:02:27Z</time>
      </trkpt>
      <trkpt lat="45.61215" lon="2.86141">
        <ele>1371.46</ele>
        <time>2014-07-19T08:02:28Z</time>
      </trkpt>
      <trkpt lat="45.61213" lon="2.86146">
        <ele>1370.98</ele>
        <time>2014-07-19T08:02:29Z</time>
      </trkpt>
      <trkpt lat="45.6121" lon="2.86151">
        <ele>1370.5</ele>
        <time>2014-07-19T08:02:30Z</time>
      </trkpt>
      <trkpt lat="45.61211" lon="2.86168">
        <ele>1369.54</ele>
        <time>2014-07-19T08:02:32Z</time>
      </trkpt>
      <trkpt lat="45.61212" lon="2.86172">
        <ele>1369.05</ele>
        <time>2014-07-19T08:02:33Z</time>
      </trkpt>
      <trkpt lat="45.61214" lon="2.86184">
        <ele>1368.57</ele>
        <time>2014-07-19T08:02:35Z</time>
      </trkpt>
      <trkpt lat="45.61212" lon="2.86191">
        <ele>1368.09</ele>
        <time>2014-07-19T08:02:36Z</time>
      </trkpt>
      <trkpt lat="45.61194" lon="2.86233">
        <ele>1364.73</ele>
        <time>2014-07-19T08:02:42Z</time>
      </trkpt>
      <trkpt lat="45.61188" lon="2.86251">
        <ele>1363.77</ele>
        <time>2014-07-19T08:02:44Z</time>
      </trkpt>
      <trkpt lat="45.61185" lon="2.86261">
        <ele>1363.29</ele>
        <time>2014-07-19T08:02:45Z</time>
      </trkpt>
      <trkpt lat="45.61172" lon="2.86303">
        <ele>1361.36</ele>
        <time>2014-07-19T08:02:50Z</time>
      </trkpt>
      <trkpt lat="45.61169" lon="2.86311">
        <ele>1360.88</ele>
        <time>2014-07-19T08:02:51Z</time>
      </trkpt>
      <trkpt lat="45.61159" lon="2.86347">
        <ele>1358.96</ele>
        <time>2014-07-19T08:02:55Z</time>
      </trkpt>
      <trkpt lat="45.61157" lon="2.86355">
        <ele>1358</ele>
        <time>2014-07-19T08:02:56Z</time>
      </trkpt>
      <trkpt lat="45.61153" lon="2.86371">
        <ele>1357.04</ele>
        <time>2014-07-19T08:02:58Z</time>
      </trkpt>
      <trkpt lat="45.6114" lon="2.8642">
        <ele>1354.15</ele>
        <time>2014-07-19T08:03:05Z</time>
      </trkpt>
      <trkpt lat="45.61136" lon="2.86443">
        <ele>1352.71</ele>
        <time>2014-07-19T08:03:08Z</time>
      </trkpt>
      <trkpt lat="45.61134" lon="2.8645">
        <ele>1351.75</ele>
        <time>2014-07-19T08:03:09Z</time>
      </trkpt>
      <trkpt lat="45.61132" lon="2.86495">
        <ele>1349.35</ele>
        <time>2014-07-19T08:03:17Z</time>
      </trkpt>
      <trkpt lat="45.61131" lon="2.86499">
        <ele>1349.35</ele>
        <time>2014-07-19T08:03:18Z</time>
      </trkpt>
      <trkpt lat="45.61128" lon="2.86511">
        <ele>1347.91</ele>
        <time>2014-07-19T08:03:22Z</time>
      </trkpt>
      <trkpt lat="45.61123" lon="2.86518">
        <ele>1345.5</ele>
        <time>2014-07-19T08:03:28Z</time>
      </trkpt>
      <trkpt lat="45.61119" lon="2.86488">
        <ele>1343.58</ele>
        <time>2014-07-19T08:03:37Z</time>
      </trkpt>
      <trkpt lat="45.61117" lon="2.86481">
        <ele>1344.06</ele>
        <time>2014-07-19T08:03:38Z</time>
      </trkpt>
      <trkpt lat="45.61116" lon="2.8647">
        <ele>1342.62</ele>
        <time>2014-07-19T08:03:40Z</time>
      </trkpt>
      <trkpt lat="45.61114" lon="2.86464">
        <ele>1342.14</ele>
        <time>2014-07-19T08:03:41Z</time>
      </trkpt>
      <trkpt lat="45.61108" lon="2.86428">
        <ele>1338.77</ele>
        <time>2014-07-19T08:03:50Z</time>
      </trkpt>
      <trkpt lat="45.61104" lon="2.86424">
        <ele>1338.29</ele>
        <time>2014-07-19T08:03:51Z</time>
      </trkpt>
      <trkpt lat="45.61101" lon="2.86424">
        <ele>1337.81</ele>
        <time>2014-07-19T08:03:52Z</time>
      </trkpt>
      <trkpt lat="45.61098" lon="2.86424">
        <ele>1337.33</ele>
        <time>2014-07-19T08:03:53Z</time>
      </trkpt>
      <trkpt lat="45.61096" lon="2.86425">
        <ele>1336.85</ele>
        <time>2014-07-19T08:03:54Z</time>
      </trkpt>
      <trkpt lat="45.61094" lon="2.86427">
        <ele>1336.37</ele>
        <time>2014-07-19T08:03:55Z</time>
      </trkpt>
      <trkpt lat="45.61092" lon="2.8643">
        <ele>1335.41</ele>
        <time>2014-07-19T08:03:56Z</time>
      </trkpt>
      <trkpt lat="45.61088" lon="2.86433">
        <ele>1334.93</ele>
        <time>2014-07-19T08:03:57Z</time>
      </trkpt>
      <trkpt lat="45.61081" lon="2.86441">
        <ele>1333.49</ele>
        <time>2014-07-19T08:03:59Z</time>
      </trkpt>
      <trkpt lat="45.61078" lon="2.86443">
        <ele>1333.01</ele>
        <time>2014-07-19T08:04:00Z</time>
      </trkpt>
      <trkpt lat="45.61075" lon="2.86447">
        <ele>1333.01</ele>
        <time>2014-07-19T08:04:01Z</time>
      </trkpt>
      <trkpt lat="45.61072" lon="2.8645">
        <ele>1332.52</ele>
        <time>2014-07-19T08:04:02Z</time>
      </trkpt>
      <trkpt lat="45.61069" lon="2.86455">
        <ele>1332.04</ele>
        <time>2014-07-19T08:04:03Z</time>
      </trkpt>
      <trkpt lat="45.61065" lon="2.8646">
        <ele>1331.56</ele>
        <time>2014-07-19T08:04:04Z</time>
      </trkpt>
      <trkpt lat="45.6105" lon="2.86481">
        <ele>1329.64</ele>
        <time>2014-07-19T08:04:08Z</time>
      </trkpt>
      <trkpt lat="45.61043" lon="2.86494">
        <ele>1328.68</ele>
        <time>2014-07-19T08:04:10Z</time>
      </trkpt>
      <trkpt lat="45.6104" lon="2.86501">
        <ele>1328.2</ele>
        <time>2014-07-19T08:04:11Z</time>
      </trkpt>
      <trkpt lat="45.61037" lon="2.86508">
        <ele>1328.2</ele>
        <time>2014-07-19T08:04:12Z</time>
      </trkpt>
      <trkpt lat="45.61034" lon="2.86516">
        <ele>1327.72</ele>
        <time>2014-07-19T08:04:13Z</time>
      </trkpt>
      <trkpt lat="45.61033" lon="2.86524">
        <ele>1327.24</ele>
        <time>2014-07-19T08:04:14Z</time>
      </trkpt>
      <trkpt lat="45.61033" lon="2.86532">
        <ele>1327.24</ele>
        <time>2014-07-19T08:04:15Z</time>
      </trkpt>
      <trkpt lat="45.61033" lon="2.86539">
        <ele>1327.24</ele>
        <time>2014-07-19T08:04:16Z</time>
      </trkpt>
      <trkpt lat="45.61031" lon="2.86545">
        <ele>1326.76</ele>
        <time>2014-07-19T08:04:17Z</time>
      </trkpt>
      <trkpt lat="45.61029" lon="2.86551">
        <ele>1326.28</ele>
        <time>2014-07-19T08:04:18Z</time>
      </trkpt>
      <trkpt lat="45.61025" lon="2.86554">
        <ele>1325.8</ele>
        <time>2014-07-19T08:04:19Z</time>
      </trkpt>
      <trkpt lat="45.61021" lon="2.86557">
        <ele>1325.31</ele>
        <time>2014-07-19T08:04:20Z</time>
      </trkpt>
      <trkpt lat="45.61017" lon="2.8656">
        <ele>1324.83</ele>
        <time>2014-07-19T08:04:21Z</time>
      </trkpt>
      <trkpt lat="45.61012" lon="2.86561">
        <ele>1324.35</ele>
        <time>2014-07-19T08:04:22Z</time>
      </trkpt>
      <trkpt lat="45.61007" lon="2.86563">
        <ele>1323.39</ele>
        <time>2014-07-19T08:04:23Z</time>
      </trkpt>
      <trkpt lat="45.61002" lon="2.86565">
        <ele>1322.91</ele>
        <time>2014-07-19T08:04:24Z</time>
      </trkpt>
      <trkpt lat="45.60997" lon="2.86568">
        <ele>1321.95</ele>
        <time>2014-07-19T08:04:25Z</time>
      </trkpt>
      <trkpt lat="45.60994" lon="2.86571">
        <ele>1321.47</ele>
        <time>2014-07-19T08:04:26Z</time>
      </trkpt>
      <trkpt lat="45.60983" lon="2.86596">
        <ele>1318.1</ele>
        <time>2014-07-19T08:04:32Z</time>
      </trkpt>
      <trkpt lat="45.60983" lon="2.86607">
        <ele>1317.14</ele>
        <time>2014-07-19T08:04:34Z</time>
      </trkpt>
      <trkpt lat="45.60983" lon="2.86615">
        <ele>1316.66</ele>
        <time>2014-07-19T08:04:35Z</time>
      </trkpt>
      <trkpt lat="45.60983" lon="2.86622">
        <ele>1316.18</ele>
        <time>2014-07-19T08:04:36Z</time>
      </trkpt>
      <trkpt lat="45.60983" lon="2.8663">
        <ele>1314.74</ele>
        <time>2014-07-19T08:04:37Z</time>
      </trkpt>
      <trkpt lat="45.60983" lon="2.86638">
        <ele>1314.26</ele>
        <time>2014-07-19T08:04:38Z</time>
      </trkpt>
      <trkpt lat="45.60982" lon="2.86646">
        <ele>1313.3</ele>
        <time>2014-07-19T08:04:39Z</time>
      </trkpt>
      <trkpt lat="45.60981" lon="2.86653">
        <ele>1312.82</ele>
        <time>2014-07-19T08:04:40Z</time>
      </trkpt>
      <trkpt lat="45.60981" lon="2.86659">
        <ele>1312.34</ele>
        <time>2014-07-19T08:04:41Z</time>
      </trkpt>
      <trkpt lat="45.60981" lon="2.86666">
        <ele>1311.86</ele>
        <time>2014-07-19T08:04:42Z</time>
      </trkpt>
      <trkpt lat="45.60981" lon="2.86683">
        <ele>1310.41</ele>
        <time>2014-07-19T08:04:44Z</time>
      </trkpt>
      <trkpt lat="45.60984" lon="2.86722">
        <ele>1307.05</ele>
        <time>2014-07-19T08:04:51Z</time>
      </trkpt>
      <trkpt lat="45.60987" lon="2.86737">
        <ele>1306.09</ele>
        <time>2014-07-19T08:04:54Z</time>
      </trkpt>
      <trkpt lat="45.60995" lon="2.86769">
        <ele>1302.72</ele>
        <time>2014-07-19T08:05:00Z</time>
      </trkpt>
      <trkpt lat="45.60998" lon="2.86774">
        <ele>1301.76</ele>
        <time>2014-07-19T08:05:02Z</time>
      </trkpt>
      <trkpt lat="45.61003" lon="2.8681">
        <ele>1298.4</ele>
        <time>2014-07-19T08:05:08Z</time>
      </trkpt>
      <trkpt lat="45.61003" lon="2.86816">
        <ele>1297.92</ele>
        <time>2014-07-19T08:05:09Z</time>
      </trkpt>
      <trkpt lat="45.61005" lon="2.86829">
        <ele>1296.96</ele>
        <time>2014-07-19T08:05:11Z</time>
      </trkpt>
      <trkpt lat="45.61007" lon="2.86843">
        <ele>1295.99</ele>
        <time>2014-07-19T08:05:13Z</time>
      </trkpt>
      <trkpt lat="45.61011" lon="2.86874">
        <ele>1293.11</ele>
        <time>2014-07-19T08:05:20Z</time>
      </trkpt>
      <trkpt lat="45.6101" lon="2.86884">
        <ele>1292.15</ele>
        <time>2014-07-19T08:05:23Z</time>
      </trkpt>
      <trkpt lat="45.6101" lon="2.86886">
        <ele>1291.67</ele>
        <time>2014-07-19T08:05:24Z</time>
      </trkpt>
      <trkpt lat="45.6101" lon="2.86888">
        <ele>1291.19</ele>
        <time>2014-07-19T08:05:25Z</time>
      </trkpt>
      <trkpt lat="45.61009" lon="2.86904">
        <ele>1289.27</ele>
        <time>2014-07-19T08:05:31Z</time>
      </trkpt>
      <trkpt lat="45.60997" lon="2.86924">
        <ele>1285.9</ele>
        <time>2014-07-19T08:05:36Z</time>
      </trkpt>
      <trkpt lat="45.60974" lon="2.8696">
        <ele>1283.02</ele>
        <time>2014-07-19T08:05:46Z</time>
      </trkpt>
      <trkpt lat="45.60968" lon="2.86969">
        <ele>1282.06</ele>
        <time>2014-07-19T08:05:48Z</time>
      </trkpt>
      <trkpt lat="45.60948" lon="2.87017">
        <ele>1278.69</ele>
        <time>2014-07-19T08:05:55Z</time>
      </trkpt>
      <trkpt lat="45.60946" lon="2.87024">
        <ele>1278.69</ele>
        <time>2014-07-19T08:05:56Z</time>
      </trkpt>
      <trkpt lat="45.60943" lon="2.87032">
        <ele>1278.21</ele>
        <time>2014-07-19T08:05:57Z</time>
      </trkpt>
      <trkpt lat="45.60942" lon="2.87039">
        <ele>1277.73</ele>
        <time>2014-07-19T08:05:58Z</time>
      </trkpt>
      <trkpt lat="45.6094" lon="2.87045">
        <ele>1277.73</ele>
        <time>2014-07-19T08:05:59Z</time>
      </trkpt>
      <trkpt lat="45.6094" lon="2.8705">
        <ele>1277.73</ele>
        <time>2014-07-19T08:06:00Z</time>
      </trkpt>
      <trkpt lat="45.6094" lon="2.87054">
        <ele>1277.73</ele>
        <time>2014-07-19T08:06:01Z</time>
      </trkpt>
      <trkpt lat="45.60939" lon="2.87057">
        <ele>1277.73</ele>
        <time>2014-07-19T08:06:02Z</time>
      </trkpt>
      <trkpt lat="45.60938" lon="2.87061">
        <ele>1277.25</ele>
        <time>2014-07-19T08:06:03Z</time>
      </trkpt>
      <trkpt lat="45.60937" lon="2.87066">
        <ele>1277.25</ele>
        <time>2014-07-19T08:06:04Z</time>
      </trkpt>
      <trkpt lat="45.60936" lon="2.87071">
        <ele>1276.77</ele>
        <time>2014-07-19T08:06:05Z</time>
      </trkpt>
      <trkpt lat="45.60934" lon="2.8709">
        <ele>1275.33</ele>
        <time>2014-07-19T08:06:09Z</time>
      </trkpt>
      <trkpt lat="45.60928" lon="2.87123">
        <ele>1273.4</ele>
        <time>2014-07-19T08:06:19Z</time>
      </trkpt>
      <trkpt lat="45.60923" lon="2.87141">
        <ele>1271.96</ele>
        <time>2014-07-19T08:06:22Z</time>
      </trkpt>
      <trkpt lat="45.60923" lon="2.87149">
        <ele>1271.48</ele>
        <time>2014-07-19T08:06:23Z</time>
      </trkpt>
      <trkpt lat="45.60923" lon="2.87165">
        <ele>1270.04</ele>
        <time>2014-07-19T08:06:26Z</time>
      </trkpt>
      <trkpt lat="45.60924" lon="2.87169">
        <ele>1270.04</ele>
        <time>2014-07-19T08:06:27Z</time>
      </trkpt>
      <trkpt lat="45.60926" lon="2.87171">
        <ele>1269.56</ele>
        <time>2014-07-19T08:06:28Z</time>
      </trkpt>
      <trkpt lat="45.60929" lon="2.87173">
        <ele>1269.08</ele>
        <time>2014-07-19T08:06:29Z</time>
      </trkpt>
      <trkpt lat="45.60932" lon="2.87174">
        <ele>1269.08</ele>
        <time>2014-07-19T08:06:30Z</time>
      </trkpt>
      <trkpt lat="45.60936" lon="2.87173">
        <ele>1269.08</ele>
        <time>2014-07-19T08:06:31Z</time>
      </trkpt>
      <trkpt lat="45.6094" lon="2.87171">
        <ele>1269.08</ele>
        <time>2014-07-19T08:06:32Z</time>
      </trkpt>
      <trkpt lat="45.60943" lon="2.87169">
        <ele>1269.08</ele>
        <time>2014-07-19T08:06:33Z</time>
      </trkpt>
      <trkpt lat="45.60978" lon="2.8712">
        <ele>1269.08</ele>
        <time>2014-07-19T08:06:45Z</time>
      </trkpt>
      <trkpt lat="45.60987" lon="2.87106">
        <ele>1269.08</ele>
        <time>2014-07-19T08:06:48Z</time>
      </trkpt>
      <trkpt lat="45.6099" lon="2.87101">
        <ele>1268.6</ele>
        <time>2014-07-19T08:06:49Z</time>
      </trkpt>
      <trkpt lat="45.60994" lon="2.87097">
        <ele>1268.6</ele>
        <time>2014-07-19T08:06:50Z</time>
      </trkpt>
      <trkpt lat="45.60998" lon="2.87094">
        <ele>1268.12</ele>
        <time>2014-07-19T08:06:51Z</time>
      </trkpt>
      <trkpt lat="45.61002" lon="2.87092">
        <ele>1268.12</ele>
        <time>2014-07-19T08:06:52Z</time>
      </trkpt>
      <trkpt lat="45.61006" lon="2.87094">
        <ele>1267.64</ele>
        <time>2014-07-19T08:06:53Z</time>
      </trkpt>
      <trkpt lat="45.6101" lon="2.87099">
        <ele>1267.16</ele>
        <time>2014-07-19T08:06:54Z</time>
      </trkpt>
      <trkpt lat="45.61014" lon="2.87105">
        <ele>1266.19</ele>
        <time>2014-07-19T08:06:55Z</time>
      </trkpt>
      <trkpt lat="45.61018" lon="2.87113">
        <ele>1265.71</ele>
        <time>2014-07-19T08:06:56Z</time>
      </trkpt>
      <trkpt lat="45.61021" lon="2.87121">
        <ele>1265.23</ele>
        <time>2014-07-19T08:06:57Z</time>
      </trkpt>
      <trkpt lat="45.61025" lon="2.87128">
        <ele>1264.75</ele>
        <time>2014-07-19T08:06:58Z</time>
      </trkpt>
      <trkpt lat="45.6103" lon="2.87135">
        <ele>1264.27</ele>
        <time>2014-07-19T08:06:59Z</time>
      </trkpt>
      <trkpt lat="45.61033" lon="2.87143">
        <ele>1263.31</ele>
        <time>2014-07-19T08:07:00Z</time>
      </trkpt>
      <trkpt lat="45.61036" lon="2.8715">
        <ele>1262.83</ele>
        <time>2014-07-19T08:07:01Z</time>
      </trkpt>
      <trkpt lat="45.61039" lon="2.87158">
        <ele>1261.87</ele>
        <time>2014-07-19T08:07:02Z</time>
      </trkpt>
      <trkpt lat="45.61042" lon="2.87164">
        <ele>1261.39</ele>
        <time>2014-07-19T08:07:03Z</time>
      </trkpt>
      <trkpt lat="45.61045" lon="2.8717">
        <ele>1260.91</ele>
        <time>2014-07-19T08:07:04Z</time>
      </trkpt>
      <trkpt lat="45.61047" lon="2.87176">
        <ele>1259.46</ele>
        <time>2014-07-19T08:07:05Z</time>
      </trkpt>
      <trkpt lat="45.61051" lon="2.87183">
        <ele>1258.98</ele>
        <time>2014-07-19T08:07:06Z</time>
      </trkpt>
      <trkpt lat="45.61073" lon="2.87219">
        <ele>1256.1</ele>
        <time>2014-07-19T08:07:11Z</time>
      </trkpt>
      <trkpt lat="45.61083" lon="2.87238">
        <ele>1254.66</ele>
        <time>2014-07-19T08:07:13Z</time>
      </trkpt>
      <trkpt lat="45.61099" lon="2.87267">
        <ele>1253.22</ele>
        <time>2014-07-19T08:07:16Z</time>
      </trkpt>
      <trkpt lat="45.61117" lon="2.87301">
        <ele>1253.22</ele>
        <time>2014-07-19T08:07:20Z</time>
      </trkpt>
      <trkpt lat="45.61124" lon="2.87321">
        <ele>1252.74</ele>
        <time>2014-07-19T08:07:22Z</time>
      </trkpt>
      <trkpt lat="45.61144" lon="2.874">
        <ele>1249.37</ele>
        <time>2014-07-19T08:07:30Z</time>
      </trkpt>
      <trkpt lat="45.61155" lon="2.87444">
        <ele>1246.01</ele>
        <time>2014-07-19T08:07:34Z</time>
      </trkpt>
      <trkpt lat="45.61161" lon="2.87466">
        <ele>1245.04</ele>
        <time>2014-07-19T08:07:36Z</time>
      </trkpt>
      <trkpt lat="45.61164" lon="2.87477">
        <ele>1244.56</ele>
        <time>2014-07-19T08:07:37Z</time>
      </trkpt>
      <trkpt lat="45.61179" lon="2.8753">
        <ele>1241.68</ele>
        <time>2014-07-19T08:07:43Z</time>
      </trkpt>
      <trkpt lat="45.61201" lon="2.87591">
        <ele>1238.8</ele>
        <time>2014-07-19T08:07:50Z</time>
      </trkpt>
      <trkpt lat="45.61205" lon="2.87598">
        <ele>1238.32</ele>
        <time>2014-07-19T08:07:51Z</time>
      </trkpt>
      <trkpt lat="45.61209" lon="2.87605">
        <ele>1237.35</ele>
        <time>2014-07-19T08:07:52Z</time>
      </trkpt>
      <trkpt lat="45.61215" lon="2.87612">
        <ele>1236.87</ele>
        <time>2014-07-19T08:07:53Z</time>
      </trkpt>
      <trkpt lat="45.61234" lon="2.87637">
        <ele>1234.47</ele>
        <time>2014-07-19T08:08:00Z</time>
      </trkpt>
      <trkpt lat="45.6125" lon="2.87657">
        <ele>1231.11</ele>
        <time>2014-07-19T08:08:06Z</time>
      </trkpt>
      <trkpt lat="45.61263" lon="2.87673">
        <ele>1228.7</ele>
        <time>2014-07-19T08:08:10Z</time>
      </trkpt>
      <trkpt lat="45.6129" lon="2.87704">
        <ele>1225.82</ele>
        <time>2014-07-19T08:08:15Z</time>
      </trkpt>
      <trkpt lat="45.61304" lon="2.87718">
        <ele>1224.38</ele>
        <time>2014-07-19T08:08:17Z</time>
      </trkpt>
      <trkpt lat="45.61321" lon="2.87732">
        <ele>1223.42</ele>
        <time>2014-07-19T08:08:20Z</time>
      </trkpt>
      <trkpt lat="45.61335" lon="2.87738">
        <ele>1222.45</ele>
        <time>2014-07-19T08:08:22Z</time>
      </trkpt>
      <trkpt lat="45.61349" lon="2.87741">
        <ele>1221.97</ele>
        <time>2014-07-19T08:08:24Z</time>
      </trkpt>
      <trkpt lat="45.61362" lon="2.87747">
        <ele>1221.01</ele>
        <time>2014-07-19T08:08:26Z</time>
      </trkpt>
      <trkpt lat="45.61368" lon="2.87752">
        <ele>1220.53</ele>
        <time>2014-07-19T08:08:27Z</time>
      </trkpt>
      <trkpt lat="45.61381" lon="2.87759">
        <ele>1219.57</ele>
        <time>2014-07-19T08:08:29Z</time>
      </trkpt>
      <trkpt lat="45.61401" lon="2.87769">
        <ele>1219.57</ele>
        <time>2014-07-19T08:08:32Z</time>
      </trkpt>
      <trkpt lat="45.61408" lon="2.87772">
        <ele>1219.09</ele>
        <time>2014-07-19T08:08:33Z</time>
      </trkpt>
      <trkpt lat="45.61415" lon="2.87776">
        <ele>1219.09</ele>
        <time>2014-07-19T08:08:34Z</time>
      </trkpt>
      <trkpt lat="45.61422" lon="2.87782">
        <ele>1218.61</ele>
        <time>2014-07-19T08:08:35Z</time>
      </trkpt>
      <trkpt lat="45.61428" lon="2.87788">
        <ele>1218.13</ele>
        <time>2014-07-19T08:08:36Z</time>
      </trkpt>
      <trkpt lat="45.61433" lon="2.87795">
        <ele>1217.65</ele>
        <time>2014-07-19T08:08:37Z</time>
      </trkpt>
      <trkpt lat="45.61438" lon="2.87803">
        <ele>1217.65</ele>
        <time>2014-07-19T08:08:38Z</time>
      </trkpt>
      <trkpt lat="45.61443" lon="2.8781">
        <ele>1217.17</ele>
        <time>2014-07-19T08:08:39Z</time>
      </trkpt>
      <trkpt lat="45.61448" lon="2.87818">
        <ele>1217.17</ele>
        <time>2014-07-19T08:08:40Z</time>
      </trkpt>
      <trkpt lat="45.61456" lon="2.87835">
        <ele>1216.21</ele>
        <time>2014-07-19T08:08:42Z</time>
      </trkpt>
      <trkpt lat="45.61465" lon="2.87861">
        <ele>1214.76</ele>
        <time>2014-07-19T08:08:45Z</time>
      </trkpt>
      <trkpt lat="45.61469" lon="2.87869">
        <ele>1214.28</ele>
        <time>2014-07-19T08:08:46Z</time>
      </trkpt>
      <trkpt lat="45.61478" lon="2.87884">
        <ele>1213.32</ele>
        <time>2014-07-19T08:08:48Z</time>
      </trkpt>
      <trkpt lat="45.61481" lon="2.87892">
        <ele>1213.8</ele>
        <time>2014-07-19T08:08:49Z</time>
      </trkpt>
      <trkpt lat="45.61483" lon="2.879">
        <ele>1213.8</ele>
        <time>2014-07-19T08:08:50Z</time>
      </trkpt>
      <trkpt lat="45.61486" lon="2.87914">
        <ele>1214.28</ele>
        <time>2014-07-19T08:08:52Z</time>
      </trkpt>
      <trkpt lat="45.61487" lon="2.87921">
        <ele>1214.28</ele>
        <time>2014-07-19T08:08:53Z</time>
      </trkpt>
      <trkpt lat="45.61488" lon="2.87927">
        <ele>1214.28</ele>
        <time>2014-07-19T08:08:54Z</time>
      </trkpt>
      <trkpt lat="45.61488" lon="2.87934">
        <ele>1214.28</ele>
        <time>2014-07-19T08:08:55Z</time>
      </trkpt>
      <trkpt lat="45.6149" lon="2.87941">
        <ele>1213.8</ele>
        <time>2014-07-19T08:08:56Z</time>
      </trkpt>
      <trkpt lat="45.61491" lon="2.87948">
        <ele>1213.32</ele>
        <time>2014-07-19T08:08:57Z</time>
      </trkpt>
      <trkpt lat="45.61493" lon="2.87956">
        <ele>1212.84</ele>
        <time>2014-07-19T08:08:58Z</time>
      </trkpt>
      <trkpt lat="45.61505" lon="2.88011">
        <ele>1209</ele>
        <time>2014-07-19T08:09:04Z</time>
      </trkpt>
      <trkpt lat="45.61522" lon="2.88052">
        <ele>1206.59</ele>
        <time>2014-07-19T08:09:08Z</time>
      </trkpt>
      <trkpt lat="45.61543" lon="2.88094">
        <ele>1203.23</ele>
        <time>2014-07-19T08:09:13Z</time>
      </trkpt>
      <trkpt lat="45.6155" lon="2.88109">
        <ele>1202.27</ele>
        <time>2014-07-19T08:09:15Z</time>
      </trkpt>
      <trkpt lat="45.61559" lon="2.88125">
        <ele>1200.82</ele>
        <time>2014-07-19T08:09:17Z</time>
      </trkpt>
      <trkpt lat="45.61571" lon="2.8814">
        <ele>1199.86</ele>
        <time>2014-07-19T08:09:19Z</time>
      </trkpt>
      <trkpt lat="45.61594" lon="2.8817">
        <ele>1197.46</ele>
        <time>2014-07-19T08:09:23Z</time>
      </trkpt>
      <trkpt lat="45.61599" lon="2.88179">
        <ele>1196.5</ele>
        <time>2014-07-19T08:09:24Z</time>
      </trkpt>
      <trkpt lat="45.61614" lon="2.88216">
        <ele>1192.65</ele>
        <time>2014-07-19T08:09:28Z</time>
      </trkpt>
      <trkpt lat="45.61619" lon="2.88229">
        <ele>1191.21</ele>
        <time>2014-07-19T08:09:30Z</time>
      </trkpt>
      <trkpt lat="45.61623" lon="2.88234">
        <ele>1190.73</ele>
        <time>2014-07-19T08:09:31Z</time>
      </trkpt>
      <trkpt lat="45.61626" lon="2.88239">
        <ele>1190.25</ele>
        <time>2014-07-19T08:09:32Z</time>
      </trkpt>
      <trkpt lat="45.61636" lon="2.88256">
        <ele>1187.37</ele>
        <time>2014-07-19T08:09:35Z</time>
      </trkpt>
      <trkpt lat="45.61644" lon="2.88268">
        <ele>1186.4</ele>
        <time>2014-07-19T08:09:37Z</time>
      </trkpt>
      <trkpt lat="45.61655" lon="2.88285">
        <ele>1183.04</ele>
        <time>2014-07-19T08:09:40Z</time>
      </trkpt>
      <trkpt lat="45.61659" lon="2.88291">
        <ele>1182.08</ele>
        <time>2014-07-19T08:09:41Z</time>
      </trkpt>
      <trkpt lat="45.61664" lon="2.88298">
        <ele>1180.64</ele>
        <time>2014-07-19T08:09:42Z</time>
      </trkpt>
      <trkpt lat="45.61669" lon="2.88306">
        <ele>1179.67</ele>
        <time>2014-07-19T08:09:43Z</time>
      </trkpt>
      <trkpt lat="45.61673" lon="2.88314">
        <ele>1178.71</ele>
        <time>2014-07-19T08:09:44Z</time>
      </trkpt>
      <trkpt lat="45.61678" lon="2.88322">
        <ele>1177.27</ele>
        <time>2014-07-19T08:09:45Z</time>
      </trkpt>
      <trkpt lat="45.61682" lon="2.8833">
        <ele>1176.31</ele>
        <time>2014-07-19T08:09:46Z</time>
      </trkpt>
      <trkpt lat="45.6169" lon="2.88353">
        <ele>1173.43</ele>
        <time>2014-07-19T08:09:49Z</time>
      </trkpt>
      <trkpt lat="45.61694" lon="2.88358">
        <ele>1172.47</ele>
        <time>2014-07-19T08:09:50Z</time>
      </trkpt>
      <trkpt lat="45.61703" lon="2.88367">
        <ele>1171.5</ele>
        <time>2014-07-19T08:09:52Z</time>
      </trkpt>
      <trkpt lat="45.61718" lon="2.88382">
        <ele>1170.06</ele>
        <time>2014-07-19T08:09:54Z</time>
      </trkpt>
      <trkpt lat="45.61744" lon="2.88413">
        <ele>1168.14</ele>
        <time>2014-07-19T08:09:58Z</time>
      </trkpt>
      <trkpt lat="45.61776" lon="2.8845">
        <ele>1165.26</ele>
        <time>2014-07-19T08:10:03Z</time>
      </trkpt>
      <trkpt lat="45.61788" lon="2.88467">
        <ele>1164.29</ele>
        <time>2014-07-19T08:10:05Z</time>
      </trkpt>
      <trkpt lat="45.61799" lon="2.88484">
        <ele>1162.85</ele>
        <time>2014-07-19T08:10:07Z</time>
      </trkpt>
      <trkpt lat="45.61805" lon="2.88491">
        <ele>1162.37</ele>
        <time>2014-07-19T08:10:08Z</time>
      </trkpt>
      <trkpt lat="45.61837" lon="2.88536">
        <ele>1159.49</ele>
        <time>2014-07-19T08:10:13Z</time>
      </trkpt>
      <trkpt lat="45.61849" lon="2.88554">
        <ele>1158.53</ele>
        <time>2014-07-19T08:10:15Z</time>
      </trkpt>
      <trkpt lat="45.61881" lon="2.88586">
        <ele>1156.6</ele>
        <time>2014-07-19T08:10:21Z</time>
      </trkpt>
      <trkpt lat="45.61886" lon="2.88592">
        <ele>1155.64</ele>
        <time>2014-07-19T08:10:22Z</time>
      </trkpt>
      <trkpt lat="45.6189" lon="2.88598">
        <ele>1155.16</ele>
        <time>2014-07-19T08:10:23Z</time>
      </trkpt>
      <trkpt lat="45.61893" lon="2.88604">
        <ele>1155.16</ele>
        <time>2014-07-19T08:10:24Z</time>
      </trkpt>
      <trkpt lat="45.61897" lon="2.8861">
        <ele>1155.16</ele>
        <time>2014-07-19T08:10:25Z</time>
      </trkpt>
      <trkpt lat="45.61905" lon="2.88622">
        <ele>1152.76</ele>
        <time>2014-07-19T08:10:27Z</time>
      </trkpt>
      <trkpt lat="45.61911" lon="2.88626">
        <ele>1152.28</ele>
        <time>2014-07-19T08:10:28Z</time>
      </trkpt>
      <trkpt lat="45.61929" lon="2.88635">
        <ele>1148.91</ele>
        <time>2014-07-19T08:10:31Z</time>
      </trkpt>
      <trkpt lat="45.61951" lon="2.88647">
        <ele>1145.07</ele>
        <time>2014-07-19T08:10:34Z</time>
      </trkpt>
      <trkpt lat="45.61977" lon="2.88665">
        <ele>1141.22</ele>
        <time>2014-07-19T08:10:37Z</time>
      </trkpt>
      <trkpt lat="45.62007" lon="2.88685">
        <ele>1139.3</ele>
        <time>2014-07-19T08:10:40Z</time>
      </trkpt>
      <trkpt lat="45.62043" lon="2.88707">
        <ele>1138.82</ele>
        <time>2014-07-19T08:10:44Z</time>
      </trkpt>
      <trkpt lat="45.62051" lon="2.88715">
        <ele>1138.82</ele>
        <time>2014-07-19T08:10:45Z</time>
      </trkpt>
      <trkpt lat="45.62059" lon="2.88724">
        <ele>1138.82</ele>
        <time>2014-07-19T08:10:46Z</time>
      </trkpt>
      <trkpt lat="45.62065" lon="2.88734">
        <ele>1138.34</ele>
        <time>2014-07-19T08:10:47Z</time>
      </trkpt>
      <trkpt lat="45.62071" lon="2.88744">
        <ele>1138.34</ele>
        <time>2014-07-19T08:10:48Z</time>
      </trkpt>
      <trkpt lat="45.62091" lon="2.88779">
        <ele>1137.86</ele>
        <time>2014-07-19T08:10:52Z</time>
      </trkpt>
      <trkpt lat="45.62123" lon="2.88819">
        <ele>1134.97</ele>
        <time>2014-07-19T08:10:57Z</time>
      </trkpt>
      <trkpt lat="45.62154" lon="2.88861">
        <ele>1131.13</ele>
        <time>2014-07-19T08:11:02Z</time>
      </trkpt>
      <trkpt lat="45.62158" lon="2.8887">
        <ele>1131.13</ele>
        <time>2014-07-19T08:11:03Z</time>
      </trkpt>
      <trkpt lat="45.62169" lon="2.88884">
        <ele>1130.17</ele>
        <time>2014-07-19T08:11:05Z</time>
      </trkpt>
      <trkpt lat="45.62175" lon="2.88891">
        <ele>1129.69</ele>
        <time>2014-07-19T08:11:06Z</time>
      </trkpt>
      <trkpt lat="45.62181" lon="2.88896">
        <ele>1129.21</ele>
        <time>2014-07-19T08:11:07Z</time>
      </trkpt>
      <trkpt lat="45.62188" lon="2.88899">
        <ele>1128.73</ele>
        <time>2014-07-19T08:11:08Z</time>
      </trkpt>
      <trkpt lat="45.62196" lon="2.88903">
        <ele>1128.24</ele>
        <time>2014-07-19T08:11:09Z</time>
      </trkpt>
      <trkpt lat="45.62241" lon="2.88923">
        <ele>1126.8</ele>
        <time>2014-07-19T08:11:15Z</time>
      </trkpt>
      <trkpt lat="45.62247" lon="2.88929">
        <ele>1126.8</ele>
        <time>2014-07-19T08:11:16Z</time>
      </trkpt>
      <trkpt lat="45.62309" lon="2.89017">
        <ele>1124.4</ele>
        <time>2014-07-19T08:11:28Z</time>
      </trkpt>
      <trkpt lat="45.6235" lon="2.8909">
        <ele>1125.36</ele>
        <time>2014-07-19T08:11:39Z</time>
      </trkpt>
      <trkpt lat="45.6236" lon="2.89107">
        <ele>1125.36</ele>
        <time>2014-07-19T08:11:43Z</time>
      </trkpt>
      <trkpt lat="45.62362" lon="2.8911">
        <ele>1125.84</ele>
        <time>2014-07-19T08:11:44Z</time>
      </trkpt>
      <trkpt lat="45.62364" lon="2.89113">
        <ele>1125.84</ele>
        <time>2014-07-19T08:11:45Z</time>
      </trkpt>
      <trkpt lat="45.6239" lon="2.89157">
        <ele>1126.8</ele>
        <time>2014-07-19T08:11:59Z</time>
      </trkpt>
      <trkpt lat="45.62408" lon="2.89194">
        <ele>1128.24</ele>
        <time>2014-07-19T08:12:10Z</time>
      </trkpt>
      <trkpt lat="45.62423" lon="2.89232">
        <ele>1128.73</ele>
        <time>2014-07-19T08:12:20Z</time>
      </trkpt>
      <trkpt lat="45.62441" lon="2.89272">
        <ele>1130.17</ele>
        <time>2014-07-19T08:12:31Z</time>
      </trkpt>
      <trkpt lat="45.62444" lon="2.89279">
        <ele>1130.65</ele>
        <time>2014-07-19T08:12:33Z</time>
      </trkpt>
      <trkpt lat="45.62444" lon="2.89283">
        <ele>1130.65</ele>
        <time>2014-07-19T08:12:34Z</time>
      </trkpt>
      <trkpt lat="45.62445" lon="2.89287">
        <ele>1130.65</ele>
        <time>2014-07-19T08:12:35Z</time>
      </trkpt>
      <trkpt lat="45.62445" lon="2.89291">
        <ele>1131.13</ele>
        <time>2014-07-19T08:12:36Z</time>
      </trkpt>
      <trkpt lat="45.62446" lon="2.89295">
        <ele>1131.13</ele>
        <time>2014-07-19T08:12:37Z</time>
      </trkpt>
      <trkpt lat="45.62447" lon="2.89298">
        <ele>1131.13</ele>
        <time>2014-07-19T08:12:38Z</time>
      </trkpt>
      <trkpt lat="45.62447" lon="2.89302">
        <ele>1131.61</ele>
        <time>2014-07-19T08:12:39Z</time>
      </trkpt>
      <trkpt lat="45.62447" lon="2.89305">
        <ele>1131.61</ele>
        <time>2014-07-19T08:12:40Z</time>
      </trkpt>
      <trkpt lat="45.62449" lon="2.89312">
        <ele>1132.09</ele>
        <time>2014-07-19T08:12:42Z</time>
      </trkpt>
      <trkpt lat="45.62453" lon="2.89319">
        <ele>1132.57</ele>
        <time>2014-07-19T08:12:45Z</time>
      </trkpt>
      <trkpt lat="45.62453" lon="2.89322">
        <ele>1132.57</ele>
        <time>2014-07-19T08:12:46Z</time>
      </trkpt>
      <trkpt lat="45.62455" lon="2.89331">
        <ele>1132.57</ele>
        <time>2014-07-19T08:12:49Z</time>
      </trkpt>
      <trkpt lat="45.62456" lon="2.89335">
        <ele>1133.05</ele>
        <time>2014-07-19T08:12:50Z</time>
      </trkpt>
      <trkpt lat="45.62457" lon="2.89338">
        <ele>1133.05</ele>
        <time>2014-07-19T08:12:51Z</time>
      </trkpt>
      <trkpt lat="45.62458" lon="2.89342">
        <ele>1133.05</ele>
        <time>2014-07-19T08:12:52Z</time>
      </trkpt>
      <trkpt lat="45.62459" lon="2.89345">
        <ele>1133.05</ele>
        <time>2014-07-19T08:12:53Z</time>
      </trkpt>
      <trkpt lat="45.6246" lon="2.89349">
        <ele>1133.05</ele>
        <time>2014-07-19T08:12:54Z</time>
      </trkpt>
      <trkpt lat="45.62461" lon="2.89353">
        <ele>1133.53</ele>
        <time>2014-07-19T08:12:55Z</time>
      </trkpt>
      <trkpt lat="45.62466" lon="2.89375">
        <ele>1134.97</ele>
        <time>2014-07-19T08:13:06Z</time>
      </trkpt>
      <trkpt lat="45.62467" lon="2.89383">
        <ele>1135.45</ele>
        <time>2014-07-19T08:13:10Z</time>
      </trkpt>
      <trkpt lat="45.62467" lon="2.89385">
        <ele>1135.45</ele>
        <time>2014-07-19T08:13:11Z</time>
      </trkpt>
      <trkpt lat="45.62467" lon="2.89387">
        <ele>1135.45</ele>
        <time>2014-07-19T08:13:12Z</time>
      </trkpt>
      <trkpt lat="45.62467" lon="2.8939">
        <ele>1135.45</ele>
        <time>2014-07-19T08:13:13Z</time>
      </trkpt>
      <trkpt lat="45.62467" lon="2.89392">
        <ele>1135.94</ele>
        <time>2014-07-19T08:13:14Z</time>
      </trkpt>
      <trkpt lat="45.62466" lon="2.89419">
        <ele>1136.9</ele>
        <time>2014-07-19T08:13:25Z</time>
      </trkpt>
      <trkpt lat="45.62467" lon="2.89471">
        <ele>1138.34</ele>
        <time>2014-07-19T08:13:39Z</time>
      </trkpt>
      <trkpt lat="45.62481" lon="2.89514">
        <ele>1138.82</ele>
        <time>2014-07-19T08:13:55Z</time>
      </trkpt>
      <trkpt lat="45.62492" lon="2.89538">
        <ele>1139.3</ele>
        <time>2014-07-19T08:14:05Z</time>
      </trkpt>
      <trkpt lat="45.62493" lon="2.8954">
        <ele>1139.3</ele>
        <time>2014-07-19T08:14:06Z</time>
      </trkpt>
      <trkpt lat="45.62495" lon="2.89542">
        <ele>1139.3</ele>
        <time>2014-07-19T08:14:07Z</time>
      </trkpt>
      <trkpt lat="45.62496" lon="2.89545">
        <ele>1139.78</ele>
        <time>2014-07-19T08:14:08Z</time>
      </trkpt>
      <trkpt lat="45.62497" lon="2.89548">
        <ele>1139.78</ele>
        <time>2014-07-19T08:14:09Z</time>
      </trkpt>
      <trkpt lat="45.62498" lon="2.8955">
        <ele>1139.78</ele>
        <time>2014-07-19T08:14:10Z</time>
      </trkpt>
      <trkpt lat="45.62499" lon="2.89553">
        <ele>1139.78</ele>
        <time>2014-07-19T08:14:11Z</time>
      </trkpt>
      <trkpt lat="45.625" lon="2.89555">
        <ele>1140.26</ele>
        <time>2014-07-19T08:14:12Z</time>
      </trkpt>
      <trkpt lat="45.62515" lon="2.89589">
        <ele>1141.22</ele>
        <time>2014-07-19T08:14:25Z</time>
      </trkpt>
      <trkpt lat="45.62531" lon="2.89627">
        <ele>1141.7</ele>
        <time>2014-07-19T08:14:39Z</time>
      </trkpt>
      <trkpt lat="45.62544" lon="2.89666">
        <ele>1142.18</ele>
        <time>2014-07-19T08:14:52Z</time>
      </trkpt>
      <trkpt lat="45.6256" lon="2.89719">
        <ele>1142.18</ele>
        <time>2014-07-19T08:15:06Z</time>
      </trkpt>
      <trkpt lat="45.6258" lon="2.89764">
        <ele>1142.66</ele>
        <time>2014-07-19T08:15:18Z</time>
      </trkpt>
      <trkpt lat="45.62599" lon="2.89816">
        <ele>1143.14</ele>
        <time>2014-07-19T08:15:32Z</time>
      </trkpt>
      <trkpt lat="45.62622" lon="2.8986">
        <ele>1144.11</ele>
        <time>2014-07-19T08:15:46Z</time>
      </trkpt>
      <trkpt lat="45.62636" lon="2.89899">
        <ele>1145.55</ele>
        <time>2014-07-19T08:16:00Z</time>
      </trkpt>
      <trkpt lat="45.62633" lon="2.89948">
        <ele>1146.51</ele>
        <time>2014-07-19T08:16:13Z</time>
      </trkpt>
      <trkpt lat="45.62632" lon="2.89988">
        <ele>1147.47</ele>
        <time>2014-07-19T08:16:24Z</time>
      </trkpt>
      <trkpt lat="45.62628" lon="2.90021">
        <ele>1146.99</ele>
        <time>2014-07-19T08:16:34Z</time>
      </trkpt>
      <trkpt lat="45.62628" lon="2.90024">
        <ele>1146.99</ele>
        <time>2014-07-19T08:16:35Z</time>
      </trkpt>
      <trkpt lat="45.62628" lon="2.90027">
        <ele>1147.47</ele>
        <time>2014-07-19T08:16:36Z</time>
      </trkpt>
      <trkpt lat="45.62627" lon="2.9003">
        <ele>1147.47</ele>
        <time>2014-07-19T08:16:37Z</time>
      </trkpt>
      <trkpt lat="45.62628" lon="2.90033">
        <ele>1147.47</ele>
        <time>2014-07-19T08:16:38Z</time>
      </trkpt>
      <trkpt lat="45.62628" lon="2.90035">
        <ele>1147.47</ele>
        <time>2014-07-19T08:16:39Z</time>
      </trkpt>
      <trkpt lat="45.62628" lon="2.90038">
        <ele>1146.99</ele>
        <time>2014-07-19T08:16:40Z</time>
      </trkpt>
      <trkpt lat="45.62628" lon="2.90042">
        <ele>1146.99</ele>
        <time>2014-07-19T08:16:41Z</time>
      </trkpt>
      <trkpt lat="45.62627" lon="2.90046">
        <ele>1146.99</ele>
        <time>2014-07-19T08:16:42Z</time>
      </trkpt>
      <trkpt lat="45.62628" lon="2.90069">
        <ele>1146.99</ele>
        <time>2014-07-19T08:16:52Z</time>
      </trkpt>
      <trkpt lat="45.62626" lon="2.90069">
        <ele>1146.99</ele>
        <time>2014-07-19T08:17:14Z</time>
      </trkpt>
      <trkpt lat="45.62626" lon="2.90071">
        <ele>1146.99</ele>
        <time>2014-07-19T08:17:48Z</time>
      </trkpt>
      <trkpt lat="45.62626" lon="2.90071">
        <ele>1146.99</ele>
        <time>2014-07-19T08:18:18Z</time>
      </trkpt>
      <trkpt lat="45.62626" lon="2.90072">
        <ele>1147.47</ele>
        <time>2014-07-19T08:18:57Z</time>
      </trkpt>
      <trkpt lat="45.62627" lon="2.90073">
        <ele>1146.99</ele>
        <time>2014-07-19T08:19:38Z</time>
      </trkpt>
      <trkpt lat="45.62626" lon="2.90073">
        <ele>1146.03</ele>
        <time>2014-07-19T08:20:11Z</time>
      </trkpt>
      <trkpt lat="45.62625" lon="2.90073">
        <ele>1146.03</ele>
        <time>2014-07-19T08:20:41Z</time>
      </trkpt>
      <trkpt lat="45.62627" lon="2.90076">
        <ele>1145.55</ele>
        <time>2014-07-19T08:20:57Z</time>
      </trkpt>
      <trkpt lat="45.62633" lon="2.9012">
        <ele>1144.59</ele>
        <time>2014-07-19T08:21:10Z</time>
      </trkpt>
      <trkpt lat="45.62642" lon="2.90195">
        <ele>1143.14</ele>
        <time>2014-07-19T08:21:24Z</time>
      </trkpt>
      <trkpt lat="45.62651" lon="2.9026">
        <ele>1143.14</ele>
        <time>2014-07-19T08:21:37Z</time>
      </trkpt>
      <trkpt lat="45.62655" lon="2.90291">
        <ele>1142.66</ele>
        <time>2014-07-19T08:21:43Z</time>
      </trkpt>
      <trkpt lat="45.62657" lon="2.90303">
        <ele>1142.66</ele>
        <time>2014-07-19T08:21:45Z</time>
      </trkpt>
      <trkpt lat="45.62659" lon="2.90315">
        <ele>1142.18</ele>
        <time>2014-07-19T08:21:47Z</time>
      </trkpt>
      <trkpt lat="45.62664" lon="2.90349">
        <ele>1140.74</ele>
        <time>2014-07-19T08:21:52Z</time>
      </trkpt>
      <trkpt lat="45.6269" lon="2.90473">
        <ele>1137.86</ele>
        <time>2014-07-19T08:22:08Z</time>
      </trkpt>
      <trkpt lat="45.62712" lon="2.90579">
        <ele>1136.42</ele>
        <time>2014-07-19T08:22:24Z</time>
      </trkpt>
      <trkpt lat="45.62714" lon="2.90585">
        <ele>1135.94</ele>
        <time>2014-07-19T08:22:25Z</time>
      </trkpt>
      <trkpt lat="45.62716" lon="2.90591">
        <ele>1135.94</ele>
        <time>2014-07-19T08:22:26Z</time>
      </trkpt>
      <trkpt lat="45.62721" lon="2.90617">
        <ele>1135.45</ele>
        <time>2014-07-19T08:22:30Z</time>
      </trkpt>
      <trkpt lat="45.6273" lon="2.90652">
        <ele>1134.97</ele>
        <time>2014-07-19T08:22:35Z</time>
      </trkpt>
      <trkpt lat="45.62757" lon="2.90714">
        <ele>1134.01</ele>
        <time>2014-07-19T08:22:45Z</time>
      </trkpt>
      <trkpt lat="45.62761" lon="2.90727">
        <ele>1134.49</ele>
        <time>2014-07-19T08:22:47Z</time>
      </trkpt>
      <trkpt lat="45.62781" lon="2.90847">
        <ele>1133.05</ele>
        <time>2014-07-19T08:23:03Z</time>
      </trkpt>
      <trkpt lat="45.62805" lon="2.90989">
        <ele>1129.69</ele>
        <time>2014-07-19T08:23:20Z</time>
      </trkpt>
      <trkpt lat="45.62813" lon="2.91036">
        <ele>1128.24</ele>
        <time>2014-07-19T08:23:25Z</time>
      </trkpt>
      <trkpt lat="45.62833" lon="2.91154">
        <ele>1124.88</ele>
        <time>2014-07-19T08:23:37Z</time>
      </trkpt>
      <trkpt lat="45.62843" lon="2.91214">
        <ele>1123.44</ele>
        <time>2014-07-19T08:23:43Z</time>
      </trkpt>
      <trkpt lat="45.62875" lon="2.91381">
        <ele>1120.55</ele>
        <time>2014-07-19T08:24:00Z</time>
      </trkpt>
      <trkpt lat="45.62906" lon="2.91525">
        <ele>1117.19</ele>
        <time>2014-07-19T08:24:15Z</time>
      </trkpt>
      <trkpt lat="45.62947" lon="2.91624">
        <ele>1113.82</ele>
        <time>2014-07-19T08:24:26Z</time>
      </trkpt>
      <trkpt lat="45.62981" lon="2.91688">
        <ele>1110.46</ele>
        <time>2014-07-19T08:24:33Z</time>
      </trkpt>
      <trkpt lat="45.62992" lon="2.91723">
        <ele>1109.02</ele>
        <time>2014-07-19T08:24:36Z</time>
      </trkpt>
      <trkpt lat="45.62998" lon="2.91746">
        <ele>1108.06</ele>
        <time>2014-07-19T08:24:38Z</time>
      </trkpt>
      <trkpt lat="45.63026" lon="2.91886">
        <ele>1106.13</ele>
        <time>2014-07-19T08:24:51Z</time>
      </trkpt>
      <trkpt lat="45.63061" lon="2.92015">
        <ele>1102.77</ele>
        <time>2014-07-19T08:25:04Z</time>
      </trkpt>
      <trkpt lat="45.63081" lon="2.92088">
        <ele>1099.89</ele>
        <time>2014-07-19T08:25:11Z</time>
      </trkpt>
      <trkpt lat="45.63103" lon="2.92167">
        <ele>1097.48</ele>
        <time>2014-07-19T08:25:18Z</time>
      </trkpt>
      <trkpt lat="45.63118" lon="2.92266">
        <ele>1093.64</ele>
        <time>2014-07-19T08:25:26Z</time>
      </trkpt>
      <trkpt lat="45.63121" lon="2.92279">
        <ele>1093.16</ele>
        <time>2014-07-19T08:25:27Z</time>
      </trkpt>
      <trkpt lat="45.63123" lon="2.9229">
        <ele>1093.16</ele>
        <time>2014-07-19T08:25:28Z</time>
      </trkpt>
      <trkpt lat="45.6313" lon="2.92313">
        <ele>1091.23</ele>
        <time>2014-07-19T08:25:30Z</time>
      </trkpt>
      <trkpt lat="45.63134" lon="2.92324">
        <ele>1090.75</ele>
        <time>2014-07-19T08:25:31Z</time>
      </trkpt>
      <trkpt lat="45.63161" lon="2.92378">
        <ele>1087.39</ele>
        <time>2014-07-19T08:25:36Z</time>
      </trkpt>
      <trkpt lat="45.63189" lon="2.92418">
        <ele>1084.5</ele>
        <time>2014-07-19T08:25:41Z</time>
      </trkpt>
      <trkpt lat="45.63213" lon="2.92455">
        <ele>1081.14</ele>
        <time>2014-07-19T08:25:46Z</time>
      </trkpt>
      <trkpt lat="45.63254" lon="2.92502">
        <ele>1077.78</ele>
        <time>2014-07-19T08:25:53Z</time>
      </trkpt>
      <trkpt lat="45.63366" lon="2.92599">
        <ele>1075.85</ele>
        <time>2014-07-19T08:26:11Z</time>
      </trkpt>
      <trkpt lat="45.63465" lon="2.92665">
        <ele>1073.93</ele>
        <time>2014-07-19T08:26:28Z</time>
      </trkpt>
      <trkpt lat="45.63519" lon="2.92706">
        <ele>1072.97</ele>
        <time>2014-07-19T08:26:38Z</time>
      </trkpt>
      <trkpt lat="45.63528" lon="2.92715">
        <ele>1072.97</ele>
        <time>2014-07-19T08:26:40Z</time>
      </trkpt>
      <trkpt lat="45.63533" lon="2.92718">
        <ele>1072.97</ele>
        <time>2014-07-19T08:26:41Z</time>
      </trkpt>
      <trkpt lat="45.63543" lon="2.92724">
        <ele>1073.45</ele>
        <time>2014-07-19T08:26:43Z</time>
      </trkpt>
      <trkpt lat="45.63575" lon="2.92744">
        <ele>1075.85</ele>
        <time>2014-07-19T08:26:54Z</time>
      </trkpt>
      <trkpt lat="45.63601" lon="2.92764">
        <ele>1077.78</ele>
        <time>2014-07-19T08:27:07Z</time>
      </trkpt>
      <trkpt lat="45.63628" lon="2.92804">
        <ele>1076.33</ele>
        <time>2014-07-19T08:27:20Z</time>
      </trkpt>
      <trkpt lat="45.63671" lon="2.92877">
        <ele>1072.97</ele>
        <time>2014-07-19T08:27:34Z</time>
      </trkpt>
      <trkpt lat="45.63702" lon="2.92967">
        <ele>1070.08</ele>
        <time>2014-07-19T08:27:45Z</time>
      </trkpt>
      <trkpt lat="45.63709" lon="2.9299">
        <ele>1069.6</ele>
        <time>2014-07-19T08:27:48Z</time>
      </trkpt>
      <trkpt lat="45.63734" lon="2.93038">
        <ele>1068.64</ele>
        <time>2014-07-19T08:27:55Z</time>
      </trkpt>
      <trkpt lat="45.63766" lon="2.93117">
        <ele>1067.2</ele>
        <time>2014-07-19T08:28:06Z</time>
      </trkpt>
      <trkpt lat="45.63805" lon="2.93194">
        <ele>1063.84</ele>
        <time>2014-07-19T08:28:16Z</time>
      </trkpt>
      <trkpt lat="45.63831" lon="2.9325">
        <ele>1060.47</ele>
        <time>2014-07-19T08:28:22Z</time>
      </trkpt>
      <trkpt lat="45.63836" lon="2.93259">
        <ele>1060.47</ele>
        <time>2014-07-19T08:28:23Z</time>
      </trkpt>
      <trkpt lat="45.63866" lon="2.93317">
        <ele>1057.11</ele>
        <time>2014-07-19T08:28:29Z</time>
      </trkpt>
      <trkpt lat="45.63882" lon="2.93372">
        <ele>1054.22</ele>
        <time>2014-07-19T08:28:34Z</time>
      </trkpt>
      <trkpt lat="45.63898" lon="2.93435">
        <ele>1050.86</ele>
        <time>2014-07-19T08:28:39Z</time>
      </trkpt>
      <trkpt lat="45.63934" lon="2.93574">
        <ele>1048.45</ele>
        <time>2014-07-19T08:28:51Z</time>
      </trkpt>
      <trkpt lat="45.63962" lon="2.93684">
        <ele>1048.94</ele>
        <time>2014-07-19T08:29:04Z</time>
      </trkpt>
      <trkpt lat="45.63981" lon="2.93758">
        <ele>1050.38</ele>
        <time>2014-07-19T08:29:15Z</time>
      </trkpt>
      <trkpt lat="45.63989" lon="2.93786">
        <ele>1049.9</ele>
        <time>2014-07-19T08:29:20Z</time>
      </trkpt>
      <trkpt lat="45.63992" lon="2.93806">
        <ele>1048.94</ele>
        <time>2014-07-19T08:29:23Z</time>
      </trkpt>
      <trkpt lat="45.63993" lon="2.93812">
        <ele>1048.94</ele>
        <time>2014-07-19T08:29:24Z</time>
      </trkpt>
      <trkpt lat="45.63995" lon="2.9382">
        <ele>1048.45</ele>
        <time>2014-07-19T08:29:25Z</time>
      </trkpt>
      <trkpt lat="45.63996" lon="2.93827">
        <ele>1048.45</ele>
        <time>2014-07-19T08:29:26Z</time>
      </trkpt>
      <trkpt lat="45.63998" lon="2.93835">
        <ele>1047.97</ele>
        <time>2014-07-19T08:29:27Z</time>
      </trkpt>
      <trkpt lat="45.6402" lon="2.93918">
        <ele>1045.09</ele>
        <time>2014-07-19T08:29:36Z</time>
      </trkpt>
      <trkpt lat="45.64022" lon="2.93939">
        <ele>1044.13</ele>
        <time>2014-07-19T08:29:38Z</time>
      </trkpt>
      <trkpt lat="45.64022" lon="2.93949">
        <ele>1043.65</ele>
        <time>2014-07-19T08:29:39Z</time>
      </trkpt>
      <trkpt lat="45.64024" lon="2.94005">
        <ele>1040.28</ele>
        <time>2014-07-19T08:29:44Z</time>
      </trkpt>
      <trkpt lat="45.64026" lon="2.94065">
        <ele>1038.36</ele>
        <time>2014-07-19T08:29:49Z</time>
      </trkpt>
      <trkpt lat="45.64038" lon="2.94199">
        <ele>1037.4</ele>
        <time>2014-07-19T08:30:01Z</time>
      </trkpt>
      <trkpt lat="45.64044" lon="2.94257">
        <ele>1037.88</ele>
        <time>2014-07-19T08:30:10Z</time>
      </trkpt>
      <trkpt lat="45.64039" lon="2.94306">
        <ele>1038.36</ele>
        <time>2014-07-19T08:30:21Z</time>
      </trkpt>
      <trkpt lat="45.64024" lon="2.94356">
        <ele>1041.73</ele>
        <time>2014-07-19T08:30:35Z</time>
      </trkpt>
      <trkpt lat="45.64025" lon="2.94371">
        <ele>1042.21</ele>
        <time>2014-07-19T08:30:39Z</time>
      </trkpt>
      <trkpt lat="45.64027" lon="2.94374">
        <ele>1042.69</ele>
        <time>2014-07-19T08:30:40Z</time>
      </trkpt>
      <trkpt lat="45.64028" lon="2.94376">
        <ele>1042.69</ele>
        <time>2014-07-19T08:30:41Z</time>
      </trkpt>
      <trkpt lat="45.6403" lon="2.94378">
        <ele>1042.69</ele>
        <time>2014-07-19T08:30:42Z</time>
      </trkpt>
      <trkpt lat="45.64032" lon="2.9438">
        <ele>1042.69</ele>
        <time>2014-07-19T08:30:43Z</time>
      </trkpt>
      <trkpt lat="45.64035" lon="2.94381">
        <ele>1042.69</ele>
        <time>2014-07-19T08:30:44Z</time>
      </trkpt>
      <trkpt lat="45.64037" lon="2.94382">
        <ele>1043.17</ele>
        <time>2014-07-19T08:30:45Z</time>
      </trkpt>
      <trkpt lat="45.64083" lon="2.94394">
        <ele>1042.21</ele>
        <time>2014-07-19T08:30:58Z</time>
      </trkpt>
      <trkpt lat="45.64111" lon="2.94402">
        <ele>1040.76</ele>
        <time>2014-07-19T08:31:04Z</time>
      </trkpt>
      <trkpt lat="45.64116" lon="2.94405">
        <ele>1040.28</ele>
        <time>2014-07-19T08:31:05Z</time>
      </trkpt>
      <trkpt lat="45.6412" lon="2.94409">
        <ele>1040.28</ele>
        <time>2014-07-19T08:31:06Z</time>
      </trkpt>
      <trkpt lat="45.64171" lon="2.94489">
        <ele>1039.8</ele>
        <time>2014-07-19T08:31:21Z</time>
      </trkpt>
      <trkpt lat="45.64179" lon="2.94504">
        <ele>1039.32</ele>
        <time>2014-07-19T08:31:24Z</time>
      </trkpt>
      <trkpt lat="45.64185" lon="2.94514">
        <ele>1039.32</ele>
        <time>2014-07-19T08:31:26Z</time>
      </trkpt>
      <trkpt lat="45.64188" lon="2.9452">
        <ele>1038.84</ele>
        <time>2014-07-19T08:31:27Z</time>
      </trkpt>
      <trkpt lat="45.64192" lon="2.94527">
        <ele>1038.84</ele>
        <time>2014-07-19T08:31:28Z</time>
      </trkpt>
      <trkpt lat="45.64195" lon="2.94533">
        <ele>1038.84</ele>
        <time>2014-07-19T08:31:29Z</time>
      </trkpt>
      <trkpt lat="45.64198" lon="2.94539">
        <ele>1038.36</ele>
        <time>2014-07-19T08:31:30Z</time>
      </trkpt>
      <trkpt lat="45.64202" lon="2.94546">
        <ele>1038.36</ele>
        <time>2014-07-19T08:31:31Z</time>
      </trkpt>
      <trkpt lat="45.64206" lon="2.94552">
        <ele>1038.36</ele>
        <time>2014-07-19T08:31:32Z</time>
      </trkpt>
      <trkpt lat="45.64209" lon="2.94559">
        <ele>1037.88</ele>
        <time>2014-07-19T08:31:33Z</time>
      </trkpt>
      <trkpt lat="45.64212" lon="2.94567">
        <ele>1037.88</ele>
        <time>2014-07-19T08:31:34Z</time>
      </trkpt>
      <trkpt lat="45.64215" lon="2.94574">
        <ele>1037.4</ele>
        <time>2014-07-19T08:31:35Z</time>
      </trkpt>
      <trkpt lat="45.64256" lon="2.94702">
        <ele>1035.96</ele>
        <time>2014-07-19T08:31:52Z</time>
      </trkpt>
      <trkpt lat="45.6426" lon="2.94716">
        <ele>1035.96</ele>
        <time>2014-07-19T08:31:54Z</time>
      </trkpt>
      <trkpt lat="45.64263" lon="2.94723">
        <ele>1035.48</ele>
        <time>2014-07-19T08:31:55Z</time>
      </trkpt>
      <trkpt lat="45.64283" lon="2.94788">
        <ele>1034.52</ele>
        <time>2014-07-19T08:32:05Z</time>
      </trkpt>
      <trkpt lat="45.64301" lon="2.94885">
        <ele>1034.04</ele>
        <time>2014-07-19T08:32:19Z</time>
      </trkpt>
      <trkpt lat="45.64306" lon="2.94908">
        <ele>1034.04</ele>
        <time>2014-07-19T08:32:22Z</time>
      </trkpt>
      <trkpt lat="45.64328" lon="2.9503">
        <ele>1035</ele>
        <time>2014-07-19T08:32:39Z</time>
      </trkpt>
      <trkpt lat="45.64343" lon="2.95113">
        <ele>1031.63</ele>
        <time>2014-07-19T08:32:49Z</time>
      </trkpt>
      <trkpt lat="45.64373" lon="2.95266">
        <ele>1028.75</ele>
        <time>2014-07-19T08:33:04Z</time>
      </trkpt>
      <trkpt lat="45.64394" lon="2.95388">
        <ele>1029.23</ele>
        <time>2014-07-19T08:33:17Z</time>
      </trkpt>
      <trkpt lat="45.64396" lon="2.95395">
        <ele>1029.23</ele>
        <time>2014-07-19T08:33:18Z</time>
      </trkpt>
      <trkpt lat="45.64414" lon="2.955">
        <ele>1031.63</ele>
        <time>2014-07-19T08:33:35Z</time>
      </trkpt>
      <trkpt lat="45.64416" lon="2.95577">
        <ele>1032.59</ele>
        <time>2014-07-19T08:33:49Z</time>
      </trkpt>
      <trkpt lat="45.64417" lon="2.95682">
        <ele>1030.67</ele>
        <time>2014-07-19T08:34:04Z</time>
      </trkpt>
      <trkpt lat="45.64419" lon="2.9581">
        <ele>1030.19</ele>
        <time>2014-07-19T08:34:21Z</time>
      </trkpt>
      <trkpt lat="45.64419" lon="2.95943">
        <ele>1028.27</ele>
        <time>2014-07-19T08:34:39Z</time>
      </trkpt>
      <trkpt lat="45.64421" lon="2.96093">
        <ele>1025.86</ele>
        <time>2014-07-19T08:34:57Z</time>
      </trkpt>
      <trkpt lat="45.6442" lon="2.96121">
        <ele>1025.86</ele>
        <time>2014-07-19T08:35:00Z</time>
      </trkpt>
      <trkpt lat="45.6442" lon="2.9613">
        <ele>1025.38</ele>
        <time>2014-07-19T08:35:01Z</time>
      </trkpt>
      <trkpt lat="45.6442" lon="2.96139">
        <ele>1025.86</ele>
        <time>2014-07-19T08:35:02Z</time>
      </trkpt>
      <trkpt lat="45.64421" lon="2.96148">
        <ele>1025.86</ele>
        <time>2014-07-19T08:35:03Z</time>
      </trkpt>
      <trkpt lat="45.64424" lon="2.96156">
        <ele>1025.38</ele>
        <time>2014-07-19T08:35:04Z</time>
      </trkpt>
      <trkpt lat="45.64427" lon="2.96164">
        <ele>1025.38</ele>
        <time>2014-07-19T08:35:05Z</time>
      </trkpt>
      <trkpt lat="45.64431" lon="2.96171">
        <ele>1025.38</ele>
        <time>2014-07-19T08:35:06Z</time>
      </trkpt>
      <trkpt lat="45.64435" lon="2.96177">
        <ele>1025.38</ele>
        <time>2014-07-19T08:35:07Z</time>
      </trkpt>
      <trkpt lat="45.64448" lon="2.96192">
        <ele>1025.86</ele>
        <time>2014-07-19T08:35:10Z</time>
      </trkpt>
      <trkpt lat="45.64502" lon="2.96249">
        <ele>1025.38</ele>
        <time>2014-07-19T08:35:23Z</time>
      </trkpt>
      <trkpt lat="45.64514" lon="2.96264">
        <ele>1024.9</ele>
        <time>2014-07-19T08:35:26Z</time>
      </trkpt>
      <trkpt lat="45.64517" lon="2.96269">
        <ele>1024.9</ele>
        <time>2014-07-19T08:35:27Z</time>
      </trkpt>
      <trkpt lat="45.6452" lon="2.96275">
        <ele>1025.38</ele>
        <time>2014-07-19T08:35:28Z</time>
      </trkpt>
      <trkpt lat="45.64523" lon="2.96282">
        <ele>1024.9</ele>
        <time>2014-07-19T08:35:29Z</time>
      </trkpt>
      <trkpt lat="45.64525" lon="2.96288">
        <ele>1024.9</ele>
        <time>2014-07-19T08:35:30Z</time>
      </trkpt>
      <trkpt lat="45.64526" lon="2.96295">
        <ele>1025.38</ele>
        <time>2014-07-19T08:35:31Z</time>
      </trkpt>
      <trkpt lat="45.64527" lon="2.96302">
        <ele>1025.38</ele>
        <time>2014-07-19T08:35:32Z</time>
      </trkpt>
      <trkpt lat="45.64527" lon="2.9631">
        <ele>1025.38</ele>
        <time>2014-07-19T08:35:33Z</time>
      </trkpt>
      <trkpt lat="45.64527" lon="2.96317">
        <ele>1025.38</ele>
        <time>2014-07-19T08:35:34Z</time>
      </trkpt>
      <trkpt lat="45.64527" lon="2.96331">
        <ele>1025.38</ele>
        <time>2014-07-19T08:35:36Z</time>
      </trkpt>
      <trkpt lat="45.64526" lon="2.96338">
        <ele>1024.9</ele>
        <time>2014-07-19T08:35:37Z</time>
      </trkpt>
      <trkpt lat="45.64526" lon="2.96359">
        <ele>1024.9</ele>
        <time>2014-07-19T08:35:40Z</time>
      </trkpt>
      <trkpt lat="45.64526" lon="2.96366">
        <ele>1025.86</ele>
        <time>2014-07-19T08:35:41Z</time>
      </trkpt>
      <trkpt lat="45.64526" lon="2.96373">
        <ele>1024.9</ele>
        <time>2014-07-19T08:35:42Z</time>
      </trkpt>
      <trkpt lat="45.64526" lon="2.96456">
        <ele>1024.42</ele>
        <time>2014-07-19T08:35:54Z</time>
      </trkpt>
      <trkpt lat="45.64525" lon="2.96463">
        <ele>1024.42</ele>
        <time>2014-07-19T08:35:55Z</time>
      </trkpt>
      <trkpt lat="45.64523" lon="2.96582">
        <ele>1023.46</ele>
        <time>2014-07-19T08:36:11Z</time>
      </trkpt>
      <trkpt lat="45.64524" lon="2.96596">
        <ele>1023.94</ele>
        <time>2014-07-19T08:36:13Z</time>
      </trkpt>
      <trkpt lat="45.64526" lon="2.96609">
        <ele>1023.94</ele>
        <time>2014-07-19T08:36:15Z</time>
      </trkpt>
      <trkpt lat="45.64527" lon="2.96615">
        <ele>1023.94</ele>
        <time>2014-07-19T08:36:16Z</time>
      </trkpt>
      <trkpt lat="45.64546" lon="2.96693">
        <ele>1024.42</ele>
        <time>2014-07-19T08:36:31Z</time>
      </trkpt>
      <trkpt lat="45.64559" lon="2.96752">
        <ele>1025.38</ele>
        <time>2014-07-19T08:36:46Z</time>
      </trkpt>
      <trkpt lat="45.64571" lon="2.96808">
        <ele>1026.34</ele>
        <time>2014-07-19T08:37:00Z</time>
      </trkpt>
      <trkpt lat="45.64591" lon="2.96874">
        <ele>1025.86</ele>
        <time>2014-07-19T08:37:15Z</time>
      </trkpt>
      <trkpt lat="45.64607" lon="2.96945">
        <ele>1022.5</ele>
        <time>2014-07-19T08:37:27Z</time>
      </trkpt>
      <trkpt lat="45.64611" lon="2.97015">
        <ele>1019.13</ele>
        <time>2014-07-19T08:37:35Z</time>
      </trkpt>
      <trkpt lat="45.64619" lon="2.97051">
        <ele>1015.77</ele>
        <time>2014-07-19T08:37:42Z</time>
      </trkpt>
      <trkpt lat="45.64621" lon="2.97056">
        <ele>1014.81</ele>
        <time>2014-07-19T08:37:43Z</time>
      </trkpt>
      <trkpt lat="45.6463" lon="2.97073">
        <ele>1012.41</ele>
        <time>2014-07-19T08:37:47Z</time>
      </trkpt>
      <trkpt lat="45.64636" lon="2.97074">
        <ele>1011.93</ele>
        <time>2014-07-19T08:37:48Z</time>
      </trkpt>
      <trkpt lat="45.6464" lon="2.97072">
        <ele>1010.96</ele>
        <time>2014-07-19T08:37:49Z</time>
      </trkpt>
      <trkpt lat="45.64645" lon="2.97068">
        <ele>1010.96</ele>
        <time>2014-07-19T08:37:50Z</time>
      </trkpt>
      <trkpt lat="45.6465" lon="2.97065">
        <ele>1010.96</ele>
        <time>2014-07-19T08:37:51Z</time>
      </trkpt>
      <trkpt lat="45.64654" lon="2.97063">
        <ele>1010.96</ele>
        <time>2014-07-19T08:37:52Z</time>
      </trkpt>
      <trkpt lat="45.64659" lon="2.97061">
        <ele>1010.96</ele>
        <time>2014-07-19T08:37:53Z</time>
      </trkpt>
      <trkpt lat="45.64679" lon="2.97053">
        <ele>1009.04</ele>
        <time>2014-07-19T08:37:57Z</time>
      </trkpt>
      <trkpt lat="45.64695" lon="2.97046">
        <ele>1007.12</ele>
        <time>2014-07-19T08:38:02Z</time>
      </trkpt>
      <trkpt lat="45.64716" lon="2.97037">
        <ele>1004.23</ele>
        <time>2014-07-19T08:38:06Z</time>
      </trkpt>
      <trkpt lat="45.64729" lon="2.97031">
        <ele>1003.27</ele>
        <time>2014-07-19T08:38:08Z</time>
      </trkpt>
      <trkpt lat="45.64748" lon="2.97022">
        <ele>1001.35</ele>
        <time>2014-07-19T08:38:11Z</time>
      </trkpt>
      <trkpt lat="45.64754" lon="2.97021">
        <ele>1000.39</ele>
        <time>2014-07-19T08:38:12Z</time>
      </trkpt>
      <trkpt lat="45.64761" lon="2.97022">
        <ele>999.91</ele>
        <time>2014-07-19T08:38:13Z</time>
      </trkpt>
      <trkpt lat="45.64767" lon="2.97022">
        <ele>999.43</ele>
        <time>2014-07-19T08:38:14Z</time>
      </trkpt>
      <trkpt lat="45.64772" lon="2.97019">
        <ele>999.43</ele>
        <time>2014-07-19T08:38:15Z</time>
      </trkpt>
      <trkpt lat="45.64776" lon="2.97014">
        <ele>999.43</ele>
        <time>2014-07-19T08:38:16Z</time>
      </trkpt>
      <trkpt lat="45.64778" lon="2.97008">
        <ele>998.95</ele>
        <time>2014-07-19T08:38:17Z</time>
      </trkpt>
      <trkpt lat="45.6478" lon="2.97003">
        <ele>997.99</ele>
        <time>2014-07-19T08:38:18Z</time>
      </trkpt>
      <trkpt lat="45.64782" lon="2.96996">
        <ele>997.51</ele>
        <time>2014-07-19T08:38:19Z</time>
      </trkpt>
      <trkpt lat="45.64783" lon="2.9699">
        <ele>997.02</ele>
        <time>2014-07-19T08:38:20Z</time>
      </trkpt>
      <trkpt lat="45.64792" lon="2.96958">
        <ele>993.66</ele>
        <time>2014-07-19T08:38:27Z</time>
      </trkpt>
      <trkpt lat="45.64797" lon="2.96939">
        <ele>990.3</ele>
        <time>2014-07-19T08:38:31Z</time>
      </trkpt>
      <trkpt lat="45.64804" lon="2.96921">
        <ele>987.41</ele>
        <time>2014-07-19T08:38:34Z</time>
      </trkpt>
      <trkpt lat="45.64809" lon="2.96911">
        <ele>985.97</ele>
        <time>2014-07-19T08:38:36Z</time>
      </trkpt>
      <trkpt lat="45.64812" lon="2.96907">
        <ele>985.49</ele>
        <time>2014-07-19T08:38:37Z</time>
      </trkpt>
      <trkpt lat="45.64831" lon="2.96885">
        <ele>982.12</ele>
        <time>2014-07-19T08:38:42Z</time>
      </trkpt>
      <trkpt lat="45.64835" lon="2.9688">
        <ele>981.16</ele>
        <time>2014-07-19T08:38:43Z</time>
      </trkpt>
      <trkpt lat="45.64842" lon="2.96871">
        <ele>979.72</ele>
        <time>2014-07-19T08:38:45Z</time>
      </trkpt>
      <trkpt lat="45.64864" lon="2.96846">
        <ele>976.36</ele>
        <time>2014-07-19T08:38:50Z</time>
      </trkpt>
      <trkpt lat="45.64878" lon="2.9683">
        <ele>973.47</ele>
        <time>2014-07-19T08:38:53Z</time>
      </trkpt>
      <trkpt lat="45.6489" lon="2.96816">
        <ele>972.03</ele>
        <time>2014-07-19T08:38:56Z</time>
      </trkpt>
      <trkpt lat="45.6491" lon="2.96793">
        <ele>969.63</ele>
        <time>2014-07-19T08:39:03Z</time>
      </trkpt>
      <trkpt lat="45.64913" lon="2.96788">
        <ele>969.63</ele>
        <time>2014-07-19T08:39:04Z</time>
      </trkpt>
      <trkpt lat="45.6492" lon="2.96774">
        <ele>968.18</ele>
        <time>2014-07-19T08:39:07Z</time>
      </trkpt>
      <trkpt lat="45.64928" lon="2.96755">
        <ele>966.26</ele>
        <time>2014-07-19T08:39:12Z</time>
      </trkpt>
      <trkpt lat="45.64937" lon="2.96748">
        <ele>964.82</ele>
        <time>2014-07-19T08:39:15Z</time>
      </trkpt>
      <trkpt lat="45.6497" lon="2.96736">
        <ele>961.46</ele>
        <time>2014-07-19T08:39:22Z</time>
      </trkpt>
      <trkpt lat="45.64991" lon="2.96728">
        <ele>959.53</ele>
        <time>2014-07-19T08:39:26Z</time>
      </trkpt>
      <trkpt lat="45.64996" lon="2.96724">
        <ele>959.53</ele>
        <time>2014-07-19T08:39:27Z</time>
      </trkpt>
      <trkpt lat="45.65" lon="2.96719">
        <ele>959.05</ele>
        <time>2014-07-19T08:39:28Z</time>
      </trkpt>
      <trkpt lat="45.65005" lon="2.96713">
        <ele>958.57</ele>
        <time>2014-07-19T08:39:29Z</time>
      </trkpt>
      <trkpt lat="45.65009" lon="2.96706">
        <ele>958.09</ele>
        <time>2014-07-19T08:39:30Z</time>
      </trkpt>
      <trkpt lat="45.65012" lon="2.967">
        <ele>958.09</ele>
        <time>2014-07-19T08:39:31Z</time>
      </trkpt>
      <trkpt lat="45.65024" lon="2.96682">
        <ele>957.13</ele>
        <time>2014-07-19T08:39:34Z</time>
      </trkpt>
      <trkpt lat="45.65029" lon="2.96677">
        <ele>957.13</ele>
        <time>2014-07-19T08:39:35Z</time>
      </trkpt>
      <trkpt lat="45.65034" lon="2.96674">
        <ele>957.13</ele>
        <time>2014-07-19T08:39:36Z</time>
      </trkpt>
      <trkpt lat="45.65038" lon="2.96672">
        <ele>957.13</ele>
        <time>2014-07-19T08:39:37Z</time>
      </trkpt>
      <trkpt lat="45.65043" lon="2.96671">
        <ele>957.13</ele>
        <time>2014-07-19T08:39:38Z</time>
      </trkpt>
      <trkpt lat="45.65069" lon="2.9666">
        <ele>960.49</ele>
        <time>2014-07-19T08:39:49Z</time>
      </trkpt>
      <trkpt lat="45.65091" lon="2.96647">
        <ele>962.9</ele>
        <time>2014-07-19T08:40:01Z</time>
      </trkpt>
      <trkpt lat="45.65098" lon="2.96641">
        <ele>962.9</ele>
        <time>2014-07-19T08:40:04Z</time>
      </trkpt>
      <trkpt lat="45.65124" lon="2.96584">
        <ele>962.9</ele>
        <time>2014-07-19T08:40:20Z</time>
      </trkpt>
      <trkpt lat="45.65144" lon="2.96538">
        <ele>962.9</ele>
        <time>2014-07-19T08:40:32Z</time>
      </trkpt>
      <trkpt lat="45.65158" lon="2.96505">
        <ele>962.42</ele>
        <time>2014-07-19T08:40:39Z</time>
      </trkpt>
      <trkpt lat="45.65161" lon="2.965">
        <ele>961.94</ele>
        <time>2014-07-19T08:40:40Z</time>
      </trkpt>
      <trkpt lat="45.6517" lon="2.96478">
        <ele>961.94</ele>
        <time>2014-07-19T08:40:44Z</time>
      </trkpt>
      <trkpt lat="45.65202" lon="2.96401">
        <ele>962.42</ele>
        <time>2014-07-19T08:40:59Z</time>
      </trkpt>
      <trkpt lat="45.65226" lon="2.96342">
        <ele>963.38</ele>
        <time>2014-07-19T08:41:13Z</time>
      </trkpt>
      <trkpt lat="45.65244" lon="2.96302">
        <ele>963.38</ele>
        <time>2014-07-19T08:41:23Z</time>
      </trkpt>
      <trkpt lat="45.65247" lon="2.96301">
        <ele>963.86</ele>
        <time>2014-07-19T08:41:24Z</time>
      </trkpt>
      <trkpt lat="45.65249" lon="2.96301">
        <ele>963.86</ele>
        <time>2014-07-19T08:41:25Z</time>
      </trkpt>
      <trkpt lat="45.65252" lon="2.96302">
        <ele>963.86</ele>
        <time>2014-07-19T08:41:26Z</time>
      </trkpt>
      <trkpt lat="45.65255" lon="2.96303">
        <ele>964.34</ele>
        <time>2014-07-19T08:41:27Z</time>
      </trkpt>
      <trkpt lat="45.65258" lon="2.96305">
        <ele>964.34</ele>
        <time>2014-07-19T08:41:28Z</time>
      </trkpt>
      <trkpt lat="45.65297" lon="2.96334">
        <ele>965.78</ele>
        <time>2014-07-19T08:41:42Z</time>
      </trkpt>
      <trkpt lat="45.65332" lon="2.96359">
        <ele>967.22</ele>
        <time>2014-07-19T08:41:57Z</time>
      </trkpt>
      <trkpt lat="45.65357" lon="2.96372">
        <ele>968.67</ele>
        <time>2014-07-19T08:42:09Z</time>
      </trkpt>
      <trkpt lat="45.6539" lon="2.96383">
        <ele>969.63</ele>
        <time>2014-07-19T08:42:23Z</time>
      </trkpt>
      <trkpt lat="45.65427" lon="2.96402">
        <ele>968.67</ele>
        <time>2014-07-19T08:42:37Z</time>
      </trkpt>
      <trkpt lat="45.65443" lon="2.96411">
        <ele>967.7</ele>
        <time>2014-07-19T08:42:41Z</time>
      </trkpt>
      <trkpt lat="45.6546" lon="2.9643">
        <ele>966.26</ele>
        <time>2014-07-19T08:42:45Z</time>
      </trkpt>
      <trkpt lat="45.65481" lon="2.96462">
        <ele>962.42</ele>
        <time>2014-07-19T08:42:49Z</time>
      </trkpt>
      <trkpt lat="45.65505" lon="2.96492">
        <ele>959.05</ele>
        <time>2014-07-19T08:42:53Z</time>
      </trkpt>
      <trkpt lat="45.65519" lon="2.9651">
        <ele>957.13</ele>
        <time>2014-07-19T08:42:56Z</time>
      </trkpt>
      <trkpt lat="45.65524" lon="2.96515">
        <ele>956.65</ele>
        <time>2014-07-19T08:42:57Z</time>
      </trkpt>
      <trkpt lat="45.65533" lon="2.96521">
        <ele>955.21</ele>
        <time>2014-07-19T08:42:59Z</time>
      </trkpt>
      <trkpt lat="45.65538" lon="2.96523">
        <ele>954.73</ele>
        <time>2014-07-19T08:43:00Z</time>
      </trkpt>
      <trkpt lat="45.65544" lon="2.96522">
        <ele>954.25</ele>
        <time>2014-07-19T08:43:01Z</time>
      </trkpt>
      <trkpt lat="45.65593" lon="2.96508">
        <ele>952.32</ele>
        <time>2014-07-19T08:43:09Z</time>
      </trkpt>
      <trkpt lat="45.65621" lon="2.96501">
        <ele>950.88</ele>
        <time>2014-07-19T08:43:18Z</time>
      </trkpt>
      <trkpt lat="45.65625" lon="2.96514">
        <ele>949.92</ele>
        <time>2014-07-19T08:43:24Z</time>
      </trkpt>
      <trkpt lat="45.65622" lon="2.96527">
        <ele>948.96</ele>
        <time>2014-07-19T08:43:35Z</time>
      </trkpt>
      <trkpt lat="45.65619" lon="2.96556">
        <ele>947.04</ele>
        <time>2014-07-19T08:43:49Z</time>
      </trkpt>
      <trkpt lat="45.65612" lon="2.96602">
        <ele>943.67</ele>
        <time>2014-07-19T08:43:56Z</time>
      </trkpt>
      <trkpt lat="45.65603" lon="2.96631">
        <ele>941.75</ele>
        <time>2014-07-19T08:44:03Z</time>
      </trkpt>
      <trkpt lat="45.65604" lon="2.96634">
        <ele>941.75</ele>
        <time>2014-07-19T08:44:04Z</time>
      </trkpt>
      <trkpt lat="45.65607" lon="2.96634">
        <ele>941.27</ele>
        <time>2014-07-19T08:44:05Z</time>
      </trkpt>
      <trkpt lat="45.6561" lon="2.96633">
        <ele>941.27</ele>
        <time>2014-07-19T08:44:06Z</time>
      </trkpt>
      <trkpt lat="45.65614" lon="2.96632">
        <ele>940.79</ele>
        <time>2014-07-19T08:44:07Z</time>
      </trkpt>
      <trkpt lat="45.65618" lon="2.96629">
        <ele>940.31</ele>
        <time>2014-07-19T08:44:08Z</time>
      </trkpt>
      <trkpt lat="45.65622" lon="2.96626">
        <ele>940.31</ele>
        <time>2014-07-19T08:44:09Z</time>
      </trkpt>
      <trkpt lat="45.65649" lon="2.96598">
        <ele>941.27</ele>
        <time>2014-07-19T08:44:18Z</time>
      </trkpt>
      <trkpt lat="45.65681" lon="2.96574">
        <ele>942.71</ele>
        <time>2014-07-19T08:44:29Z</time>
      </trkpt>
      <trkpt lat="45.65689" lon="2.96573">
        <ele>942.71</ele>
        <time>2014-07-19T08:44:31Z</time>
      </trkpt>
      <trkpt lat="45.65693" lon="2.96573">
        <ele>942.23</ele>
        <time>2014-07-19T08:44:32Z</time>
      </trkpt>
      <trkpt lat="45.65698" lon="2.96575">
        <ele>941.75</ele>
        <time>2014-07-19T08:44:33Z</time>
      </trkpt>
      <trkpt lat="45.65746" lon="2.96596">
        <ele>938.38</ele>
        <time>2014-07-19T08:44:41Z</time>
      </trkpt>
      <trkpt lat="45.65781" lon="2.96619">
        <ele>936.94</ele>
        <time>2014-07-19T08:44:46Z</time>
      </trkpt>
      <trkpt lat="45.65795" lon="2.96627">
        <ele>936.46</ele>
        <time>2014-07-19T08:44:48Z</time>
      </trkpt>
      <trkpt lat="45.65802" lon="2.9663">
        <ele>935.98</ele>
        <time>2014-07-19T08:44:49Z</time>
      </trkpt>
      <trkpt lat="45.6581" lon="2.96632">
        <ele>936.46</ele>
        <time>2014-07-19T08:44:50Z</time>
      </trkpt>
      <trkpt lat="45.65817" lon="2.96634">
        <ele>935.98</ele>
        <time>2014-07-19T08:44:51Z</time>
      </trkpt>
      <trkpt lat="45.65825" lon="2.96635">
        <ele>935.98</ele>
        <time>2014-07-19T08:44:52Z</time>
      </trkpt>
      <trkpt lat="45.65896" lon="2.96656">
        <ele>935.98</ele>
        <time>2014-07-19T08:45:03Z</time>
      </trkpt>
      <trkpt lat="45.65902" lon="2.96657">
        <ele>935.98</ele>
        <time>2014-07-19T08:45:04Z</time>
      </trkpt>
      <trkpt lat="45.65908" lon="2.96657">
        <ele>935.98</ele>
        <time>2014-07-19T08:45:05Z</time>
      </trkpt>
      <trkpt lat="45.65913" lon="2.96656">
        <ele>936.46</ele>
        <time>2014-07-19T08:45:06Z</time>
      </trkpt>
      <trkpt lat="45.65918" lon="2.96655">
        <ele>936.94</ele>
        <time>2014-07-19T08:45:07Z</time>
      </trkpt>
      <trkpt lat="45.65922" lon="2.96655">
        <ele>936.94</ele>
        <time>2014-07-19T08:45:08Z</time>
      </trkpt>
      <trkpt lat="45.65926" lon="2.96655">
        <ele>936.94</ele>
        <time>2014-07-19T08:45:09Z</time>
      </trkpt>
      <trkpt lat="45.65958" lon="2.96655">
        <ele>938.38</ele>
        <time>2014-07-19T08:45:16Z</time>
      </trkpt>
      <trkpt lat="45.65975" lon="2.96657">
        <ele>939.35</ele>
        <time>2014-07-19T08:45:20Z</time>
      </trkpt>
      <trkpt lat="45.65995" lon="2.96674">
        <ele>940.79</ele>
        <time>2014-07-19T08:45:28Z</time>
      </trkpt>
      <trkpt lat="45.66004" lon="2.96679">
        <ele>941.27</ele>
        <time>2014-07-19T08:45:31Z</time>
      </trkpt>
      <trkpt lat="45.6601" lon="2.96678">
        <ele>941.27</ele>
        <time>2014-07-19T08:45:32Z</time>
      </trkpt>
      <trkpt lat="45.66015" lon="2.96676">
        <ele>941.75</ele>
        <time>2014-07-19T08:45:33Z</time>
      </trkpt>
      <trkpt lat="45.66021" lon="2.96672">
        <ele>942.23</ele>
        <time>2014-07-19T08:45:34Z</time>
      </trkpt>
      <trkpt lat="45.66027" lon="2.96669">
        <ele>942.23</ele>
        <time>2014-07-19T08:45:35Z</time>
      </trkpt>
      <trkpt lat="45.66031" lon="2.96668">
        <ele>942.23</ele>
        <time>2014-07-19T08:45:36Z</time>
      </trkpt>
      <trkpt lat="45.66063" lon="2.96664">
        <ele>944.63</ele>
        <time>2014-07-19T08:45:49Z</time>
      </trkpt>
      <trkpt lat="45.66086" lon="2.96663">
        <ele>946.07</ele>
        <time>2014-07-19T08:46:00Z</time>
      </trkpt>
      <trkpt lat="45.66094" lon="2.96661">
        <ele>947.04</ele>
        <time>2014-07-19T08:46:04Z</time>
      </trkpt>
      <trkpt lat="45.66095" lon="2.96662">
        <ele>947.04</ele>
        <time>2014-07-19T08:46:05Z</time>
      </trkpt>
      <trkpt lat="45.66097" lon="2.96663">
        <ele>947.52</ele>
        <time>2014-07-19T08:46:06Z</time>
      </trkpt>
      <trkpt lat="45.66099" lon="2.96662">
        <ele>947.52</ele>
        <time>2014-07-19T08:46:07Z</time>
      </trkpt>
      <trkpt lat="45.661" lon="2.96662">
        <ele>947.52</ele>
        <time>2014-07-19T08:46:08Z</time>
      </trkpt>
      <trkpt lat="45.66102" lon="2.96662">
        <ele>948</ele>
        <time>2014-07-19T08:46:09Z</time>
      </trkpt>
      <trkpt lat="45.66104" lon="2.96662">
        <ele>948</ele>
        <time>2014-07-19T08:46:10Z</time>
      </trkpt>
      <trkpt lat="45.66107" lon="2.96662">
        <ele>948</ele>
        <time>2014-07-19T08:46:11Z</time>
      </trkpt>
      <trkpt lat="45.66134" lon="2.96656">
        <ele>949.92</ele>
        <time>2014-07-19T08:46:24Z</time>
      </trkpt>
      <trkpt lat="45.6616" lon="2.96645">
        <ele>952.8</ele>
        <time>2014-07-19T08:46:38Z</time>
      </trkpt>
      <trkpt lat="45.66162" lon="2.96643">
        <ele>953.28</ele>
        <time>2014-07-19T08:46:40Z</time>
      </trkpt>
      <trkpt lat="45.66184" lon="2.96631">
        <ele>955.21</ele>
        <time>2014-07-19T08:46:55Z</time>
      </trkpt>
      <trkpt lat="45.66197" lon="2.96625">
        <ele>955.69</ele>
        <time>2014-07-19T08:47:03Z</time>
      </trkpt>
      <trkpt lat="45.66198" lon="2.96623">
        <ele>955.69</ele>
        <time>2014-07-19T08:47:04Z</time>
      </trkpt>
      <trkpt lat="45.662" lon="2.96622">
        <ele>955.69</ele>
        <time>2014-07-19T08:47:05Z</time>
      </trkpt>
      <trkpt lat="45.66201" lon="2.9662">
        <ele>955.69</ele>
        <time>2014-07-19T08:47:06Z</time>
      </trkpt>
      <trkpt lat="45.66203" lon="2.96619">
        <ele>955.69</ele>
        <time>2014-07-19T08:47:07Z</time>
      </trkpt>
      <trkpt lat="45.66204" lon="2.96619">
        <ele>955.69</ele>
        <time>2014-07-19T08:47:08Z</time>
      </trkpt>
      <trkpt lat="45.66206" lon="2.96618">
        <ele>955.69</ele>
        <time>2014-07-19T08:47:09Z</time>
      </trkpt>
      <trkpt lat="45.66207" lon="2.96617">
        <ele>956.17</ele>
        <time>2014-07-19T08:47:10Z</time>
      </trkpt>
      <trkpt lat="45.66209" lon="2.96617">
        <ele>956.17</ele>
        <time>2014-07-19T08:47:11Z</time>
      </trkpt>
      <trkpt lat="45.6624" lon="2.96618">
        <ele>954.73</ele>
        <time>2014-07-19T08:47:22Z</time>
      </trkpt>
      <trkpt lat="45.6626" lon="2.96624">
        <ele>953.77</ele>
        <time>2014-07-19T08:47:27Z</time>
      </trkpt>
      <trkpt lat="45.66265" lon="2.96624">
        <ele>953.28</ele>
        <time>2014-07-19T08:47:28Z</time>
      </trkpt>
      <trkpt lat="45.6627" lon="2.96624">
        <ele>953.28</ele>
        <time>2014-07-19T08:47:29Z</time>
      </trkpt>
      <trkpt lat="45.66275" lon="2.96622">
        <ele>952.8</ele>
        <time>2014-07-19T08:47:30Z</time>
      </trkpt>
      <trkpt lat="45.66278" lon="2.96619">
        <ele>952.32</ele>
        <time>2014-07-19T08:47:31Z</time>
      </trkpt>
      <trkpt lat="45.6628" lon="2.96615">
        <ele>951.84</ele>
        <time>2014-07-19T08:47:32Z</time>
      </trkpt>
      <trkpt lat="45.66284" lon="2.9661">
        <ele>951.36</ele>
        <time>2014-07-19T08:47:33Z</time>
      </trkpt>
      <trkpt lat="45.66293" lon="2.96599">
        <ele>949.92</ele>
        <time>2014-07-19T08:47:35Z</time>
      </trkpt>
      <trkpt lat="45.66299" lon="2.96595">
        <ele>949.44</ele>
        <time>2014-07-19T08:47:36Z</time>
      </trkpt>
      <trkpt lat="45.66306" lon="2.96591">
        <ele>948.48</ele>
        <time>2014-07-19T08:47:37Z</time>
      </trkpt>
      <trkpt lat="45.66313" lon="2.96588">
        <ele>948</ele>
        <time>2014-07-19T08:47:38Z</time>
      </trkpt>
      <trkpt lat="45.66321" lon="2.96586">
        <ele>947.04</ele>
        <time>2014-07-19T08:47:39Z</time>
      </trkpt>
      <trkpt lat="45.66328" lon="2.96584">
        <ele>947.04</ele>
        <time>2014-07-19T08:47:40Z</time>
      </trkpt>
      <trkpt lat="45.66342" lon="2.96581">
        <ele>947.52</ele>
        <time>2014-07-19T08:47:42Z</time>
      </trkpt>
      <trkpt lat="45.66376" lon="2.96578">
        <ele>947.04</ele>
        <time>2014-07-19T08:47:47Z</time>
      </trkpt>
      <trkpt lat="45.66412" lon="2.96582">
        <ele>947.04</ele>
        <time>2014-07-19T08:47:53Z</time>
      </trkpt>
      <trkpt lat="45.66418" lon="2.96585">
        <ele>947.04</ele>
        <time>2014-07-19T08:47:54Z</time>
      </trkpt>
      <trkpt lat="45.66479" lon="2.96626">
        <ele>948.48</ele>
        <time>2014-07-19T08:48:08Z</time>
      </trkpt>
      <trkpt lat="45.66534" lon="2.96649">
        <ele>949.92</ele>
        <time>2014-07-19T08:48:24Z</time>
      </trkpt>
      <trkpt lat="45.66536" lon="2.96651">
        <ele>949.92</ele>
        <time>2014-07-19T08:48:25Z</time>
      </trkpt>
      <trkpt lat="45.66539" lon="2.96653">
        <ele>949.92</ele>
        <time>2014-07-19T08:48:26Z</time>
      </trkpt>
      <trkpt lat="45.66542" lon="2.96653">
        <ele>950.4</ele>
        <time>2014-07-19T08:48:27Z</time>
      </trkpt>
      <trkpt lat="45.66545" lon="2.96654">
        <ele>950.4</ele>
        <time>2014-07-19T08:48:28Z</time>
      </trkpt>
      <trkpt lat="45.66585" lon="2.96652">
        <ele>950.88</ele>
        <time>2014-07-19T08:48:43Z</time>
      </trkpt>
      <trkpt lat="45.66614" lon="2.96656">
        <ele>949.44</ele>
        <time>2014-07-19T08:48:54Z</time>
      </trkpt>
      <trkpt lat="45.6662" lon="2.96655">
        <ele>948.48</ele>
        <time>2014-07-19T08:48:56Z</time>
      </trkpt>
      <trkpt lat="45.6664" lon="2.96654">
        <ele>945.59</ele>
        <time>2014-07-19T08:49:04Z</time>
      </trkpt>
      <trkpt lat="45.66656" lon="2.96658">
        <ele>943.19</ele>
        <time>2014-07-19T08:49:10Z</time>
      </trkpt>
      <trkpt lat="45.66658" lon="2.96656">
        <ele>943.19</ele>
        <time>2014-07-19T08:49:11Z</time>
      </trkpt>
      <trkpt lat="45.66659" lon="2.96653">
        <ele>943.19</ele>
        <time>2014-07-19T08:49:12Z</time>
      </trkpt>
      <trkpt lat="45.66659" lon="2.9665">
        <ele>943.67</ele>
        <time>2014-07-19T08:49:13Z</time>
      </trkpt>
      <trkpt lat="45.66658" lon="2.96647">
        <ele>943.67</ele>
        <time>2014-07-19T08:49:14Z</time>
      </trkpt>
      <trkpt lat="45.66658" lon="2.96643">
        <ele>943.67</ele>
        <time>2014-07-19T08:49:15Z</time>
      </trkpt>
      <trkpt lat="45.66656" lon="2.9664">
        <ele>943.67</ele>
        <time>2014-07-19T08:49:16Z</time>
      </trkpt>
      <trkpt lat="45.66653" lon="2.96638">
        <ele>944.15</ele>
        <time>2014-07-19T08:49:17Z</time>
      </trkpt>
      <trkpt lat="45.66651" lon="2.96636">
        <ele>944.15</ele>
        <time>2014-07-19T08:49:18Z</time>
      </trkpt>
      <trkpt lat="45.66649" lon="2.96634">
        <ele>944.15</ele>
        <time>2014-07-19T08:49:19Z</time>
      </trkpt>
      <trkpt lat="45.66647" lon="2.96631">
        <ele>944.63</ele>
        <time>2014-07-19T08:49:20Z</time>
      </trkpt>
      <trkpt lat="45.66648" lon="2.96596">
        <ele>946.56</ele>
        <time>2014-07-19T08:49:31Z</time>
      </trkpt>
      <trkpt lat="45.66655" lon="2.96586">
        <ele>947.52</ele>
        <time>2014-07-19T08:49:35Z</time>
      </trkpt>
      <trkpt lat="45.66657" lon="2.96584">
        <ele>947.52</ele>
        <time>2014-07-19T08:49:36Z</time>
      </trkpt>
      <trkpt lat="45.66658" lon="2.96583">
        <ele>947.52</ele>
        <time>2014-07-19T08:49:37Z</time>
      </trkpt>
      <trkpt lat="45.6666" lon="2.96581">
        <ele>947.52</ele>
        <time>2014-07-19T08:49:38Z</time>
      </trkpt>
      <trkpt lat="45.66662" lon="2.96579">
        <ele>947.04</ele>
        <time>2014-07-19T08:49:39Z</time>
      </trkpt>
      <trkpt lat="45.66665" lon="2.96575">
        <ele>946.56</ele>
        <time>2014-07-19T08:49:40Z</time>
      </trkpt>
      <trkpt lat="45.66669" lon="2.9657">
        <ele>946.07</ele>
        <time>2014-07-19T08:49:41Z</time>
      </trkpt>
      <trkpt lat="45.66673" lon="2.96565">
        <ele>945.59</ele>
        <time>2014-07-19T08:49:42Z</time>
      </trkpt>
      <trkpt lat="45.66676" lon="2.9656">
        <ele>946.07</ele>
        <time>2014-07-19T08:49:43Z</time>
      </trkpt>
      <trkpt lat="45.6668" lon="2.96554">
        <ele>945.11</ele>
        <time>2014-07-19T08:49:44Z</time>
      </trkpt>
      <trkpt lat="45.66682" lon="2.96547">
        <ele>944.63</ele>
        <time>2014-07-19T08:49:45Z</time>
      </trkpt>
      <trkpt lat="45.66685" lon="2.96541">
        <ele>944.63</ele>
        <time>2014-07-19T08:49:46Z</time>
      </trkpt>
      <trkpt lat="45.66688" lon="2.96536">
        <ele>944.15</ele>
        <time>2014-07-19T08:49:47Z</time>
      </trkpt>
      <trkpt lat="45.66695" lon="2.96525">
        <ele>944.15</ele>
        <time>2014-07-19T08:49:49Z</time>
      </trkpt>
      <trkpt lat="45.66715" lon="2.96496">
        <ele>945.11</ele>
        <time>2014-07-19T08:50:00Z</time>
      </trkpt>
      <trkpt lat="45.66716" lon="2.96496">
        <ele>944.63</ele>
        <time>2014-07-19T08:50:27Z</time>
      </trkpt>
      <trkpt lat="45.66716" lon="2.96497">
        <ele>941.75</ele>
        <time>2014-07-19T08:50:32Z</time>
      </trkpt>
      <trkpt lat="45.66716" lon="2.96497">
        <ele>944.63</ele>
        <time>2014-07-19T08:50:33Z</time>
      </trkpt>
      <trkpt lat="45.66716" lon="2.96497">
        <ele>940.31</ele>
        <time>2014-07-19T08:50:35Z</time>
      </trkpt>
      <trkpt lat="45.66716" lon="2.96497">
        <ele>951.36</ele>
        <time>2014-07-19T08:50:36Z</time>
      </trkpt>
      <trkpt lat="45.66716" lon="2.96497">
        <ele>944.63</ele>
        <time>2014-07-19T08:50:37Z</time>
      </trkpt>
      <trkpt lat="45.66716" lon="2.96497">
        <ele>939.35</ele>
        <time>2014-07-19T08:50:38Z</time>
      </trkpt>
      <trkpt lat="45.66716" lon="2.96497">
        <ele>948.96</ele>
        <time>2014-07-19T08:50:39Z</time>
      </trkpt>
      <trkpt lat="45.66716" lon="2.96497">
        <ele>945.11</ele>
        <time>2014-07-19T08:50:40Z</time>
      </trkpt>
      <trkpt lat="45.66716" lon="2.96497">
        <ele>940.79</ele>
        <time>2014-07-19T08:50:41Z</time>
      </trkpt>
      <trkpt lat="45.66716" lon="2.96497">
        <ele>944.63</ele>
        <time>2014-07-19T08:50:42Z</time>
      </trkpt>
      <trkpt lat="45.66716" lon="2.96497">
        <ele>949.44</ele>
        <time>2014-07-19T08:50:43Z</time>
      </trkpt>
      <trkpt lat="45.66716" lon="2.96497">
        <ele>944.15</ele>
        <time>2014-07-19T08:50:44Z</time>
      </trkpt>
      <trkpt lat="45.66716" lon="2.96497">
        <ele>947.52</ele>
        <time>2014-07-19T08:50:49Z</time>
      </trkpt>
      <trkpt lat="45.66716" lon="2.96497">
        <ele>940.79</ele>
        <time>2014-07-19T08:50:50Z</time>
      </trkpt>
      <trkpt lat="45.66716" lon="2.96497">
        <ele>947.52</ele>
        <time>2014-07-19T08:50:51Z</time>
      </trkpt>
      <trkpt lat="45.66716" lon="2.96497">
        <ele>942.23</ele>
        <time>2014-07-19T08:50:52Z</time>
      </trkpt>
      <trkpt lat="45.66716" lon="2.96497">
        <ele>948.96</ele>
        <time>2014-07-19T08:50:53Z</time>
      </trkpt>
    </trkseg>
  </trk>
</gpx>